<?xml version="1.0" encoding="UTF-8" standalone="no" ?>
<gpx xmlns="http://www.topografix.com/GPX/1/1" xmlns:xsi="http://www.w3.org/2001/XMLSchema-instance" xsi:schemaLocation="http://www.topografix.com/GPX/1/1 http://www.topografix.com/GPX/1/1/gpx.xsd" version="1.1" creator="VisuGPX - https://www.visugpx.com">
  <metadata>
    <name>46 - Porte-du-Quercy : boucles au départ du Domaine des Terres Blanches</name>
    <desc><![CDATA[Cet itinéraire fait partie de la collection de EquiLiberté : www.equiliberte.org Circuit NON ACCESSIBLE aux attelages
Ces circuits ont été élaborés par le gîte équestre Domaine des Terres Blanches https://domainedesterresblanches.com/]]></desc>
  </metadata>
  <wpt lat="44.41706" lon="1.15834">
    <ele>172</ele>
    <name><![CDATA[Domaine des Terres Blanches]]></name>
    <type><![CDATA[hotel]]></type>
  </wpt>
  <trk>
    <name><![CDATA[46 - Porte-du-Quercy : Les Terres Blanches - boucle sud  25 km]]></name>
    <trkseg>
      <trkpt lat="44.41668" lon="1.1585">
        <ele>171</ele>
        <time>2021-02-09T08:26:07Z</time>
      </trkpt>
      <trkpt lat="44.41676" lon="1.15851">
        <ele>171</ele>
        <time>2021-02-09T08:26:13Z</time>
      </trkpt>
      <trkpt lat="44.41686" lon="1.15861">
        <ele>172</ele>
        <time>2021-02-09T08:26:27Z</time>
      </trkpt>
      <trkpt lat="44.4169" lon="1.15864">
        <ele>173</ele>
        <time>2021-02-09T08:26:31Z</time>
      </trkpt>
      <trkpt lat="44.41694" lon="1.15866">
        <ele>174</ele>
        <time>2021-02-09T08:26:35Z</time>
      </trkpt>
      <trkpt lat="44.41717" lon="1.15887">
        <ele>175</ele>
        <time>2021-02-09T08:26:55Z</time>
      </trkpt>
      <trkpt lat="44.41718" lon="1.1589">
        <ele>175</ele>
        <time>2021-02-09T08:26:57Z</time>
      </trkpt>
      <trkpt lat="44.41719" lon="1.15894">
        <ele>175</ele>
        <time>2021-02-09T08:27:00Z</time>
      </trkpt>
      <trkpt lat="44.41714" lon="1.15901">
        <ele>174</ele>
        <time>2021-02-09T08:27:07Z</time>
      </trkpt>
      <trkpt lat="44.41683" lon="1.15926">
        <ele>175</ele>
        <time>2021-02-09T08:27:34Z</time>
      </trkpt>
      <trkpt lat="44.41677" lon="1.15929">
        <ele>176</ele>
        <time>2021-02-09T08:27:39Z</time>
      </trkpt>
      <trkpt lat="44.41674" lon="1.15931">
        <ele>176</ele>
        <time>2021-02-09T08:27:41Z</time>
      </trkpt>
      <trkpt lat="44.41671" lon="1.15934">
        <ele>177</ele>
        <time>2021-02-09T08:27:44Z</time>
      </trkpt>
      <trkpt lat="44.41661" lon="1.15948">
        <ele>177</ele>
        <time>2021-02-09T08:27:54Z</time>
      </trkpt>
      <trkpt lat="44.41646" lon="1.15963">
        <ele>179</ele>
        <time>2021-02-09T08:28:07Z</time>
      </trkpt>
      <trkpt lat="44.41638" lon="1.15975">
        <ele>180</ele>
        <time>2021-02-09T08:28:17Z</time>
      </trkpt>
      <trkpt lat="44.41636" lon="1.15977">
        <ele>180</ele>
        <time>2021-02-09T08:28:19Z</time>
      </trkpt>
      <trkpt lat="44.41631" lon="1.15981">
        <ele>181</ele>
        <time>2021-02-09T08:28:23Z</time>
      </trkpt>
      <trkpt lat="44.41602" lon="1.16021">
        <ele>184</ele>
        <time>2021-02-09T08:28:55Z</time>
      </trkpt>
      <trkpt lat="44.41598" lon="1.16024">
        <ele>184</ele>
        <time>2021-02-09T08:28:58Z</time>
      </trkpt>
      <trkpt lat="44.4159" lon="1.16035">
        <ele>185</ele>
        <time>2021-02-09T08:29:07Z</time>
      </trkpt>
      <trkpt lat="44.41577" lon="1.16045">
        <ele>184</ele>
        <time>2021-02-09T08:29:18Z</time>
      </trkpt>
      <trkpt lat="44.41574" lon="1.16049">
        <ele>184</ele>
        <time>2021-02-09T08:29:22Z</time>
      </trkpt>
      <trkpt lat="44.41571" lon="1.16051">
        <ele>183</ele>
        <time>2021-02-09T08:29:25Z</time>
      </trkpt>
      <trkpt lat="44.41566" lon="1.16055">
        <ele>183</ele>
        <time>2021-02-09T08:29:29Z</time>
      </trkpt>
      <trkpt lat="44.41532" lon="1.16094">
        <ele>183</ele>
        <time>2021-02-09T08:30:00Z</time>
      </trkpt>
      <trkpt lat="44.4153" lon="1.16097">
        <ele>182</ele>
        <time>2021-02-09T08:30:03Z</time>
      </trkpt>
      <trkpt lat="44.41527" lon="1.16098">
        <ele>182</ele>
        <time>2021-02-09T08:30:05Z</time>
      </trkpt>
      <trkpt lat="44.41491" lon="1.16149">
        <ele>180</ele>
        <time>2021-02-09T08:30:35Z</time>
      </trkpt>
      <trkpt lat="44.41459" lon="1.16194">
        <ele>179</ele>
        <time>2021-02-09T08:30:49Z</time>
      </trkpt>
      <trkpt lat="44.41449" lon="1.16205">
        <ele>179</ele>
        <time>2021-02-09T08:30:55Z</time>
      </trkpt>
      <trkpt lat="44.41448" lon="1.16208">
        <ele>178</ele>
        <time>2021-02-09T08:30:58Z</time>
      </trkpt>
      <trkpt lat="44.41444" lon="1.16211">
        <ele>178</ele>
        <time>2021-02-09T08:31:18Z</time>
      </trkpt>
      <trkpt lat="44.41417" lon="1.16216">
        <ele>174</ele>
        <time>2021-02-09T08:31:31Z</time>
      </trkpt>
      <trkpt lat="44.41354" lon="1.16211">
        <ele>167</ele>
        <time>2021-02-09T08:31:49Z</time>
      </trkpt>
      <trkpt lat="44.41347" lon="1.16213">
        <ele>167</ele>
        <time>2021-02-09T08:31:51Z</time>
      </trkpt>
      <trkpt lat="44.41248" lon="1.16187">
        <ele>163</ele>
        <time>2021-02-09T08:32:21Z</time>
      </trkpt>
      <trkpt lat="44.41223" lon="1.16178">
        <ele>163</ele>
        <time>2021-02-09T08:32:27Z</time>
      </trkpt>
      <trkpt lat="44.41219" lon="1.16178">
        <ele>162</ele>
        <time>2021-02-09T08:32:28Z</time>
      </trkpt>
      <trkpt lat="44.41215" lon="1.16179">
        <ele>162</ele>
        <time>2021-02-09T08:32:29Z</time>
      </trkpt>
      <trkpt lat="44.41204" lon="1.16182">
        <ele>161</ele>
        <time>2021-02-09T08:32:33Z</time>
      </trkpt>
      <trkpt lat="44.412" lon="1.16181">
        <ele>161</ele>
        <time>2021-02-09T08:32:35Z</time>
      </trkpt>
      <trkpt lat="44.41193" lon="1.16181">
        <ele>161</ele>
        <time>2021-02-09T08:32:39Z</time>
      </trkpt>
      <trkpt lat="44.41189" lon="1.16183">
        <ele>161</ele>
        <time>2021-02-09T08:32:43Z</time>
      </trkpt>
      <trkpt lat="44.41184" lon="1.16186">
        <ele>162</ele>
        <time>2021-02-09T08:32:46Z</time>
      </trkpt>
      <trkpt lat="44.4118" lon="1.16186">
        <ele>162</ele>
        <time>2021-02-09T08:32:49Z</time>
      </trkpt>
      <trkpt lat="44.41174" lon="1.16187">
        <ele>162</ele>
        <time>2021-02-09T08:32:52Z</time>
      </trkpt>
      <trkpt lat="44.41099" lon="1.16213">
        <ele>164</ele>
        <time>2021-02-09T08:33:14Z</time>
      </trkpt>
      <trkpt lat="44.41093" lon="1.16217">
        <ele>164</ele>
        <time>2021-02-09T08:33:16Z</time>
      </trkpt>
      <trkpt lat="44.41028" lon="1.16236">
        <ele>161</ele>
        <time>2021-02-09T08:33:36Z</time>
      </trkpt>
      <trkpt lat="44.40956" lon="1.16303">
        <ele>163</ele>
        <time>2021-02-09T08:33:59Z</time>
      </trkpt>
      <trkpt lat="44.40933" lon="1.16335">
        <ele>165</ele>
        <time>2021-02-09T08:34:06Z</time>
      </trkpt>
      <trkpt lat="44.40866" lon="1.16443">
        <ele>180</ele>
        <time>2021-02-09T08:34:31Z</time>
      </trkpt>
      <trkpt lat="44.40864" lon="1.16451">
        <ele>180</ele>
        <time>2021-02-09T08:34:33Z</time>
      </trkpt>
      <trkpt lat="44.40841" lon="1.16487">
        <ele>182</ele>
        <time>2021-02-09T08:34:43Z</time>
      </trkpt>
      <trkpt lat="44.4083" lon="1.16499">
        <ele>185</ele>
        <time>2021-02-09T08:34:51Z</time>
      </trkpt>
      <trkpt lat="44.40827" lon="1.16502">
        <ele>186</ele>
        <time>2021-02-09T08:34:54Z</time>
      </trkpt>
      <trkpt lat="44.40818" lon="1.16513">
        <ele>189</ele>
        <time>2021-02-09T08:35:01Z</time>
      </trkpt>
      <trkpt lat="44.40812" lon="1.16522">
        <ele>189</ele>
        <time>2021-02-09T08:35:05Z</time>
      </trkpt>
      <trkpt lat="44.40804" lon="1.16532">
        <ele>195</ele>
        <time>2021-02-09T08:35:11Z</time>
      </trkpt>
      <trkpt lat="44.40797" lon="1.16543">
        <ele>198</ele>
        <time>2021-02-09T08:35:17Z</time>
      </trkpt>
      <trkpt lat="44.40796" lon="1.16547">
        <ele>199</ele>
        <time>2021-02-09T08:35:19Z</time>
      </trkpt>
      <trkpt lat="44.4079" lon="1.16557">
        <ele>203</ele>
        <time>2021-02-09T08:35:26Z</time>
      </trkpt>
      <trkpt lat="44.40785" lon="1.16564">
        <ele>203</ele>
        <time>2021-02-09T08:35:32Z</time>
      </trkpt>
      <trkpt lat="44.40724" lon="1.16595">
        <ele>198</ele>
        <time>2021-02-09T08:35:54Z</time>
      </trkpt>
      <trkpt lat="44.40721" lon="1.16597">
        <ele>198</ele>
        <time>2021-02-09T08:35:55Z</time>
      </trkpt>
      <trkpt lat="44.40693" lon="1.16611">
        <ele>201</ele>
        <time>2021-02-09T08:36:03Z</time>
      </trkpt>
      <trkpt lat="44.40607" lon="1.16632">
        <ele>212</ele>
        <time>2021-02-09T08:36:34Z</time>
      </trkpt>
      <trkpt lat="44.40586" lon="1.16637">
        <ele>218</ele>
        <time>2021-02-09T08:36:48Z</time>
      </trkpt>
      <trkpt lat="44.4058" lon="1.16639">
        <ele>220</ele>
        <time>2021-02-09T08:36:53Z</time>
      </trkpt>
      <trkpt lat="44.40574" lon="1.16641">
        <ele>221</ele>
        <time>2021-02-09T08:36:58Z</time>
      </trkpt>
      <trkpt lat="44.40567" lon="1.16643">
        <ele>221</ele>
        <time>2021-02-09T08:37:03Z</time>
      </trkpt>
      <trkpt lat="44.40565" lon="1.16643">
        <ele>221</ele>
        <time>2021-02-09T08:37:05Z</time>
      </trkpt>
      <trkpt lat="44.40533" lon="1.16657">
        <ele>224</ele>
        <time>2021-02-09T08:37:31Z</time>
      </trkpt>
      <trkpt lat="44.40528" lon="1.1666">
        <ele>225</ele>
        <time>2021-02-09T08:37:36Z</time>
      </trkpt>
      <trkpt lat="44.40526" lon="1.1666">
        <ele>225</ele>
        <time>2021-02-09T08:37:38Z</time>
      </trkpt>
      <trkpt lat="44.40521" lon="1.16661">
        <ele>226</ele>
        <time>2021-02-09T08:37:41Z</time>
      </trkpt>
      <trkpt lat="44.40513" lon="1.16664">
        <ele>227</ele>
        <time>2021-02-09T08:37:48Z</time>
      </trkpt>
      <trkpt lat="44.40509" lon="1.16667">
        <ele>227</ele>
        <time>2021-02-09T08:37:51Z</time>
      </trkpt>
      <trkpt lat="44.40499" lon="1.16671">
        <ele>229</ele>
        <time>2021-02-09T08:38:00Z</time>
      </trkpt>
      <trkpt lat="44.40491" lon="1.16677">
        <ele>229</ele>
        <time>2021-02-09T08:38:08Z</time>
      </trkpt>
      <trkpt lat="44.40476" lon="1.16685">
        <ele>230</ele>
        <time>2021-02-09T08:38:19Z</time>
      </trkpt>
      <trkpt lat="44.40472" lon="1.16689">
        <ele>231</ele>
        <time>2021-02-09T08:38:23Z</time>
      </trkpt>
      <trkpt lat="44.4047" lon="1.16693">
        <ele>232</ele>
        <time>2021-02-09T08:38:27Z</time>
      </trkpt>
      <trkpt lat="44.40463" lon="1.16699">
        <ele>234</ele>
        <time>2021-02-09T08:38:32Z</time>
      </trkpt>
      <trkpt lat="44.4046" lon="1.167">
        <ele>236</ele>
        <time>2021-02-09T08:38:34Z</time>
      </trkpt>
      <trkpt lat="44.40444" lon="1.16721">
        <ele>243</ele>
        <time>2021-02-09T08:38:53Z</time>
      </trkpt>
      <trkpt lat="44.40441" lon="1.16725">
        <ele>245</ele>
        <time>2021-02-09T08:38:57Z</time>
      </trkpt>
      <trkpt lat="44.40431" lon="1.16736">
        <ele>247</ele>
        <time>2021-02-09T08:39:06Z</time>
      </trkpt>
      <trkpt lat="44.40426" lon="1.16739">
        <ele>247</ele>
        <time>2021-02-09T08:39:09Z</time>
      </trkpt>
      <trkpt lat="44.40419" lon="1.16742">
        <ele>246</ele>
        <time>2021-02-09T08:39:14Z</time>
      </trkpt>
      <trkpt lat="44.40416" lon="1.16744">
        <ele>246</ele>
        <time>2021-02-09T08:39:17Z</time>
      </trkpt>
      <trkpt lat="44.40409" lon="1.16752">
        <ele>247</ele>
        <time>2021-02-09T08:39:23Z</time>
      </trkpt>
      <trkpt lat="44.40401" lon="1.16754">
        <ele>248</ele>
        <time>2021-02-09T08:39:29Z</time>
      </trkpt>
      <trkpt lat="44.40396" lon="1.16757">
        <ele>249</ele>
        <time>2021-02-09T08:39:34Z</time>
      </trkpt>
      <trkpt lat="44.40391" lon="1.16759">
        <ele>250</ele>
        <time>2021-02-09T08:39:37Z</time>
      </trkpt>
      <trkpt lat="44.40381" lon="1.16765">
        <ele>252</ele>
        <time>2021-02-09T08:39:47Z</time>
      </trkpt>
      <trkpt lat="44.40365" lon="1.16771">
        <ele>256</ele>
        <time>2021-02-09T08:39:59Z</time>
      </trkpt>
      <trkpt lat="44.40362" lon="1.16774">
        <ele>260</ele>
        <time>2021-02-09T08:40:03Z</time>
      </trkpt>
      <trkpt lat="44.40359" lon="1.16779">
        <ele>262</ele>
        <time>2021-02-09T08:40:07Z</time>
      </trkpt>
      <trkpt lat="44.40355" lon="1.1679">
        <ele>262</ele>
        <time>2021-02-09T08:40:13Z</time>
      </trkpt>
      <trkpt lat="44.4034" lon="1.16808">
        <ele>266</ele>
        <time>2021-02-09T08:40:27Z</time>
      </trkpt>
      <trkpt lat="44.40322" lon="1.16828">
        <ele>269</ele>
        <time>2021-02-09T08:40:47Z</time>
      </trkpt>
      <trkpt lat="44.40295" lon="1.16838">
        <ele>272</ele>
        <time>2021-02-09T08:41:17Z</time>
      </trkpt>
      <trkpt lat="44.40292" lon="1.16839">
        <ele>272</ele>
        <time>2021-02-09T08:41:19Z</time>
      </trkpt>
      <trkpt lat="44.40268" lon="1.16853">
        <ele>270</ele>
        <time>2021-02-09T08:41:39Z</time>
      </trkpt>
      <trkpt lat="44.40233" lon="1.16868">
        <ele>272</ele>
        <time>2021-02-09T08:41:56Z</time>
      </trkpt>
      <trkpt lat="44.40202" lon="1.16885">
        <ele>273</ele>
        <time>2021-02-09T08:42:05Z</time>
      </trkpt>
      <trkpt lat="44.40151" lon="1.16908">
        <ele>272</ele>
        <time>2021-02-09T08:42:17Z</time>
      </trkpt>
      <trkpt lat="44.40132" lon="1.16917">
        <ele>271</ele>
        <time>2021-02-09T08:42:22Z</time>
      </trkpt>
      <trkpt lat="44.40124" lon="1.16917">
        <ele>271</ele>
        <time>2021-02-09T08:42:24Z</time>
      </trkpt>
      <trkpt lat="44.40121" lon="1.16916">
        <ele>271</ele>
        <time>2021-02-09T08:42:25Z</time>
      </trkpt>
      <trkpt lat="44.40116" lon="1.16911">
        <ele>271</ele>
        <time>2021-02-09T08:42:27Z</time>
      </trkpt>
      <trkpt lat="44.40114" lon="1.16908">
        <ele>271</ele>
        <time>2021-02-09T08:42:28Z</time>
      </trkpt>
      <trkpt lat="44.40113" lon="1.16905">
        <ele>271</ele>
        <time>2021-02-09T08:42:31Z</time>
      </trkpt>
      <trkpt lat="44.40116" lon="1.16894">
        <ele>271</ele>
        <time>2021-02-09T08:42:41Z</time>
      </trkpt>
      <trkpt lat="44.40115" lon="1.16862">
        <ele>269</ele>
        <time>2021-02-09T08:42:47Z</time>
      </trkpt>
      <trkpt lat="44.4011" lon="1.16829">
        <ele>268</ele>
        <time>2021-02-09T08:42:53Z</time>
      </trkpt>
      <trkpt lat="44.40108" lon="1.16821">
        <ele>268</ele>
        <time>2021-02-09T08:42:55Z</time>
      </trkpt>
      <trkpt lat="44.40099" lon="1.1676">
        <ele>267</ele>
        <time>2021-02-09T08:43:06Z</time>
      </trkpt>
      <trkpt lat="44.40092" lon="1.16743">
        <ele>267</ele>
        <time>2021-02-09T08:43:11Z</time>
      </trkpt>
      <trkpt lat="44.40087" lon="1.16733">
        <ele>266</ele>
        <time>2021-02-09T08:43:15Z</time>
      </trkpt>
      <trkpt lat="44.40072" lon="1.16686">
        <ele>261</ele>
        <time>2021-02-09T08:43:40Z</time>
      </trkpt>
      <trkpt lat="44.4007" lon="1.16678">
        <ele>261</ele>
        <time>2021-02-09T08:43:44Z</time>
      </trkpt>
      <trkpt lat="44.40069" lon="1.16675">
        <ele>262</ele>
        <time>2021-02-09T08:43:59Z</time>
      </trkpt>
      <trkpt lat="44.40069" lon="1.16671">
        <ele>261</ele>
        <time>2021-02-09T08:44:07Z</time>
      </trkpt>
      <trkpt lat="44.40068" lon="1.16656">
        <ele>259</ele>
        <time>2021-02-09T08:44:13Z</time>
      </trkpt>
      <trkpt lat="44.40068" lon="1.16646">
        <ele>258</ele>
        <time>2021-02-09T08:44:17Z</time>
      </trkpt>
      <trkpt lat="44.40067" lon="1.16605">
        <ele>257</ele>
        <time>2021-02-09T08:44:49Z</time>
      </trkpt>
      <trkpt lat="44.40064" lon="1.16592">
        <ele>255</ele>
        <time>2021-02-09T08:45:10Z</time>
      </trkpt>
      <trkpt lat="44.40064" lon="1.16584">
        <ele>253</ele>
        <time>2021-02-09T08:45:19Z</time>
      </trkpt>
      <trkpt lat="44.40061" lon="1.16569">
        <ele>250</ele>
        <time>2021-02-09T08:45:29Z</time>
      </trkpt>
      <trkpt lat="44.40052" lon="1.16551">
        <ele>249</ele>
        <time>2021-02-09T08:45:43Z</time>
      </trkpt>
      <trkpt lat="44.40049" lon="1.16548">
        <ele>249</ele>
        <time>2021-02-09T08:45:47Z</time>
      </trkpt>
      <trkpt lat="44.40046" lon="1.16537">
        <ele>247</ele>
        <time>2021-02-09T08:45:54Z</time>
      </trkpt>
      <trkpt lat="44.40046" lon="1.16533">
        <ele>246</ele>
        <time>2021-02-09T08:46:00Z</time>
      </trkpt>
      <trkpt lat="44.40046" lon="1.16529">
        <ele>247</ele>
        <time>2021-02-09T08:46:04Z</time>
      </trkpt>
      <trkpt lat="44.40045" lon="1.16524">
        <ele>247</ele>
        <time>2021-02-09T08:46:07Z</time>
      </trkpt>
      <trkpt lat="44.40043" lon="1.16507">
        <ele>244</ele>
        <time>2021-02-09T08:46:16Z</time>
      </trkpt>
      <trkpt lat="44.40042" lon="1.16502">
        <ele>243</ele>
        <time>2021-02-09T08:46:18Z</time>
      </trkpt>
      <trkpt lat="44.40041" lon="1.16497">
        <ele>242</ele>
        <time>2021-02-09T08:46:21Z</time>
      </trkpt>
      <trkpt lat="44.40042" lon="1.16487">
        <ele>239</ele>
        <time>2021-02-09T08:46:27Z</time>
      </trkpt>
      <trkpt lat="44.4004" lon="1.16467">
        <ele>237</ele>
        <time>2021-02-09T08:46:37Z</time>
      </trkpt>
      <trkpt lat="44.40042" lon="1.16445">
        <ele>235</ele>
        <time>2021-02-09T08:46:45Z</time>
      </trkpt>
      <trkpt lat="44.40043" lon="1.1644">
        <ele>235</ele>
        <time>2021-02-09T08:46:47Z</time>
      </trkpt>
      <trkpt lat="44.40043" lon="1.16435">
        <ele>235</ele>
        <time>2021-02-09T08:46:49Z</time>
      </trkpt>
      <trkpt lat="44.40044" lon="1.16426">
        <ele>234</ele>
        <time>2021-02-09T08:46:55Z</time>
      </trkpt>
      <trkpt lat="44.40047" lon="1.16421">
        <ele>234</ele>
        <time>2021-02-09T08:46:59Z</time>
      </trkpt>
      <trkpt lat="44.40059" lon="1.16393">
        <ele>233</ele>
        <time>2021-02-09T08:47:15Z</time>
      </trkpt>
      <trkpt lat="44.40064" lon="1.16384">
        <ele>232</ele>
        <time>2021-02-09T08:47:19Z</time>
      </trkpt>
      <trkpt lat="44.40068" lon="1.16378">
        <ele>231</ele>
        <time>2021-02-09T08:47:21Z</time>
      </trkpt>
      <trkpt lat="44.40076" lon="1.16349">
        <ele>229</ele>
        <time>2021-02-09T08:47:29Z</time>
      </trkpt>
      <trkpt lat="44.40088" lon="1.16331">
        <ele>228</ele>
        <time>2021-02-09T08:47:39Z</time>
      </trkpt>
      <trkpt lat="44.40109" lon="1.16293">
        <ele>227</ele>
        <time>2021-02-09T08:48:15Z</time>
      </trkpt>
      <trkpt lat="44.40116" lon="1.16278">
        <ele>226</ele>
        <time>2021-02-09T08:48:25Z</time>
      </trkpt>
      <trkpt lat="44.4012" lon="1.1627">
        <ele>224</ele>
        <time>2021-02-09T08:48:30Z</time>
      </trkpt>
      <trkpt lat="44.40122" lon="1.16266">
        <ele>224</ele>
        <time>2021-02-09T08:48:33Z</time>
      </trkpt>
      <trkpt lat="44.40127" lon="1.16258">
        <ele>223</ele>
        <time>2021-02-09T08:48:38Z</time>
      </trkpt>
      <trkpt lat="44.4016" lon="1.16226">
        <ele>219</ele>
        <time>2021-02-09T08:49:06Z</time>
      </trkpt>
      <trkpt lat="44.4017" lon="1.1622">
        <ele>217</ele>
        <time>2021-02-09T08:49:12Z</time>
      </trkpt>
      <trkpt lat="44.40189" lon="1.16198">
        <ele>214</ele>
        <time>2021-02-09T08:49:30Z</time>
      </trkpt>
      <trkpt lat="44.40197" lon="1.16189">
        <ele>213</ele>
        <time>2021-02-09T08:49:37Z</time>
      </trkpt>
      <trkpt lat="44.402" lon="1.16186">
        <ele>214</ele>
        <time>2021-02-09T08:49:39Z</time>
      </trkpt>
      <trkpt lat="44.40202" lon="1.16183">
        <ele>215</ele>
        <time>2021-02-09T08:49:41Z</time>
      </trkpt>
      <trkpt lat="44.40203" lon="1.16181">
        <ele>215</ele>
        <time>2021-02-09T08:49:46Z</time>
      </trkpt>
      <trkpt lat="44.402" lon="1.16168">
        <ele>212</ele>
        <time>2021-02-09T08:49:58Z</time>
      </trkpt>
      <trkpt lat="44.40199" lon="1.16164">
        <ele>212</ele>
        <time>2021-02-09T08:50:01Z</time>
      </trkpt>
      <trkpt lat="44.40199" lon="1.16158">
        <ele>211</ele>
        <time>2021-02-09T08:50:06Z</time>
      </trkpt>
      <trkpt lat="44.402" lon="1.16139">
        <ele>209</ele>
        <time>2021-02-09T08:50:17Z</time>
      </trkpt>
      <trkpt lat="44.40201" lon="1.16123">
        <ele>208</ele>
        <time>2021-02-09T08:50:25Z</time>
      </trkpt>
      <trkpt lat="44.402" lon="1.16116">
        <ele>210</ele>
        <time>2021-02-09T08:50:31Z</time>
      </trkpt>
      <trkpt lat="44.40199" lon="1.16113">
        <ele>212</ele>
        <time>2021-02-09T08:50:34Z</time>
      </trkpt>
      <trkpt lat="44.40201" lon="1.16111">
        <ele>212</ele>
        <time>2021-02-09T08:50:41Z</time>
      </trkpt>
      <trkpt lat="44.40202" lon="1.16111">
        <ele>212</ele>
        <time>2021-02-09T08:50:45Z</time>
      </trkpt>
      <trkpt lat="44.40203" lon="1.16108">
        <ele>212</ele>
        <time>2021-02-09T08:50:47Z</time>
      </trkpt>
      <trkpt lat="44.40207" lon="1.16098">
        <ele>213</ele>
        <time>2021-02-09T08:50:53Z</time>
      </trkpt>
      <trkpt lat="44.40211" lon="1.16089">
        <ele>214</ele>
        <time>2021-02-09T08:50:59Z</time>
      </trkpt>
      <trkpt lat="44.40212" lon="1.1608">
        <ele>216</ele>
        <time>2021-02-09T08:51:03Z</time>
      </trkpt>
      <trkpt lat="44.40212" lon="1.16077">
        <ele>216</ele>
        <time>2021-02-09T08:51:04Z</time>
      </trkpt>
      <trkpt lat="44.40213" lon="1.16073">
        <ele>216</ele>
        <time>2021-02-09T08:51:06Z</time>
      </trkpt>
      <trkpt lat="44.40213" lon="1.16071">
        <ele>218</ele>
        <time>2021-02-09T08:51:10Z</time>
      </trkpt>
      <trkpt lat="44.40203" lon="1.16083">
        <ele>218</ele>
        <time>2021-02-09T08:51:18Z</time>
      </trkpt>
      <trkpt lat="44.40192" lon="1.1609">
        <ele>216</ele>
        <time>2021-02-09T08:51:24Z</time>
      </trkpt>
      <trkpt lat="44.40169" lon="1.16091">
        <ele>214</ele>
        <time>2021-02-09T08:51:29Z</time>
      </trkpt>
      <trkpt lat="44.40079" lon="1.16107">
        <ele>216</ele>
        <time>2021-02-09T08:51:54Z</time>
      </trkpt>
      <trkpt lat="44.40038" lon="1.16128">
        <ele>222</ele>
        <time>2021-02-09T08:52:14Z</time>
      </trkpt>
      <trkpt lat="44.40032" lon="1.16132">
        <ele>224</ele>
        <time>2021-02-09T08:52:19Z</time>
      </trkpt>
      <trkpt lat="44.40008" lon="1.16155">
        <ele>227</ele>
        <time>2021-02-09T08:52:43Z</time>
      </trkpt>
      <trkpt lat="44.39995" lon="1.1617">
        <ele>230</ele>
        <time>2021-02-09T08:52:55Z</time>
      </trkpt>
      <trkpt lat="44.39985" lon="1.16176">
        <ele>230</ele>
        <time>2021-02-09T08:53:04Z</time>
      </trkpt>
      <trkpt lat="44.39982" lon="1.16177">
        <ele>231</ele>
        <time>2021-02-09T08:53:12Z</time>
      </trkpt>
      <trkpt lat="44.39964" lon="1.16192">
        <ele>235</ele>
        <time>2021-02-09T08:53:24Z</time>
      </trkpt>
      <trkpt lat="44.3996" lon="1.16199">
        <ele>236</ele>
        <time>2021-02-09T08:53:29Z</time>
      </trkpt>
      <trkpt lat="44.39953" lon="1.16206">
        <ele>239</ele>
        <time>2021-02-09T08:53:35Z</time>
      </trkpt>
      <trkpt lat="44.3995" lon="1.16209">
        <ele>240</ele>
        <time>2021-02-09T08:53:38Z</time>
      </trkpt>
      <trkpt lat="44.39938" lon="1.16211">
        <ele>241</ele>
        <time>2021-02-09T08:53:46Z</time>
      </trkpt>
      <trkpt lat="44.39934" lon="1.16215">
        <ele>242</ele>
        <time>2021-02-09T08:53:50Z</time>
      </trkpt>
      <trkpt lat="44.39898" lon="1.16221">
        <ele>247</ele>
        <time>2021-02-09T08:54:18Z</time>
      </trkpt>
      <trkpt lat="44.39889" lon="1.16225">
        <ele>247</ele>
        <time>2021-02-09T08:54:26Z</time>
      </trkpt>
      <trkpt lat="44.39865" lon="1.16226">
        <ele>250</ele>
        <time>2021-02-09T08:54:45Z</time>
      </trkpt>
      <trkpt lat="44.39862" lon="1.16225">
        <ele>251</ele>
        <time>2021-02-09T08:54:47Z</time>
      </trkpt>
      <trkpt lat="44.39839" lon="1.16225">
        <ele>255</ele>
        <time>2021-02-09T08:55:06Z</time>
      </trkpt>
      <trkpt lat="44.39835" lon="1.16225">
        <ele>257</ele>
        <time>2021-02-09T08:55:09Z</time>
      </trkpt>
      <trkpt lat="44.39832" lon="1.16223">
        <ele>257</ele>
        <time>2021-02-09T08:55:11Z</time>
      </trkpt>
      <trkpt lat="44.39828" lon="1.16224">
        <ele>258</ele>
        <time>2021-02-09T08:55:15Z</time>
      </trkpt>
      <trkpt lat="44.39824" lon="1.16224">
        <ele>261</ele>
        <time>2021-02-09T08:55:17Z</time>
      </trkpt>
      <trkpt lat="44.39821" lon="1.16224">
        <ele>262</ele>
        <time>2021-02-09T08:55:19Z</time>
      </trkpt>
      <trkpt lat="44.39817" lon="1.16224">
        <ele>264</ele>
        <time>2021-02-09T08:55:33Z</time>
      </trkpt>
      <trkpt lat="44.39806" lon="1.16224">
        <ele>264</ele>
        <time>2021-02-09T08:55:41Z</time>
      </trkpt>
      <trkpt lat="44.39799" lon="1.16227">
        <ele>266</ele>
        <time>2021-02-09T08:55:47Z</time>
      </trkpt>
      <trkpt lat="44.39755" lon="1.16231">
        <ele>269</ele>
        <time>2021-02-09T08:56:17Z</time>
      </trkpt>
      <trkpt lat="44.39752" lon="1.16233">
        <ele>270</ele>
        <time>2021-02-09T08:56:19Z</time>
      </trkpt>
      <trkpt lat="44.39739" lon="1.16245">
        <ele>273</ele>
        <time>2021-02-09T08:56:32Z</time>
      </trkpt>
      <trkpt lat="44.39737" lon="1.16246">
        <ele>274</ele>
        <time>2021-02-09T08:56:34Z</time>
      </trkpt>
      <trkpt lat="44.39734" lon="1.16248">
        <ele>274</ele>
        <time>2021-02-09T08:56:36Z</time>
      </trkpt>
      <trkpt lat="44.39729" lon="1.16251">
        <ele>273</ele>
        <time>2021-02-09T08:56:40Z</time>
      </trkpt>
      <trkpt lat="44.39722" lon="1.16257">
        <ele>273</ele>
        <time>2021-02-09T08:56:47Z</time>
      </trkpt>
      <trkpt lat="44.39707" lon="1.16273">
        <ele>274</ele>
        <time>2021-02-09T08:57:01Z</time>
      </trkpt>
      <trkpt lat="44.39699" lon="1.16285">
        <ele>275</ele>
        <time>2021-02-09T08:57:06Z</time>
      </trkpt>
      <trkpt lat="44.39689" lon="1.16297">
        <ele>275</ele>
        <time>2021-02-09T08:57:10Z</time>
      </trkpt>
      <trkpt lat="44.39681" lon="1.16311">
        <ele>275</ele>
        <time>2021-02-09T08:57:14Z</time>
      </trkpt>
      <trkpt lat="44.39651" lon="1.16344">
        <ele>278</ele>
        <time>2021-02-09T08:57:24Z</time>
      </trkpt>
      <trkpt lat="44.39627" lon="1.16373">
        <ele>279</ele>
        <time>2021-02-09T08:57:33Z</time>
      </trkpt>
      <trkpt lat="44.39534" lon="1.1645">
        <ele>283</ele>
        <time>2021-02-09T08:58:03Z</time>
      </trkpt>
      <trkpt lat="44.39518" lon="1.16463">
        <ele>283</ele>
        <time>2021-02-09T08:58:08Z</time>
      </trkpt>
      <trkpt lat="44.39429" lon="1.16544">
        <ele>279</ele>
        <time>2021-02-09T08:58:38Z</time>
      </trkpt>
      <trkpt lat="44.39338" lon="1.16633">
        <ele>276</ele>
        <time>2021-02-09T08:59:08Z</time>
      </trkpt>
      <trkpt lat="44.39317" lon="1.16655">
        <ele>274</ele>
        <time>2021-02-09T08:59:15Z</time>
      </trkpt>
      <trkpt lat="44.39314" lon="1.16656">
        <ele>274</ele>
        <time>2021-02-09T08:59:16Z</time>
      </trkpt>
      <trkpt lat="44.3922" lon="1.16585">
        <ele>269</ele>
        <time>2021-02-09T08:59:47Z</time>
      </trkpt>
      <trkpt lat="44.39197" lon="1.16543">
        <ele>267</ele>
        <time>2021-02-09T08:59:57Z</time>
      </trkpt>
      <trkpt lat="44.39189" lon="1.16526">
        <ele>264</ele>
        <time>2021-02-09T09:00:01Z</time>
      </trkpt>
      <trkpt lat="44.39183" lon="1.16501">
        <ele>261</ele>
        <time>2021-02-09T09:00:13Z</time>
      </trkpt>
      <trkpt lat="44.39174" lon="1.16474">
        <ele>260</ele>
        <time>2021-02-09T09:00:28Z</time>
      </trkpt>
      <trkpt lat="44.39173" lon="1.1647">
        <ele>260</ele>
        <time>2021-02-09T09:00:31Z</time>
      </trkpt>
      <trkpt lat="44.39164" lon="1.16438">
        <ele>261</ele>
        <time>2021-02-09T09:00:48Z</time>
      </trkpt>
      <trkpt lat="44.39163" lon="1.16433">
        <ele>261</ele>
        <time>2021-02-09T09:00:51Z</time>
      </trkpt>
      <trkpt lat="44.39163" lon="1.16429">
        <ele>260</ele>
        <time>2021-02-09T09:00:53Z</time>
      </trkpt>
      <trkpt lat="44.3916" lon="1.1642">
        <ele>260</ele>
        <time>2021-02-09T09:00:57Z</time>
      </trkpt>
      <trkpt lat="44.39157" lon="1.16416">
        <ele>259</ele>
        <time>2021-02-09T09:01:00Z</time>
      </trkpt>
      <trkpt lat="44.39145" lon="1.16398">
        <ele>257</ele>
        <time>2021-02-09T09:01:14Z</time>
      </trkpt>
      <trkpt lat="44.39136" lon="1.1638">
        <ele>258</ele>
        <time>2021-02-09T09:01:26Z</time>
      </trkpt>
      <trkpt lat="44.3912" lon="1.16364">
        <ele>256</ele>
        <time>2021-02-09T09:01:39Z</time>
      </trkpt>
      <trkpt lat="44.39108" lon="1.16357">
        <ele>252</ele>
        <time>2021-02-09T09:01:49Z</time>
      </trkpt>
      <trkpt lat="44.39103" lon="1.16357">
        <ele>251</ele>
        <time>2021-02-09T09:01:53Z</time>
      </trkpt>
      <trkpt lat="44.3909" lon="1.16355">
        <ele>246</ele>
        <time>2021-02-09T09:02:00Z</time>
      </trkpt>
      <trkpt lat="44.3908" lon="1.16354">
        <ele>243</ele>
        <time>2021-02-09T09:02:03Z</time>
      </trkpt>
      <trkpt lat="44.39058" lon="1.16358">
        <ele>244</ele>
        <time>2021-02-09T09:02:07Z</time>
      </trkpt>
      <trkpt lat="44.39027" lon="1.16353">
        <ele>246</ele>
        <time>2021-02-09T09:02:13Z</time>
      </trkpt>
      <trkpt lat="44.38996" lon="1.16337">
        <ele>250</ele>
        <time>2021-02-09T09:02:20Z</time>
      </trkpt>
      <trkpt lat="44.38882" lon="1.16238">
        <ele>256</ele>
        <time>2021-02-09T09:02:45Z</time>
      </trkpt>
      <trkpt lat="44.38814" lon="1.16172">
        <ele>259</ele>
        <time>2021-02-09T09:03:03Z</time>
      </trkpt>
      <trkpt lat="44.38812" lon="1.16169">
        <ele>259</ele>
        <time>2021-02-09T09:03:05Z</time>
      </trkpt>
      <trkpt lat="44.38812" lon="1.16165">
        <ele>259</ele>
        <time>2021-02-09T09:03:07Z</time>
      </trkpt>
      <trkpt lat="44.38792" lon="1.1614">
        <ele>261</ele>
        <time>2021-02-09T09:03:26Z</time>
      </trkpt>
      <trkpt lat="44.38789" lon="1.16139">
        <ele>261</ele>
        <time>2021-02-09T09:03:28Z</time>
      </trkpt>
      <trkpt lat="44.38787" lon="1.16138">
        <ele>261</ele>
        <time>2021-02-09T09:03:38Z</time>
      </trkpt>
      <trkpt lat="44.38784" lon="1.16134">
        <ele>261</ele>
        <time>2021-02-09T09:03:41Z</time>
      </trkpt>
      <trkpt lat="44.38777" lon="1.16123">
        <ele>262</ele>
        <time>2021-02-09T09:03:49Z</time>
      </trkpt>
      <trkpt lat="44.38776" lon="1.16122">
        <ele>262</ele>
        <time>2021-02-09T09:03:50Z</time>
      </trkpt>
      <trkpt lat="44.38774" lon="1.16119">
        <ele>262</ele>
        <time>2021-02-09T09:03:52Z</time>
      </trkpt>
      <trkpt lat="44.38772" lon="1.16119">
        <ele>261</ele>
        <time>2021-02-09T09:03:53Z</time>
      </trkpt>
      <trkpt lat="44.38743" lon="1.16072">
        <ele>261</ele>
        <time>2021-02-09T09:04:23Z</time>
      </trkpt>
      <trkpt lat="44.38663" lon="1.15948">
        <ele>256</ele>
        <time>2021-02-09T09:04:53Z</time>
      </trkpt>
      <trkpt lat="44.38653" lon="1.15934">
        <ele>255</ele>
        <time>2021-02-09T09:04:58Z</time>
      </trkpt>
      <trkpt lat="44.38649" lon="1.15928">
        <ele>255</ele>
        <time>2021-02-09T09:05:00Z</time>
      </trkpt>
      <trkpt lat="44.38648" lon="1.15922">
        <ele>253</ele>
        <time>2021-02-09T09:05:02Z</time>
      </trkpt>
      <trkpt lat="44.38648" lon="1.15917">
        <ele>253</ele>
        <time>2021-02-09T09:05:04Z</time>
      </trkpt>
      <trkpt lat="44.38649" lon="1.15913">
        <ele>253</ele>
        <time>2021-02-09T09:05:07Z</time>
      </trkpt>
      <trkpt lat="44.38649" lon="1.15908">
        <ele>253</ele>
        <time>2021-02-09T09:05:10Z</time>
      </trkpt>
      <trkpt lat="44.3865" lon="1.15901">
        <ele>252</ele>
        <time>2021-02-09T09:05:15Z</time>
      </trkpt>
      <trkpt lat="44.3865" lon="1.15897">
        <ele>252</ele>
        <time>2021-02-09T09:05:17Z</time>
      </trkpt>
      <trkpt lat="44.38647" lon="1.15896">
        <ele>252</ele>
        <time>2021-02-09T09:05:19Z</time>
      </trkpt>
      <trkpt lat="44.38643" lon="1.15895">
        <ele>251</ele>
        <time>2021-02-09T09:05:21Z</time>
      </trkpt>
      <trkpt lat="44.3864" lon="1.15896">
        <ele>250</ele>
        <time>2021-02-09T09:05:23Z</time>
      </trkpt>
      <trkpt lat="44.38635" lon="1.15903">
        <ele>249</ele>
        <time>2021-02-09T09:05:27Z</time>
      </trkpt>
      <trkpt lat="44.38628" lon="1.15912">
        <ele>246</ele>
        <time>2021-02-09T09:05:33Z</time>
      </trkpt>
      <trkpt lat="44.38626" lon="1.15915">
        <ele>246</ele>
        <time>2021-02-09T09:05:35Z</time>
      </trkpt>
      <trkpt lat="44.38623" lon="1.15917">
        <ele>246</ele>
        <time>2021-02-09T09:05:38Z</time>
      </trkpt>
      <trkpt lat="44.38621" lon="1.15919">
        <ele>246</ele>
        <time>2021-02-09T09:05:40Z</time>
      </trkpt>
      <trkpt lat="44.3862" lon="1.15921">
        <ele>245</ele>
        <time>2021-02-09T09:05:42Z</time>
      </trkpt>
      <trkpt lat="44.3862" lon="1.15918">
        <ele>244</ele>
        <time>2021-02-09T09:05:49Z</time>
      </trkpt>
      <trkpt lat="44.38627" lon="1.1589">
        <ele>244</ele>
        <time>2021-02-09T09:06:05Z</time>
      </trkpt>
      <trkpt lat="44.38647" lon="1.15845">
        <ele>237</ele>
        <time>2021-02-09T09:06:28Z</time>
      </trkpt>
      <trkpt lat="44.38648" lon="1.15837">
        <ele>236</ele>
        <time>2021-02-09T09:06:30Z</time>
      </trkpt>
      <trkpt lat="44.38647" lon="1.15832">
        <ele>235</ele>
        <time>2021-02-09T09:06:31Z</time>
      </trkpt>
      <trkpt lat="44.3865" lon="1.15816">
        <ele>241</ele>
        <time>2021-02-09T09:09:01Z</time>
      </trkpt>
      <trkpt lat="44.3866" lon="1.15802">
        <ele>240</ele>
        <time>2021-02-09T09:09:12Z</time>
      </trkpt>
      <trkpt lat="44.38673" lon="1.15779">
        <ele>239</ele>
        <time>2021-02-09T09:09:28Z</time>
      </trkpt>
      <trkpt lat="44.38694" lon="1.15731">
        <ele>242</ele>
        <time>2021-02-09T09:09:59Z</time>
      </trkpt>
      <trkpt lat="44.38702" lon="1.15708">
        <ele>245</ele>
        <time>2021-02-09T09:10:12Z</time>
      </trkpt>
      <trkpt lat="44.38702" lon="1.15704">
        <ele>245</ele>
        <time>2021-02-09T09:10:14Z</time>
      </trkpt>
      <trkpt lat="44.3871" lon="1.15688">
        <ele>243</ele>
        <time>2021-02-09T09:10:24Z</time>
      </trkpt>
      <trkpt lat="44.38721" lon="1.15669">
        <ele>248</ele>
        <time>2021-02-09T09:10:39Z</time>
      </trkpt>
      <trkpt lat="44.38726" lon="1.15664">
        <ele>248</ele>
        <time>2021-02-09T09:10:44Z</time>
      </trkpt>
      <trkpt lat="44.38728" lon="1.15662">
        <ele>248</ele>
        <time>2021-02-09T09:10:47Z</time>
      </trkpt>
      <trkpt lat="44.38736" lon="1.15648">
        <ele>250</ele>
        <time>2021-02-09T09:11:07Z</time>
      </trkpt>
      <trkpt lat="44.38752" lon="1.15615">
        <ele>253</ele>
        <time>2021-02-09T09:11:31Z</time>
      </trkpt>
      <trkpt lat="44.38765" lon="1.15595">
        <ele>252</ele>
        <time>2021-02-09T09:11:47Z</time>
      </trkpt>
      <trkpt lat="44.38769" lon="1.1559">
        <ele>252</ele>
        <time>2021-02-09T09:11:51Z</time>
      </trkpt>
      <trkpt lat="44.38788" lon="1.15556">
        <ele>256</ele>
        <time>2021-02-09T09:12:16Z</time>
      </trkpt>
      <trkpt lat="44.38831" lon="1.15462">
        <ele>259</ele>
        <time>2021-02-09T09:12:42Z</time>
      </trkpt>
      <trkpt lat="44.38835" lon="1.15457">
        <ele>259</ele>
        <time>2021-02-09T09:12:44Z</time>
      </trkpt>
      <trkpt lat="44.3884" lon="1.15453">
        <ele>259</ele>
        <time>2021-02-09T09:12:46Z</time>
      </trkpt>
      <trkpt lat="44.38843" lon="1.1545">
        <ele>260</ele>
        <time>2021-02-09T09:12:48Z</time>
      </trkpt>
      <trkpt lat="44.38861" lon="1.15397">
        <ele>266</ele>
        <time>2021-02-09T09:13:19Z</time>
      </trkpt>
      <trkpt lat="44.38868" lon="1.15367">
        <ele>267</ele>
        <time>2021-02-09T09:13:39Z</time>
      </trkpt>
      <trkpt lat="44.38869" lon="1.15364">
        <ele>267</ele>
        <time>2021-02-09T09:13:44Z</time>
      </trkpt>
      <trkpt lat="44.3887" lon="1.15361">
        <ele>268</ele>
        <time>2021-02-09T09:14:31Z</time>
      </trkpt>
      <trkpt lat="44.38878" lon="1.15324">
        <ele>271</ele>
        <time>2021-02-09T09:14:52Z</time>
      </trkpt>
      <trkpt lat="44.38896" lon="1.15273">
        <ele>271</ele>
        <time>2021-02-09T09:15:22Z</time>
      </trkpt>
      <trkpt lat="44.38898" lon="1.15266">
        <ele>271</ele>
        <time>2021-02-09T09:15:26Z</time>
      </trkpt>
      <trkpt lat="44.38898" lon="1.15261">
        <ele>271</ele>
        <time>2021-02-09T09:15:29Z</time>
      </trkpt>
      <trkpt lat="44.3891" lon="1.1521">
        <ele>269</ele>
        <time>2021-02-09T09:15:59Z</time>
      </trkpt>
      <trkpt lat="44.38912" lon="1.15206">
        <ele>269</ele>
        <time>2021-02-09T09:16:02Z</time>
      </trkpt>
      <trkpt lat="44.38913" lon="1.15201">
        <ele>269</ele>
        <time>2021-02-09T09:16:05Z</time>
      </trkpt>
      <trkpt lat="44.38919" lon="1.15177">
        <ele>270</ele>
        <time>2021-02-09T09:16:20Z</time>
      </trkpt>
      <trkpt lat="44.3892" lon="1.15172">
        <ele>270</ele>
        <time>2021-02-09T09:16:24Z</time>
      </trkpt>
      <trkpt lat="44.3892" lon="1.15166">
        <ele>269</ele>
        <time>2021-02-09T09:16:27Z</time>
      </trkpt>
      <trkpt lat="44.38922" lon="1.15155">
        <ele>269</ele>
        <time>2021-02-09T09:16:32Z</time>
      </trkpt>
      <trkpt lat="44.38927" lon="1.15134">
        <ele>275</ele>
        <time>2021-02-09T09:16:42Z</time>
      </trkpt>
      <trkpt lat="44.38927" lon="1.15126">
        <ele>276</ele>
        <time>2021-02-09T09:16:46Z</time>
      </trkpt>
      <trkpt lat="44.38926" lon="1.15122">
        <ele>276</ele>
        <time>2021-02-09T09:16:48Z</time>
      </trkpt>
      <trkpt lat="44.38922" lon="1.15108">
        <ele>276</ele>
        <time>2021-02-09T09:16:58Z</time>
      </trkpt>
      <trkpt lat="44.38923" lon="1.15099">
        <ele>276</ele>
        <time>2021-02-09T09:17:03Z</time>
      </trkpt>
      <trkpt lat="44.3893" lon="1.15069">
        <ele>278</ele>
        <time>2021-02-09T09:17:20Z</time>
      </trkpt>
      <trkpt lat="44.38931" lon="1.15062">
        <ele>279</ele>
        <time>2021-02-09T09:17:25Z</time>
      </trkpt>
      <trkpt lat="44.3893" lon="1.15054">
        <ele>279</ele>
        <time>2021-02-09T09:17:31Z</time>
      </trkpt>
      <trkpt lat="44.38928" lon="1.1505">
        <ele>279</ele>
        <time>2021-02-09T09:17:34Z</time>
      </trkpt>
      <trkpt lat="44.38927" lon="1.15048">
        <ele>280</ele>
        <time>2021-02-09T09:17:36Z</time>
      </trkpt>
      <trkpt lat="44.38924" lon="1.15045">
        <ele>281</ele>
        <time>2021-02-09T09:17:38Z</time>
      </trkpt>
      <trkpt lat="44.38921" lon="1.15043">
        <ele>281</ele>
        <time>2021-02-09T09:17:40Z</time>
      </trkpt>
      <trkpt lat="44.38917" lon="1.15042">
        <ele>281</ele>
        <time>2021-02-09T09:17:43Z</time>
      </trkpt>
      <trkpt lat="44.38911" lon="1.15036">
        <ele>280</ele>
        <time>2021-02-09T09:17:49Z</time>
      </trkpt>
      <trkpt lat="44.38905" lon="1.15029">
        <ele>279</ele>
        <time>2021-02-09T09:17:55Z</time>
      </trkpt>
      <trkpt lat="44.38868" lon="1.15002">
        <ele>275</ele>
        <time>2021-02-09T09:18:27Z</time>
      </trkpt>
      <trkpt lat="44.38865" lon="1.15001">
        <ele>275</ele>
        <time>2021-02-09T09:18:29Z</time>
      </trkpt>
      <trkpt lat="44.38829" lon="1.14984">
        <ele>274</ele>
        <time>2021-02-09T09:20:23Z</time>
      </trkpt>
      <trkpt lat="44.38833" lon="1.14985">
        <ele>275</ele>
        <time>2021-02-09T09:20:27Z</time>
      </trkpt>
      <trkpt lat="44.38836" lon="1.14981">
        <ele>275</ele>
        <time>2021-02-09T09:20:31Z</time>
      </trkpt>
      <trkpt lat="44.38837" lon="1.14978">
        <ele>275</ele>
        <time>2021-02-09T09:20:33Z</time>
      </trkpt>
      <trkpt lat="44.3884" lon="1.14975">
        <ele>275</ele>
        <time>2021-02-09T09:20:36Z</time>
      </trkpt>
      <trkpt lat="44.38845" lon="1.14966">
        <ele>274</ele>
        <time>2021-02-09T09:20:43Z</time>
      </trkpt>
      <trkpt lat="44.38847" lon="1.14961">
        <ele>274</ele>
        <time>2021-02-09T09:20:46Z</time>
      </trkpt>
      <trkpt lat="44.3885" lon="1.14956">
        <ele>275</ele>
        <time>2021-02-09T09:20:49Z</time>
      </trkpt>
      <trkpt lat="44.38868" lon="1.14918">
        <ele>275</ele>
        <time>2021-02-09T09:21:04Z</time>
      </trkpt>
      <trkpt lat="44.38884" lon="1.14875">
        <ele>275</ele>
        <time>2021-02-09T09:21:16Z</time>
      </trkpt>
      <trkpt lat="44.38891" lon="1.14862">
        <ele>276</ele>
        <time>2021-02-09T09:21:22Z</time>
      </trkpt>
      <trkpt lat="44.38901" lon="1.14848">
        <ele>279</ele>
        <time>2021-02-09T09:21:31Z</time>
      </trkpt>
      <trkpt lat="44.38903" lon="1.14844">
        <ele>280</ele>
        <time>2021-02-09T09:21:34Z</time>
      </trkpt>
      <trkpt lat="44.38907" lon="1.1483">
        <ele>279</ele>
        <time>2021-02-09T09:21:42Z</time>
      </trkpt>
      <trkpt lat="44.38908" lon="1.14824">
        <ele>278</ele>
        <time>2021-02-09T09:21:45Z</time>
      </trkpt>
      <trkpt lat="44.3891" lon="1.14818">
        <ele>278</ele>
        <time>2021-02-09T09:21:48Z</time>
      </trkpt>
      <trkpt lat="44.38911" lon="1.14814">
        <ele>278</ele>
        <time>2021-02-09T09:21:50Z</time>
      </trkpt>
      <trkpt lat="44.38912" lon="1.1481">
        <ele>278</ele>
        <time>2021-02-09T09:21:52Z</time>
      </trkpt>
      <trkpt lat="44.38913" lon="1.14806">
        <ele>278</ele>
        <time>2021-02-09T09:21:55Z</time>
      </trkpt>
      <trkpt lat="44.3892" lon="1.14786">
        <ele>281</ele>
        <time>2021-02-09T09:22:05Z</time>
      </trkpt>
      <trkpt lat="44.3892" lon="1.14782">
        <ele>281</ele>
        <time>2021-02-09T09:22:07Z</time>
      </trkpt>
      <trkpt lat="44.38922" lon="1.14779">
        <ele>282</ele>
        <time>2021-02-09T09:22:09Z</time>
      </trkpt>
      <trkpt lat="44.38932" lon="1.14753">
        <ele>285</ele>
        <time>2021-02-09T09:22:25Z</time>
      </trkpt>
      <trkpt lat="44.38938" lon="1.14739">
        <ele>284</ele>
        <time>2021-02-09T09:22:34Z</time>
      </trkpt>
      <trkpt lat="44.38941" lon="1.14729">
        <ele>284</ele>
        <time>2021-02-09T09:22:41Z</time>
      </trkpt>
      <trkpt lat="44.38944" lon="1.14708">
        <ele>286</ele>
        <time>2021-02-09T09:22:52Z</time>
      </trkpt>
      <trkpt lat="44.38958" lon="1.14682">
        <ele>285</ele>
        <time>2021-02-09T09:23:10Z</time>
      </trkpt>
      <trkpt lat="44.38959" lon="1.14676">
        <ele>286</ele>
        <time>2021-02-09T09:23:13Z</time>
      </trkpt>
      <trkpt lat="44.3897" lon="1.14656">
        <ele>287</ele>
        <time>2021-02-09T09:23:27Z</time>
      </trkpt>
      <trkpt lat="44.3897" lon="1.14651">
        <ele>286</ele>
        <time>2021-02-09T09:23:31Z</time>
      </trkpt>
      <trkpt lat="44.38966" lon="1.14645">
        <ele>286</ele>
        <time>2021-02-09T09:23:36Z</time>
      </trkpt>
      <trkpt lat="44.38927" lon="1.14618">
        <ele>282</ele>
        <time>2021-02-09T09:24:06Z</time>
      </trkpt>
      <trkpt lat="44.38919" lon="1.14614">
        <ele>282</ele>
        <time>2021-02-09T09:24:12Z</time>
      </trkpt>
      <trkpt lat="44.3891" lon="1.14607">
        <ele>281</ele>
        <time>2021-02-09T09:24:21Z</time>
      </trkpt>
      <trkpt lat="44.38895" lon="1.14597">
        <ele>282</ele>
        <time>2021-02-09T09:24:34Z</time>
      </trkpt>
      <trkpt lat="44.38889" lon="1.14594">
        <ele>284</ele>
        <time>2021-02-09T09:24:38Z</time>
      </trkpt>
      <trkpt lat="44.38886" lon="1.14593">
        <ele>285</ele>
        <time>2021-02-09T09:24:41Z</time>
      </trkpt>
      <trkpt lat="44.38872" lon="1.14588">
        <ele>287</ele>
        <time>2021-02-09T09:24:51Z</time>
      </trkpt>
      <trkpt lat="44.38869" lon="1.14587">
        <ele>287</ele>
        <time>2021-02-09T09:24:53Z</time>
      </trkpt>
      <trkpt lat="44.38867" lon="1.14584">
        <ele>287</ele>
        <time>2021-02-09T09:24:55Z</time>
      </trkpt>
      <trkpt lat="44.38866" lon="1.14581">
        <ele>287</ele>
        <time>2021-02-09T09:24:57Z</time>
      </trkpt>
      <trkpt lat="44.38865" lon="1.14578">
        <ele>287</ele>
        <time>2021-02-09T09:24:59Z</time>
      </trkpt>
      <trkpt lat="44.38865" lon="1.14569">
        <ele>286</ele>
        <time>2021-02-09T09:25:05Z</time>
      </trkpt>
      <trkpt lat="44.38863" lon="1.14555">
        <ele>286</ele>
        <time>2021-02-09T09:25:12Z</time>
      </trkpt>
      <trkpt lat="44.38863" lon="1.14526">
        <ele>288</ele>
        <time>2021-02-09T09:25:26Z</time>
      </trkpt>
      <trkpt lat="44.38862" lon="1.14518">
        <ele>287</ele>
        <time>2021-02-09T09:25:30Z</time>
      </trkpt>
      <trkpt lat="44.38864" lon="1.14482">
        <ele>289</ele>
        <time>2021-02-09T09:25:48Z</time>
      </trkpt>
      <trkpt lat="44.38865" lon="1.14474">
        <ele>290</ele>
        <time>2021-02-09T09:25:53Z</time>
      </trkpt>
      <trkpt lat="44.38865" lon="1.14469">
        <ele>290</ele>
        <time>2021-02-09T09:25:57Z</time>
      </trkpt>
      <trkpt lat="44.38867" lon="1.14465">
        <ele>289</ele>
        <time>2021-02-09T09:26:02Z</time>
      </trkpt>
      <trkpt lat="44.38869" lon="1.14456">
        <ele>287</ele>
        <time>2021-02-09T09:26:08Z</time>
      </trkpt>
      <trkpt lat="44.38872" lon="1.1445">
        <ele>287</ele>
        <time>2021-02-09T09:26:19Z</time>
      </trkpt>
      <trkpt lat="44.38868" lon="1.14424">
        <ele>286</ele>
        <time>2021-02-09T09:26:35Z</time>
      </trkpt>
      <trkpt lat="44.38868" lon="1.14418">
        <ele>285</ele>
        <time>2021-02-09T09:26:38Z</time>
      </trkpt>
      <trkpt lat="44.38875" lon="1.14358">
        <ele>285</ele>
        <time>2021-02-09T09:27:09Z</time>
      </trkpt>
      <trkpt lat="44.38875" lon="1.14348">
        <ele>286</ele>
        <time>2021-02-09T09:27:13Z</time>
      </trkpt>
      <trkpt lat="44.38876" lon="1.14343">
        <ele>285</ele>
        <time>2021-02-09T09:27:16Z</time>
      </trkpt>
      <trkpt lat="44.38878" lon="1.14333">
        <ele>284</ele>
        <time>2021-02-09T09:27:23Z</time>
      </trkpt>
      <trkpt lat="44.38883" lon="1.14309">
        <ele>285</ele>
        <time>2021-02-09T09:27:35Z</time>
      </trkpt>
      <trkpt lat="44.38881" lon="1.14253">
        <ele>280</ele>
        <time>2021-02-09T09:27:47Z</time>
      </trkpt>
      <trkpt lat="44.38846" lon="1.14049">
        <ele>288</ele>
        <time>2021-02-09T09:28:17Z</time>
      </trkpt>
      <trkpt lat="44.38843" lon="1.1397">
        <ele>287</ele>
        <time>2021-02-09T09:28:28Z</time>
      </trkpt>
      <trkpt lat="44.38837" lon="1.1395">
        <ele>288</ele>
        <time>2021-02-09T09:28:32Z</time>
      </trkpt>
      <trkpt lat="44.38831" lon="1.13939">
        <ele>288</ele>
        <time>2021-02-09T09:28:35Z</time>
      </trkpt>
      <trkpt lat="44.38824" lon="1.1393">
        <ele>288</ele>
        <time>2021-02-09T09:28:38Z</time>
      </trkpt>
      <trkpt lat="44.38818" lon="1.13924">
        <ele>288</ele>
        <time>2021-02-09T09:28:40Z</time>
      </trkpt>
      <trkpt lat="44.38749" lon="1.13897">
        <ele>288</ele>
        <time>2021-02-09T09:29:01Z</time>
      </trkpt>
      <trkpt lat="44.38738" lon="1.139">
        <ele>288</ele>
        <time>2021-02-09T09:29:05Z</time>
      </trkpt>
      <trkpt lat="44.3873" lon="1.13904">
        <ele>288</ele>
        <time>2021-02-09T09:29:08Z</time>
      </trkpt>
      <trkpt lat="44.38643" lon="1.13969">
        <ele>286</ele>
        <time>2021-02-09T09:29:38Z</time>
      </trkpt>
      <trkpt lat="44.3859" lon="1.14009">
        <ele>283</ele>
        <time>2021-02-09T09:29:58Z</time>
      </trkpt>
      <trkpt lat="44.38524" lon="1.14098">
        <ele>288</ele>
        <time>2021-02-09T09:30:28Z</time>
      </trkpt>
      <trkpt lat="44.38479" lon="1.14169">
        <ele>290</ele>
        <time>2021-02-09T09:30:50Z</time>
      </trkpt>
      <trkpt lat="44.38472" lon="1.14175">
        <ele>289</ele>
        <time>2021-02-09T09:30:53Z</time>
      </trkpt>
      <trkpt lat="44.38449" lon="1.14201">
        <ele>287</ele>
        <time>2021-02-09T09:31:02Z</time>
      </trkpt>
      <trkpt lat="44.38374" lon="1.14294">
        <ele>286</ele>
        <time>2021-02-09T09:31:32Z</time>
      </trkpt>
      <trkpt lat="44.38316" lon="1.14351">
        <ele>285</ele>
        <time>2021-02-09T09:31:53Z</time>
      </trkpt>
      <trkpt lat="44.38277" lon="1.14381">
        <ele>283</ele>
        <time>2021-02-09T09:32:07Z</time>
      </trkpt>
      <trkpt lat="44.38273" lon="1.14386">
        <ele>283</ele>
        <time>2021-02-09T09:32:09Z</time>
      </trkpt>
      <trkpt lat="44.38245" lon="1.14468">
        <ele>283</ele>
        <time>2021-02-09T09:32:31Z</time>
      </trkpt>
      <trkpt lat="44.3819" lon="1.14564">
        <ele>286</ele>
        <time>2021-02-09T09:33:01Z</time>
      </trkpt>
      <trkpt lat="44.38187" lon="1.14574">
        <ele>288</ele>
        <time>2021-02-09T09:33:08Z</time>
      </trkpt>
      <trkpt lat="44.38184" lon="1.1458">
        <ele>289</ele>
        <time>2021-02-09T09:33:12Z</time>
      </trkpt>
      <trkpt lat="44.38182" lon="1.14586">
        <ele>290</ele>
        <time>2021-02-09T09:33:21Z</time>
      </trkpt>
      <trkpt lat="44.38174" lon="1.14595">
        <ele>290</ele>
        <time>2021-02-09T09:33:29Z</time>
      </trkpt>
      <trkpt lat="44.38172" lon="1.14602">
        <ele>289</ele>
        <time>2021-02-09T09:33:38Z</time>
      </trkpt>
      <trkpt lat="44.38164" lon="1.14615">
        <ele>289</ele>
        <time>2021-02-09T09:33:46Z</time>
      </trkpt>
      <trkpt lat="44.38156" lon="1.14642">
        <ele>289</ele>
        <time>2021-02-09T09:33:57Z</time>
      </trkpt>
      <trkpt lat="44.38149" lon="1.14675">
        <ele>289</ele>
        <time>2021-02-09T09:34:06Z</time>
      </trkpt>
      <trkpt lat="44.38115" lon="1.14788">
        <ele>286</ele>
        <time>2021-02-09T09:34:31Z</time>
      </trkpt>
      <trkpt lat="44.38112" lon="1.14876">
        <ele>282</ele>
        <time>2021-02-09T09:34:51Z</time>
      </trkpt>
      <trkpt lat="44.38094" lon="1.14928">
        <ele>281</ele>
        <time>2021-02-09T09:35:05Z</time>
      </trkpt>
      <trkpt lat="44.38086" lon="1.14949">
        <ele>281</ele>
        <time>2021-02-09T09:35:11Z</time>
      </trkpt>
      <trkpt lat="44.38047" lon="1.15082">
        <ele>282</ele>
        <time>2021-02-09T09:35:41Z</time>
      </trkpt>
      <trkpt lat="44.38029" lon="1.15122">
        <ele>281</ele>
        <time>2021-02-09T09:35:51Z</time>
      </trkpt>
      <trkpt lat="44.38015" lon="1.15142">
        <ele>282</ele>
        <time>2021-02-09T09:35:57Z</time>
      </trkpt>
      <trkpt lat="44.38011" lon="1.15148">
        <ele>281</ele>
        <time>2021-02-09T09:35:59Z</time>
      </trkpt>
      <trkpt lat="44.37965" lon="1.15241">
        <ele>275</ele>
        <time>2021-02-09T09:36:22Z</time>
      </trkpt>
      <trkpt lat="44.37963" lon="1.15243">
        <ele>275</ele>
        <time>2021-02-09T09:36:23Z</time>
      </trkpt>
      <trkpt lat="44.37961" lon="1.15245">
        <ele>275</ele>
        <time>2021-02-09T09:36:24Z</time>
      </trkpt>
      <trkpt lat="44.37958" lon="1.15245">
        <ele>275</ele>
        <time>2021-02-09T09:36:25Z</time>
      </trkpt>
      <trkpt lat="44.37956" lon="1.15248">
        <ele>273</ele>
        <time>2021-02-09T09:36:28Z</time>
      </trkpt>
      <trkpt lat="44.37953" lon="1.15251">
        <ele>272</ele>
        <time>2021-02-09T09:36:32Z</time>
      </trkpt>
      <trkpt lat="44.37933" lon="1.15296">
        <ele>270</ele>
        <time>2021-02-09T09:37:02Z</time>
      </trkpt>
      <trkpt lat="44.37914" lon="1.15348">
        <ele>266</ele>
        <time>2021-02-09T09:37:33Z</time>
      </trkpt>
      <trkpt lat="44.37901" lon="1.15375">
        <ele>264</ele>
        <time>2021-02-09T09:38:04Z</time>
      </trkpt>
      <trkpt lat="44.37898" lon="1.15382">
        <ele>264</ele>
        <time>2021-02-09T09:38:08Z</time>
      </trkpt>
      <trkpt lat="44.37881" lon="1.15426">
        <ele>268</ele>
        <time>2021-02-09T09:38:37Z</time>
      </trkpt>
      <trkpt lat="44.37871" lon="1.15442">
        <ele>267</ele>
        <time>2021-02-09T09:38:47Z</time>
      </trkpt>
      <trkpt lat="44.37863" lon="1.15458">
        <ele>266</ele>
        <time>2021-02-09T09:38:55Z</time>
      </trkpt>
      <trkpt lat="44.37835" lon="1.15494">
        <ele>263</ele>
        <time>2021-02-09T09:39:05Z</time>
      </trkpt>
      <trkpt lat="44.37739" lon="1.15567">
        <ele>258</ele>
        <time>2021-02-09T09:39:35Z</time>
      </trkpt>
      <trkpt lat="44.37703" lon="1.15595">
        <ele>257</ele>
        <time>2021-02-09T09:39:48Z</time>
      </trkpt>
      <trkpt lat="44.377" lon="1.156">
        <ele>257</ele>
        <time>2021-02-09T09:39:50Z</time>
      </trkpt>
      <trkpt lat="44.37698" lon="1.15604">
        <ele>257</ele>
        <time>2021-02-09T09:39:52Z</time>
      </trkpt>
      <trkpt lat="44.37699" lon="1.15606">
        <ele>257</ele>
        <time>2021-02-09T09:39:54Z</time>
      </trkpt>
      <trkpt lat="44.377" lon="1.15608">
        <ele>258</ele>
        <time>2021-02-09T09:40:05Z</time>
      </trkpt>
      <trkpt lat="44.377" lon="1.15612">
        <ele>258</ele>
        <time>2021-02-09T09:40:24Z</time>
      </trkpt>
      <trkpt lat="44.37725" lon="1.15655">
        <ele>258</ele>
        <time>2021-02-09T09:40:54Z</time>
      </trkpt>
      <trkpt lat="44.37729" lon="1.15665">
        <ele>257</ele>
        <time>2021-02-09T09:41:00Z</time>
      </trkpt>
      <trkpt lat="44.37733" lon="1.15681">
        <ele>258</ele>
        <time>2021-02-09T09:41:08Z</time>
      </trkpt>
      <trkpt lat="44.37733" lon="1.15692">
        <ele>257</ele>
        <time>2021-02-09T09:41:14Z</time>
      </trkpt>
      <trkpt lat="44.37734" lon="1.15699">
        <ele>255</ele>
        <time>2021-02-09T09:41:18Z</time>
      </trkpt>
      <trkpt lat="44.37734" lon="1.15702">
        <ele>255</ele>
        <time>2021-02-09T09:41:20Z</time>
      </trkpt>
      <trkpt lat="44.37735" lon="1.15704">
        <ele>256</ele>
        <time>2021-02-09T09:41:22Z</time>
      </trkpt>
      <trkpt lat="44.37734" lon="1.15723">
        <ele>257</ele>
        <time>2021-02-09T09:41:33Z</time>
      </trkpt>
      <trkpt lat="44.37744" lon="1.15768">
        <ele>257</ele>
        <time>2021-02-09T09:41:58Z</time>
      </trkpt>
      <trkpt lat="44.37746" lon="1.15788">
        <ele>258</ele>
        <time>2021-02-09T09:42:08Z</time>
      </trkpt>
      <trkpt lat="44.37748" lon="1.15795">
        <ele>258</ele>
        <time>2021-02-09T09:42:12Z</time>
      </trkpt>
      <trkpt lat="44.3775" lon="1.15823">
        <ele>257</ele>
        <time>2021-02-09T09:42:26Z</time>
      </trkpt>
      <trkpt lat="44.37751" lon="1.15827">
        <ele>257</ele>
        <time>2021-02-09T09:42:28Z</time>
      </trkpt>
      <trkpt lat="44.3775" lon="1.1583">
        <ele>255</ele>
        <time>2021-02-09T09:42:30Z</time>
      </trkpt>
      <trkpt lat="44.37751" lon="1.15834">
        <ele>255</ele>
        <time>2021-02-09T09:42:32Z</time>
      </trkpt>
      <trkpt lat="44.37754" lon="1.1584">
        <ele>256</ele>
        <time>2021-02-09T09:42:36Z</time>
      </trkpt>
      <trkpt lat="44.37757" lon="1.1585">
        <ele>255</ele>
        <time>2021-02-09T09:42:42Z</time>
      </trkpt>
      <trkpt lat="44.3778" lon="1.15898">
        <ele>250</ele>
        <time>2021-02-09T09:43:12Z</time>
      </trkpt>
      <trkpt lat="44.37783" lon="1.15904">
        <ele>250</ele>
        <time>2021-02-09T09:43:16Z</time>
      </trkpt>
      <trkpt lat="44.37785" lon="1.15906">
        <ele>250</ele>
        <time>2021-02-09T09:43:18Z</time>
      </trkpt>
      <trkpt lat="44.37787" lon="1.15907">
        <ele>250</ele>
        <time>2021-02-09T09:43:21Z</time>
      </trkpt>
      <trkpt lat="44.3779" lon="1.15907">
        <ele>250</ele>
        <time>2021-02-09T09:43:24Z</time>
      </trkpt>
      <trkpt lat="44.37794" lon="1.15907">
        <ele>249</ele>
        <time>2021-02-09T09:43:27Z</time>
      </trkpt>
      <trkpt lat="44.378" lon="1.15907">
        <ele>249</ele>
        <time>2021-02-09T09:43:33Z</time>
      </trkpt>
      <trkpt lat="44.37807" lon="1.15902">
        <ele>246</ele>
        <time>2021-02-09T09:43:39Z</time>
      </trkpt>
      <trkpt lat="44.37815" lon="1.159">
        <ele>245</ele>
        <time>2021-02-09T09:43:44Z</time>
      </trkpt>
      <trkpt lat="44.37818" lon="1.15901">
        <ele>245</ele>
        <time>2021-02-09T09:43:47Z</time>
      </trkpt>
      <trkpt lat="44.37821" lon="1.15903">
        <ele>244</ele>
        <time>2021-02-09T09:43:51Z</time>
      </trkpt>
      <trkpt lat="44.37824" lon="1.15907">
        <ele>244</ele>
        <time>2021-02-09T09:43:55Z</time>
      </trkpt>
      <trkpt lat="44.37824" lon="1.15912">
        <ele>244</ele>
        <time>2021-02-09T09:43:58Z</time>
      </trkpt>
      <trkpt lat="44.37819" lon="1.1593">
        <ele>245</ele>
        <time>2021-02-09T09:44:10Z</time>
      </trkpt>
      <trkpt lat="44.37816" lon="1.15938">
        <ele>244</ele>
        <time>2021-02-09T09:44:16Z</time>
      </trkpt>
      <trkpt lat="44.3781" lon="1.15954">
        <ele>244</ele>
        <time>2021-02-09T09:44:26Z</time>
      </trkpt>
      <trkpt lat="44.37801" lon="1.15981">
        <ele>241</ele>
        <time>2021-02-09T09:44:36Z</time>
      </trkpt>
      <trkpt lat="44.37749" lon="1.161">
        <ele>227</ele>
        <time>2021-02-09T09:45:06Z</time>
      </trkpt>
      <trkpt lat="44.37726" lon="1.16165">
        <ele>225</ele>
        <time>2021-02-09T09:45:21Z</time>
      </trkpt>
      <trkpt lat="44.37679" lon="1.1629">
        <ele>223</ele>
        <time>2021-02-09T09:45:51Z</time>
      </trkpt>
      <trkpt lat="44.37639" lon="1.16394">
        <ele>216</ele>
        <time>2021-02-09T09:46:21Z</time>
      </trkpt>
      <trkpt lat="44.37632" lon="1.16425">
        <ele>210</ele>
        <time>2021-02-09T09:46:51Z</time>
      </trkpt>
      <trkpt lat="44.37612" lon="1.16477">
        <ele>210</ele>
        <time>2021-02-09T09:47:22Z</time>
      </trkpt>
      <trkpt lat="44.37608" lon="1.16485">
        <ele>211</ele>
        <time>2021-02-09T09:47:27Z</time>
      </trkpt>
      <trkpt lat="44.37606" lon="1.1649">
        <ele>210</ele>
        <time>2021-02-09T09:47:30Z</time>
      </trkpt>
      <trkpt lat="44.37602" lon="1.16499">
        <ele>210</ele>
        <time>2021-02-09T09:47:36Z</time>
      </trkpt>
      <trkpt lat="44.37602" lon="1.16504">
        <ele>208</ele>
        <time>2021-02-09T09:47:51Z</time>
      </trkpt>
      <trkpt lat="44.37599" lon="1.16507">
        <ele>208</ele>
        <time>2021-02-09T09:47:54Z</time>
      </trkpt>
      <trkpt lat="44.37596" lon="1.16515">
        <ele>207</ele>
        <time>2021-02-09T09:47:59Z</time>
      </trkpt>
      <trkpt lat="44.37593" lon="1.16519">
        <ele>206</ele>
        <time>2021-02-09T09:48:01Z</time>
      </trkpt>
      <trkpt lat="44.37569" lon="1.16556">
        <ele>205</ele>
        <time>2021-02-09T09:48:24Z</time>
      </trkpt>
      <trkpt lat="44.37568" lon="1.16557">
        <ele>204</ele>
        <time>2021-02-09T09:48:40Z</time>
      </trkpt>
      <trkpt lat="44.37566" lon="1.1656">
        <ele>206</ele>
        <time>2021-02-09T09:49:07Z</time>
      </trkpt>
      <trkpt lat="44.37562" lon="1.16564">
        <ele>206</ele>
        <time>2021-02-09T09:49:12Z</time>
      </trkpt>
      <trkpt lat="44.37556" lon="1.16571">
        <ele>206</ele>
        <time>2021-02-09T09:49:18Z</time>
      </trkpt>
      <trkpt lat="44.3755" lon="1.16578">
        <ele>205</ele>
        <time>2021-02-09T09:49:24Z</time>
      </trkpt>
      <trkpt lat="44.37545" lon="1.16583">
        <ele>205</ele>
        <time>2021-02-09T09:49:29Z</time>
      </trkpt>
      <trkpt lat="44.37533" lon="1.166">
        <ele>203</ele>
        <time>2021-02-09T09:49:41Z</time>
      </trkpt>
      <trkpt lat="44.3753" lon="1.16604">
        <ele>203</ele>
        <time>2021-02-09T09:49:45Z</time>
      </trkpt>
      <trkpt lat="44.37496" lon="1.16644">
        <ele>201</ele>
        <time>2021-02-09T09:50:17Z</time>
      </trkpt>
      <trkpt lat="44.37494" lon="1.16646">
        <ele>200</ele>
        <time>2021-02-09T09:50:19Z</time>
      </trkpt>
      <trkpt lat="44.37464" lon="1.16688">
        <ele>203</ele>
        <time>2021-02-09T09:50:50Z</time>
      </trkpt>
      <trkpt lat="44.37462" lon="1.16691">
        <ele>203</ele>
        <time>2021-02-09T09:50:52Z</time>
      </trkpt>
      <trkpt lat="44.37459" lon="1.16694">
        <ele>202</ele>
        <time>2021-02-09T09:50:55Z</time>
      </trkpt>
      <trkpt lat="44.37457" lon="1.16697">
        <ele>202</ele>
        <time>2021-02-09T09:50:58Z</time>
      </trkpt>
      <trkpt lat="44.37427" lon="1.16738">
        <ele>204</ele>
        <time>2021-02-09T09:51:29Z</time>
      </trkpt>
      <trkpt lat="44.37418" lon="1.16749">
        <ele>205</ele>
        <time>2021-02-09T09:51:37Z</time>
      </trkpt>
      <trkpt lat="44.37417" lon="1.16752">
        <ele>204</ele>
        <time>2021-02-09T09:51:39Z</time>
      </trkpt>
      <trkpt lat="44.37404" lon="1.16771">
        <ele>205</ele>
        <time>2021-02-09T09:51:53Z</time>
      </trkpt>
      <trkpt lat="44.37399" lon="1.16777">
        <ele>205</ele>
        <time>2021-02-09T09:51:57Z</time>
      </trkpt>
      <trkpt lat="44.37375" lon="1.16817">
        <ele>208</ele>
        <time>2021-02-09T09:52:26Z</time>
      </trkpt>
      <trkpt lat="44.37374" lon="1.16821">
        <ele>208</ele>
        <time>2021-02-09T09:52:29Z</time>
      </trkpt>
      <trkpt lat="44.37375" lon="1.16828">
        <ele>207</ele>
        <time>2021-02-09T09:52:33Z</time>
      </trkpt>
      <trkpt lat="44.37407" lon="1.16875">
        <ele>208</ele>
        <time>2021-02-09T09:52:50Z</time>
      </trkpt>
      <trkpt lat="44.37427" lon="1.16899">
        <ele>207</ele>
        <time>2021-02-09T09:52:59Z</time>
      </trkpt>
      <trkpt lat="44.37432" lon="1.16904">
        <ele>206</ele>
        <time>2021-02-09T09:53:01Z</time>
      </trkpt>
      <trkpt lat="44.37443" lon="1.16919">
        <ele>207</ele>
        <time>2021-02-09T09:53:06Z</time>
      </trkpt>
      <trkpt lat="44.37506" lon="1.1701">
        <ele>209</ele>
        <time>2021-02-09T09:53:36Z</time>
      </trkpt>
      <trkpt lat="44.37513" lon="1.17019">
        <ele>210</ele>
        <time>2021-02-09T09:53:39Z</time>
      </trkpt>
      <trkpt lat="44.37529" lon="1.17039">
        <ele>209</ele>
        <time>2021-02-09T09:53:46Z</time>
      </trkpt>
      <trkpt lat="44.37547" lon="1.17062">
        <ele>209</ele>
        <time>2021-02-09T09:53:55Z</time>
      </trkpt>
      <trkpt lat="44.37562" lon="1.17073">
        <ele>210</ele>
        <time>2021-02-09T09:54:18Z</time>
      </trkpt>
      <trkpt lat="44.37567" lon="1.17079">
        <ele>210</ele>
        <time>2021-02-09T09:54:23Z</time>
      </trkpt>
      <trkpt lat="44.37576" lon="1.17087">
        <ele>210</ele>
        <time>2021-02-09T09:54:32Z</time>
      </trkpt>
      <trkpt lat="44.37582" lon="1.1709">
        <ele>210</ele>
        <time>2021-02-09T09:54:37Z</time>
      </trkpt>
      <trkpt lat="44.37585" lon="1.17094">
        <ele>211</ele>
        <time>2021-02-09T09:54:40Z</time>
      </trkpt>
      <trkpt lat="44.37589" lon="1.17101">
        <ele>210</ele>
        <time>2021-02-09T09:54:46Z</time>
      </trkpt>
      <trkpt lat="44.37598" lon="1.17108">
        <ele>210</ele>
        <time>2021-02-09T09:54:53Z</time>
      </trkpt>
      <trkpt lat="44.37604" lon="1.17112">
        <ele>210</ele>
        <time>2021-02-09T09:54:58Z</time>
      </trkpt>
      <trkpt lat="44.37609" lon="1.17115">
        <ele>210</ele>
        <time>2021-02-09T09:55:03Z</time>
      </trkpt>
      <trkpt lat="44.37612" lon="1.17122">
        <ele>210</ele>
        <time>2021-02-09T09:55:08Z</time>
      </trkpt>
      <trkpt lat="44.37619" lon="1.17132">
        <ele>209</ele>
        <time>2021-02-09T09:55:16Z</time>
      </trkpt>
      <trkpt lat="44.37628" lon="1.17139">
        <ele>210</ele>
        <time>2021-02-09T09:55:23Z</time>
      </trkpt>
      <trkpt lat="44.37657" lon="1.17184">
        <ele>212</ele>
        <time>2021-02-09T09:55:55Z</time>
      </trkpt>
      <trkpt lat="44.37659" lon="1.17187">
        <ele>211</ele>
        <time>2021-02-09T09:55:57Z</time>
      </trkpt>
      <trkpt lat="44.3766" lon="1.1719">
        <ele>211</ele>
        <time>2021-02-09T09:56:00Z</time>
      </trkpt>
      <trkpt lat="44.37669" lon="1.17213">
        <ele>211</ele>
        <time>2021-02-09T09:56:22Z</time>
      </trkpt>
      <trkpt lat="44.37672" lon="1.17229">
        <ele>211</ele>
        <time>2021-02-09T09:56:31Z</time>
      </trkpt>
      <trkpt lat="44.37671" lon="1.17232">
        <ele>211</ele>
        <time>2021-02-09T09:56:33Z</time>
      </trkpt>
      <trkpt lat="44.37669" lon="1.17234">
        <ele>211</ele>
        <time>2021-02-09T09:56:35Z</time>
      </trkpt>
      <trkpt lat="44.37647" lon="1.17271">
        <ele>209</ele>
        <time>2021-02-09T09:57:05Z</time>
      </trkpt>
      <trkpt lat="44.37633" lon="1.17293">
        <ele>210</ele>
        <time>2021-02-09T09:57:25Z</time>
      </trkpt>
      <trkpt lat="44.3763" lon="1.17302">
        <ele>213</ele>
        <time>2021-02-09T09:57:30Z</time>
      </trkpt>
      <trkpt lat="44.37628" lon="1.17307">
        <ele>213</ele>
        <time>2021-02-09T09:57:33Z</time>
      </trkpt>
      <trkpt lat="44.37627" lon="1.1731">
        <ele>213</ele>
        <time>2021-02-09T09:57:36Z</time>
      </trkpt>
      <trkpt lat="44.37626" lon="1.17315">
        <ele>214</ele>
        <time>2021-02-09T09:57:39Z</time>
      </trkpt>
      <trkpt lat="44.3762" lon="1.17351">
        <ele>222</ele>
        <time>2021-02-09T09:57:59Z</time>
      </trkpt>
      <trkpt lat="44.37616" lon="1.17361">
        <ele>222</ele>
        <time>2021-02-09T09:58:05Z</time>
      </trkpt>
      <trkpt lat="44.37616" lon="1.17367">
        <ele>223</ele>
        <time>2021-02-09T09:58:09Z</time>
      </trkpt>
      <trkpt lat="44.37616" lon="1.17372">
        <ele>224</ele>
        <time>2021-02-09T09:58:13Z</time>
      </trkpt>
      <trkpt lat="44.37615" lon="1.17377">
        <ele>224</ele>
        <time>2021-02-09T09:58:16Z</time>
      </trkpt>
      <trkpt lat="44.37612" lon="1.17381">
        <ele>224</ele>
        <time>2021-02-09T09:58:19Z</time>
      </trkpt>
      <trkpt lat="44.3761" lon="1.17387">
        <ele>224</ele>
        <time>2021-02-09T09:58:23Z</time>
      </trkpt>
      <trkpt lat="44.3761" lon="1.17391">
        <ele>226</ele>
        <time>2021-02-09T09:58:26Z</time>
      </trkpt>
      <trkpt lat="44.37605" lon="1.17398">
        <ele>227</ele>
        <time>2021-02-09T09:58:32Z</time>
      </trkpt>
      <trkpt lat="44.37603" lon="1.17403">
        <ele>227</ele>
        <time>2021-02-09T09:58:36Z</time>
      </trkpt>
      <trkpt lat="44.37602" lon="1.17407">
        <ele>228</ele>
        <time>2021-02-09T09:58:40Z</time>
      </trkpt>
      <trkpt lat="44.37589" lon="1.17426">
        <ele>228</ele>
        <time>2021-02-09T09:58:59Z</time>
      </trkpt>
      <trkpt lat="44.37565" lon="1.17451">
        <ele>232</ele>
        <time>2021-02-09T09:59:25Z</time>
      </trkpt>
      <trkpt lat="44.37542" lon="1.17489">
        <ele>243</ele>
        <time>2021-02-09T09:59:55Z</time>
      </trkpt>
      <trkpt lat="44.37539" lon="1.17492">
        <ele>244</ele>
        <time>2021-02-09T09:59:58Z</time>
      </trkpt>
      <trkpt lat="44.37537" lon="1.17494">
        <ele>245</ele>
        <time>2021-02-09T10:00:01Z</time>
      </trkpt>
      <trkpt lat="44.37526" lon="1.17504">
        <ele>245</ele>
        <time>2021-02-09T10:00:12Z</time>
      </trkpt>
      <trkpt lat="44.37524" lon="1.17507">
        <ele>246</ele>
        <time>2021-02-09T10:00:15Z</time>
      </trkpt>
      <trkpt lat="44.3751" lon="1.17526">
        <ele>250</ele>
        <time>2021-02-09T10:00:33Z</time>
      </trkpt>
      <trkpt lat="44.375" lon="1.17531">
        <ele>253</ele>
        <time>2021-02-09T10:00:44Z</time>
      </trkpt>
      <trkpt lat="44.37495" lon="1.17535">
        <ele>251</ele>
        <time>2021-02-09T10:00:49Z</time>
      </trkpt>
      <trkpt lat="44.37494" lon="1.17538">
        <ele>250</ele>
        <time>2021-02-09T10:00:54Z</time>
      </trkpt>
      <trkpt lat="44.37478" lon="1.1755">
        <ele>250</ele>
        <time>2021-02-09T10:01:15Z</time>
      </trkpt>
      <trkpt lat="44.3745" lon="1.17578">
        <ele>257</ele>
        <time>2021-02-09T10:01:41Z</time>
      </trkpt>
      <trkpt lat="44.37444" lon="1.17584">
        <ele>258</ele>
        <time>2021-02-09T10:01:47Z</time>
      </trkpt>
      <trkpt lat="44.37417" lon="1.17618">
        <ele>261</ele>
        <time>2021-02-09T10:02:18Z</time>
      </trkpt>
      <trkpt lat="44.37415" lon="1.17619">
        <ele>260</ele>
        <time>2021-02-09T10:02:20Z</time>
      </trkpt>
      <trkpt lat="44.37414" lon="1.17622">
        <ele>260</ele>
        <time>2021-02-09T10:02:52Z</time>
      </trkpt>
      <trkpt lat="44.374" lon="1.1763">
        <ele>262</ele>
        <time>2021-02-09T10:03:03Z</time>
      </trkpt>
      <trkpt lat="44.37388" lon="1.17636">
        <ele>261</ele>
        <time>2021-02-09T10:03:13Z</time>
      </trkpt>
      <trkpt lat="44.37346" lon="1.17641">
        <ele>260</ele>
        <time>2021-02-09T10:03:43Z</time>
      </trkpt>
      <trkpt lat="44.37309" lon="1.17653">
        <ele>257</ele>
        <time>2021-02-09T10:04:13Z</time>
      </trkpt>
      <trkpt lat="44.3729" lon="1.17654">
        <ele>256</ele>
        <time>2021-02-09T10:04:26Z</time>
      </trkpt>
      <trkpt lat="44.37283" lon="1.17653">
        <ele>256</ele>
        <time>2021-02-09T10:04:33Z</time>
      </trkpt>
      <trkpt lat="44.3728" lon="1.17653">
        <ele>257</ele>
        <time>2021-02-09T10:04:40Z</time>
      </trkpt>
      <trkpt lat="44.37278" lon="1.17655">
        <ele>258</ele>
        <time>2021-02-09T10:04:43Z</time>
      </trkpt>
      <trkpt lat="44.37276" lon="1.17658">
        <ele>258</ele>
        <time>2021-02-09T10:04:45Z</time>
      </trkpt>
      <trkpt lat="44.37235" lon="1.17676">
        <ele>259</ele>
        <time>2021-02-09T10:05:15Z</time>
      </trkpt>
      <trkpt lat="44.3723" lon="1.1768">
        <ele>260</ele>
        <time>2021-02-09T10:05:19Z</time>
      </trkpt>
      <trkpt lat="44.37227" lon="1.17682">
        <ele>260</ele>
        <time>2021-02-09T10:05:21Z</time>
      </trkpt>
      <trkpt lat="44.37224" lon="1.17684">
        <ele>260</ele>
        <time>2021-02-09T10:05:24Z</time>
      </trkpt>
      <trkpt lat="44.37208" lon="1.17685">
        <ele>259</ele>
        <time>2021-02-09T10:05:36Z</time>
      </trkpt>
      <trkpt lat="44.37166" lon="1.17699">
        <ele>260</ele>
        <time>2021-02-09T10:06:07Z</time>
      </trkpt>
      <trkpt lat="44.37157" lon="1.17702">
        <ele>258</ele>
        <time>2021-02-09T10:06:22Z</time>
      </trkpt>
      <trkpt lat="44.37152" lon="1.17705">
        <ele>257</ele>
        <time>2021-02-09T10:06:26Z</time>
      </trkpt>
      <trkpt lat="44.37118" lon="1.17718">
        <ele>256</ele>
        <time>2021-02-09T10:07:04Z</time>
      </trkpt>
      <trkpt lat="44.37113" lon="1.1772">
        <ele>254</ele>
        <time>2021-02-09T10:07:08Z</time>
      </trkpt>
      <trkpt lat="44.3711" lon="1.1772">
        <ele>254</ele>
        <time>2021-02-09T10:07:10Z</time>
      </trkpt>
      <trkpt lat="44.37108" lon="1.1772">
        <ele>253</ele>
        <time>2021-02-09T10:07:12Z</time>
      </trkpt>
      <trkpt lat="44.37097" lon="1.17723">
        <ele>252</ele>
        <time>2021-02-09T10:07:20Z</time>
      </trkpt>
      <trkpt lat="44.37093" lon="1.17727">
        <ele>252</ele>
        <time>2021-02-09T10:07:24Z</time>
      </trkpt>
      <trkpt lat="44.37086" lon="1.17732">
        <ele>251</ele>
        <time>2021-02-09T10:07:29Z</time>
      </trkpt>
      <trkpt lat="44.37083" lon="1.17732">
        <ele>251</ele>
        <time>2021-02-09T10:07:31Z</time>
      </trkpt>
      <trkpt lat="44.3708" lon="1.17734">
        <ele>251</ele>
        <time>2021-02-09T10:07:33Z</time>
      </trkpt>
      <trkpt lat="44.37075" lon="1.17733">
        <ele>251</ele>
        <time>2021-02-09T10:07:37Z</time>
      </trkpt>
      <trkpt lat="44.37072" lon="1.17733">
        <ele>250</ele>
        <time>2021-02-09T10:07:39Z</time>
      </trkpt>
      <trkpt lat="44.37052" lon="1.17746">
        <ele>251</ele>
        <time>2021-02-09T10:07:57Z</time>
      </trkpt>
      <trkpt lat="44.3705" lon="1.17748">
        <ele>251</ele>
        <time>2021-02-09T10:07:59Z</time>
      </trkpt>
      <trkpt lat="44.37048" lon="1.17748">
        <ele>251</ele>
        <time>2021-02-09T10:08:01Z</time>
      </trkpt>
      <trkpt lat="44.37043" lon="1.17747">
        <ele>250</ele>
        <time>2021-02-09T10:08:05Z</time>
      </trkpt>
      <trkpt lat="44.37034" lon="1.17739">
        <ele>250</ele>
        <time>2021-02-09T10:08:13Z</time>
      </trkpt>
      <trkpt lat="44.37028" lon="1.17735">
        <ele>249</ele>
        <time>2021-02-09T10:08:22Z</time>
      </trkpt>
      <trkpt lat="44.37024" lon="1.17737">
        <ele>252</ele>
        <time>2021-02-09T10:13:57Z</time>
      </trkpt>
      <trkpt lat="44.37021" lon="1.17739">
        <ele>252</ele>
        <time>2021-02-09T10:14:00Z</time>
      </trkpt>
      <trkpt lat="44.37017" lon="1.17739">
        <ele>251</ele>
        <time>2021-02-09T10:14:05Z</time>
      </trkpt>
      <trkpt lat="44.37009" lon="1.17739">
        <ele>247</ele>
        <time>2021-02-09T10:14:18Z</time>
      </trkpt>
      <trkpt lat="44.37003" lon="1.17735">
        <ele>245</ele>
        <time>2021-02-09T10:14:21Z</time>
      </trkpt>
      <trkpt lat="44.36998" lon="1.17733">
        <ele>245</ele>
        <time>2021-02-09T10:14:26Z</time>
      </trkpt>
      <trkpt lat="44.36997" lon="1.17736">
        <ele>245</ele>
        <time>2021-02-09T10:14:28Z</time>
      </trkpt>
      <trkpt lat="44.36995" lon="1.17739">
        <ele>245</ele>
        <time>2021-02-09T10:14:31Z</time>
      </trkpt>
      <trkpt lat="44.36992" lon="1.17741">
        <ele>244</ele>
        <time>2021-02-09T10:14:34Z</time>
      </trkpt>
      <trkpt lat="44.3699" lon="1.17748">
        <ele>244</ele>
        <time>2021-02-09T10:14:46Z</time>
      </trkpt>
      <trkpt lat="44.36988" lon="1.17751">
        <ele>245</ele>
        <time>2021-02-09T10:14:49Z</time>
      </trkpt>
      <trkpt lat="44.36977" lon="1.17766">
        <ele>245</ele>
        <time>2021-02-09T10:15:00Z</time>
      </trkpt>
      <trkpt lat="44.36973" lon="1.17773">
        <ele>243</ele>
        <time>2021-02-09T10:15:04Z</time>
      </trkpt>
      <trkpt lat="44.36971" lon="1.17775">
        <ele>242</ele>
        <time>2021-02-09T10:15:06Z</time>
      </trkpt>
      <trkpt lat="44.36968" lon="1.17781">
        <ele>242</ele>
        <time>2021-02-09T10:15:12Z</time>
      </trkpt>
      <trkpt lat="44.36961" lon="1.17791">
        <ele>241</ele>
        <time>2021-02-09T10:15:22Z</time>
      </trkpt>
      <trkpt lat="44.36957" lon="1.17803">
        <ele>240</ele>
        <time>2021-02-09T10:15:28Z</time>
      </trkpt>
      <trkpt lat="44.36949" lon="1.17821">
        <ele>239</ele>
        <time>2021-02-09T10:15:41Z</time>
      </trkpt>
      <trkpt lat="44.36938" lon="1.17833">
        <ele>238</ele>
        <time>2021-02-09T10:15:51Z</time>
      </trkpt>
      <trkpt lat="44.3693" lon="1.17839">
        <ele>236</ele>
        <time>2021-02-09T10:15:57Z</time>
      </trkpt>
      <trkpt lat="44.36924" lon="1.17842">
        <ele>234</ele>
        <time>2021-02-09T10:16:01Z</time>
      </trkpt>
      <trkpt lat="44.36917" lon="1.17844">
        <ele>233</ele>
        <time>2021-02-09T10:16:07Z</time>
      </trkpt>
      <trkpt lat="44.36896" lon="1.17846">
        <ele>228</ele>
        <time>2021-02-09T10:16:18Z</time>
      </trkpt>
      <trkpt lat="44.36882" lon="1.17851">
        <ele>227</ele>
        <time>2021-02-09T10:16:23Z</time>
      </trkpt>
      <trkpt lat="44.36875" lon="1.17856">
        <ele>228</ele>
        <time>2021-02-09T10:16:27Z</time>
      </trkpt>
      <trkpt lat="44.3687" lon="1.17865">
        <ele>229</ele>
        <time>2021-02-09T10:16:33Z</time>
      </trkpt>
      <trkpt lat="44.36869" lon="1.17868">
        <ele>229</ele>
        <time>2021-02-09T10:16:35Z</time>
      </trkpt>
      <trkpt lat="44.36869" lon="1.17873">
        <ele>229</ele>
        <time>2021-02-09T10:16:38Z</time>
      </trkpt>
      <trkpt lat="44.36871" lon="1.17882">
        <ele>228</ele>
        <time>2021-02-09T10:16:48Z</time>
      </trkpt>
      <trkpt lat="44.36876" lon="1.17912">
        <ele>227</ele>
        <time>2021-02-09T10:17:04Z</time>
      </trkpt>
      <trkpt lat="44.36879" lon="1.17923">
        <ele>227</ele>
        <time>2021-02-09T10:17:10Z</time>
      </trkpt>
      <trkpt lat="44.36879" lon="1.17927">
        <ele>227</ele>
        <time>2021-02-09T10:17:13Z</time>
      </trkpt>
      <trkpt lat="44.36879" lon="1.17931">
        <ele>227</ele>
        <time>2021-02-09T10:17:15Z</time>
      </trkpt>
      <trkpt lat="44.36873" lon="1.17942">
        <ele>226</ele>
        <time>2021-02-09T10:17:21Z</time>
      </trkpt>
      <trkpt lat="44.36862" lon="1.17952">
        <ele>225</ele>
        <time>2021-02-09T10:17:30Z</time>
      </trkpt>
      <trkpt lat="44.36858" lon="1.17952">
        <ele>225</ele>
        <time>2021-02-09T10:17:34Z</time>
      </trkpt>
      <trkpt lat="44.36854" lon="1.17955">
        <ele>225</ele>
        <time>2021-02-09T10:17:40Z</time>
      </trkpt>
      <trkpt lat="44.36851" lon="1.17957">
        <ele>225</ele>
        <time>2021-02-09T10:17:45Z</time>
      </trkpt>
      <trkpt lat="44.36825" lon="1.17973">
        <ele>224</ele>
        <time>2021-02-09T10:18:06Z</time>
      </trkpt>
      <trkpt lat="44.36818" lon="1.17981">
        <ele>224</ele>
        <time>2021-02-09T10:18:12Z</time>
      </trkpt>
      <trkpt lat="44.36813" lon="1.17988">
        <ele>224</ele>
        <time>2021-02-09T10:18:18Z</time>
      </trkpt>
      <trkpt lat="44.36806" lon="1.17993">
        <ele>225</ele>
        <time>2021-02-09T10:18:26Z</time>
      </trkpt>
      <trkpt lat="44.368" lon="1.18002">
        <ele>227</ele>
        <time>2021-02-09T10:18:34Z</time>
      </trkpt>
      <trkpt lat="44.36792" lon="1.18021">
        <ele>229</ele>
        <time>2021-02-09T10:18:46Z</time>
      </trkpt>
      <trkpt lat="44.3679" lon="1.18026">
        <ele>229</ele>
        <time>2021-02-09T10:18:49Z</time>
      </trkpt>
      <trkpt lat="44.36788" lon="1.18032">
        <ele>230</ele>
        <time>2021-02-09T10:18:53Z</time>
      </trkpt>
      <trkpt lat="44.36785" lon="1.18042">
        <ele>232</ele>
        <time>2021-02-09T10:18:59Z</time>
      </trkpt>
      <trkpt lat="44.36781" lon="1.18065">
        <ele>233</ele>
        <time>2021-02-09T10:19:12Z</time>
      </trkpt>
      <trkpt lat="44.36772" lon="1.18096">
        <ele>232</ele>
        <time>2021-02-09T10:19:30Z</time>
      </trkpt>
      <trkpt lat="44.3677" lon="1.18101">
        <ele>233</ele>
        <time>2021-02-09T10:19:33Z</time>
      </trkpt>
      <trkpt lat="44.36768" lon="1.18105">
        <ele>233</ele>
        <time>2021-02-09T10:19:36Z</time>
      </trkpt>
      <trkpt lat="44.36767" lon="1.1811">
        <ele>234</ele>
        <time>2021-02-09T10:19:40Z</time>
      </trkpt>
      <trkpt lat="44.36764" lon="1.1812">
        <ele>235</ele>
        <time>2021-02-09T10:19:46Z</time>
      </trkpt>
      <trkpt lat="44.36758" lon="1.1813">
        <ele>236</ele>
        <time>2021-02-09T10:19:53Z</time>
      </trkpt>
      <trkpt lat="44.36749" lon="1.18152">
        <ele>238</ele>
        <time>2021-02-09T10:20:07Z</time>
      </trkpt>
      <trkpt lat="44.36743" lon="1.18161">
        <ele>239</ele>
        <time>2021-02-09T10:20:15Z</time>
      </trkpt>
      <trkpt lat="44.36742" lon="1.18167">
        <ele>240</ele>
        <time>2021-02-09T10:20:19Z</time>
      </trkpt>
      <trkpt lat="44.3674" lon="1.18171">
        <ele>240</ele>
        <time>2021-02-09T10:20:22Z</time>
      </trkpt>
      <trkpt lat="44.36738" lon="1.18175">
        <ele>241</ele>
        <time>2021-02-09T10:20:25Z</time>
      </trkpt>
      <trkpt lat="44.36736" lon="1.1818">
        <ele>241</ele>
        <time>2021-02-09T10:20:28Z</time>
      </trkpt>
      <trkpt lat="44.36728" lon="1.18198">
        <ele>243</ele>
        <time>2021-02-09T10:20:42Z</time>
      </trkpt>
      <trkpt lat="44.36725" lon="1.18203">
        <ele>244</ele>
        <time>2021-02-09T10:20:46Z</time>
      </trkpt>
      <trkpt lat="44.36697" lon="1.18227">
        <ele>252</ele>
        <time>2021-02-09T10:21:17Z</time>
      </trkpt>
      <trkpt lat="44.36695" lon="1.18229">
        <ele>252</ele>
        <time>2021-02-09T10:21:19Z</time>
      </trkpt>
      <trkpt lat="44.36693" lon="1.1823">
        <ele>253</ele>
        <time>2021-02-09T10:21:21Z</time>
      </trkpt>
      <trkpt lat="44.36688" lon="1.18237">
        <ele>256</ele>
        <time>2021-02-09T10:21:27Z</time>
      </trkpt>
      <trkpt lat="44.3666" lon="1.18261">
        <ele>261</ele>
        <time>2021-02-09T10:21:55Z</time>
      </trkpt>
      <trkpt lat="44.36649" lon="1.18278">
        <ele>259</ele>
        <time>2021-02-09T10:22:07Z</time>
      </trkpt>
      <trkpt lat="44.3661" lon="1.18361">
        <ele>258</ele>
        <time>2021-02-09T10:22:36Z</time>
      </trkpt>
      <trkpt lat="44.36603" lon="1.18369">
        <ele>258</ele>
        <time>2021-02-09T10:22:39Z</time>
      </trkpt>
      <trkpt lat="44.36595" lon="1.18377">
        <ele>258</ele>
        <time>2021-02-09T10:22:42Z</time>
      </trkpt>
      <trkpt lat="44.36465" lon="1.18406">
        <ele>263</ele>
        <time>2021-02-09T10:23:11Z</time>
      </trkpt>
      <trkpt lat="44.36413" lon="1.18417">
        <ele>264</ele>
        <time>2021-02-09T10:23:23Z</time>
      </trkpt>
      <trkpt lat="44.36408" lon="1.1842">
        <ele>264</ele>
        <time>2021-02-09T10:23:25Z</time>
      </trkpt>
      <trkpt lat="44.36407" lon="1.18422">
        <ele>265</ele>
        <time>2021-02-09T10:23:27Z</time>
      </trkpt>
      <trkpt lat="44.36404" lon="1.18424">
        <ele>264</ele>
        <time>2021-02-09T10:23:30Z</time>
      </trkpt>
      <trkpt lat="44.36369" lon="1.18443">
        <ele>265</ele>
        <time>2021-02-09T10:24:01Z</time>
      </trkpt>
      <trkpt lat="44.36336" lon="1.18465">
        <ele>269</ele>
        <time>2021-02-09T10:24:31Z</time>
      </trkpt>
      <trkpt lat="44.36332" lon="1.18467">
        <ele>269</ele>
        <time>2021-02-09T10:24:34Z</time>
      </trkpt>
      <trkpt lat="44.36329" lon="1.1847">
        <ele>270</ele>
        <time>2021-02-09T10:24:37Z</time>
      </trkpt>
      <trkpt lat="44.36326" lon="1.18473">
        <ele>271</ele>
        <time>2021-02-09T10:24:40Z</time>
      </trkpt>
      <trkpt lat="44.36319" lon="1.18476">
        <ele>271</ele>
        <time>2021-02-09T10:24:47Z</time>
      </trkpt>
      <trkpt lat="44.36316" lon="1.18477">
        <ele>271</ele>
        <time>2021-02-09T10:24:49Z</time>
      </trkpt>
      <trkpt lat="44.36313" lon="1.18478">
        <ele>271</ele>
        <time>2021-02-09T10:24:51Z</time>
      </trkpt>
      <trkpt lat="44.36313" lon="1.18482">
        <ele>271</ele>
        <time>2021-02-09T10:24:54Z</time>
      </trkpt>
      <trkpt lat="44.36327" lon="1.18499">
        <ele>272</ele>
        <time>2021-02-09T10:25:20Z</time>
      </trkpt>
      <trkpt lat="44.3636" lon="1.1853">
        <ele>272</ele>
        <time>2021-02-09T10:25:50Z</time>
      </trkpt>
      <trkpt lat="44.36379" lon="1.18543">
        <ele>269</ele>
        <time>2021-02-09T10:26:06Z</time>
      </trkpt>
      <trkpt lat="44.36383" lon="1.18546">
        <ele>268</ele>
        <time>2021-02-09T10:26:51Z</time>
      </trkpt>
      <trkpt lat="44.36395" lon="1.18559">
        <ele>268</ele>
        <time>2021-02-09T10:27:03Z</time>
      </trkpt>
      <trkpt lat="44.36455" lon="1.18643">
        <ele>264</ele>
        <time>2021-02-09T10:27:33Z</time>
      </trkpt>
      <trkpt lat="44.36553" lon="1.18754">
        <ele>263</ele>
        <time>2021-02-09T10:28:03Z</time>
      </trkpt>
      <trkpt lat="44.3664" lon="1.18853">
        <ele>265</ele>
        <time>2021-02-09T10:28:28Z</time>
      </trkpt>
      <trkpt lat="44.36658" lon="1.1887">
        <ele>264</ele>
        <time>2021-02-09T10:28:45Z</time>
      </trkpt>
      <trkpt lat="44.36667" lon="1.18886">
        <ele>265</ele>
        <time>2021-02-09T10:28:58Z</time>
      </trkpt>
      <trkpt lat="44.3667" lon="1.1889">
        <ele>265</ele>
        <time>2021-02-09T10:29:01Z</time>
      </trkpt>
      <trkpt lat="44.3668" lon="1.18912">
        <ele>267</ele>
        <time>2021-02-09T10:29:17Z</time>
      </trkpt>
      <trkpt lat="44.36682" lon="1.18916">
        <ele>267</ele>
        <time>2021-02-09T10:29:20Z</time>
      </trkpt>
      <trkpt lat="44.36683" lon="1.18929">
        <ele>267</ele>
        <time>2021-02-09T10:29:27Z</time>
      </trkpt>
      <trkpt lat="44.36689" lon="1.18952">
        <ele>268</ele>
        <time>2021-02-09T10:29:40Z</time>
      </trkpt>
      <trkpt lat="44.36697" lon="1.18967">
        <ele>267</ele>
        <time>2021-02-09T10:29:50Z</time>
      </trkpt>
      <trkpt lat="44.36701" lon="1.18971">
        <ele>267</ele>
        <time>2021-02-09T10:29:54Z</time>
      </trkpt>
      <trkpt lat="44.36707" lon="1.18984">
        <ele>267</ele>
        <time>2021-02-09T10:30:02Z</time>
      </trkpt>
      <trkpt lat="44.36728" lon="1.19034">
        <ele>267</ele>
        <time>2021-02-09T10:30:32Z</time>
      </trkpt>
      <trkpt lat="44.36731" lon="1.19039">
        <ele>268</ele>
        <time>2021-02-09T10:30:36Z</time>
      </trkpt>
      <trkpt lat="44.36757" lon="1.19115">
        <ele>266</ele>
        <time>2021-02-09T10:31:06Z</time>
      </trkpt>
      <trkpt lat="44.36771" lon="1.19168">
        <ele>267</ele>
        <time>2021-02-09T10:31:21Z</time>
      </trkpt>
      <trkpt lat="44.36772" lon="1.19173">
        <ele>267</ele>
        <time>2021-02-09T10:31:23Z</time>
      </trkpt>
      <trkpt lat="44.36774" lon="1.19201">
        <ele>266</ele>
        <time>2021-02-09T10:31:30Z</time>
      </trkpt>
      <trkpt lat="44.36767" lon="1.19257">
        <ele>268</ele>
        <time>2021-02-09T10:31:39Z</time>
      </trkpt>
      <trkpt lat="44.36761" lon="1.19289">
        <ele>270</ele>
        <time>2021-02-09T10:31:53Z</time>
      </trkpt>
      <trkpt lat="44.36757" lon="1.19341">
        <ele>269</ele>
        <time>2021-02-09T10:32:21Z</time>
      </trkpt>
      <trkpt lat="44.36758" lon="1.19353">
        <ele>268</ele>
        <time>2021-02-09T10:32:27Z</time>
      </trkpt>
      <trkpt lat="44.36761" lon="1.1936">
        <ele>268</ele>
        <time>2021-02-09T10:32:31Z</time>
      </trkpt>
      <trkpt lat="44.36764" lon="1.19362">
        <ele>267</ele>
        <time>2021-02-09T10:32:34Z</time>
      </trkpt>
      <trkpt lat="44.36776" lon="1.19376">
        <ele>265</ele>
        <time>2021-02-09T10:32:46Z</time>
      </trkpt>
      <trkpt lat="44.3682" lon="1.19434">
        <ele>266</ele>
        <time>2021-02-09T10:33:09Z</time>
      </trkpt>
      <trkpt lat="44.3684" lon="1.19449">
        <ele>269</ele>
        <time>2021-02-09T10:33:16Z</time>
      </trkpt>
      <trkpt lat="44.36852" lon="1.19454">
        <ele>270</ele>
        <time>2021-02-09T10:33:20Z</time>
      </trkpt>
      <trkpt lat="44.36854" lon="1.19457">
        <ele>271</ele>
        <time>2021-02-09T10:33:22Z</time>
      </trkpt>
      <trkpt lat="44.36856" lon="1.19459">
        <ele>272</ele>
        <time>2021-02-09T10:33:24Z</time>
      </trkpt>
      <trkpt lat="44.36872" lon="1.19474">
        <ele>277</ele>
        <time>2021-02-09T10:33:40Z</time>
      </trkpt>
      <trkpt lat="44.36882" lon="1.19485">
        <ele>280</ele>
        <time>2021-02-09T10:33:51Z</time>
      </trkpt>
      <trkpt lat="44.36888" lon="1.19486">
        <ele>281</ele>
        <time>2021-02-09T10:33:56Z</time>
      </trkpt>
      <trkpt lat="44.36891" lon="1.19487">
        <ele>281</ele>
        <time>2021-02-09T10:33:59Z</time>
      </trkpt>
      <trkpt lat="44.36893" lon="1.19487">
        <ele>281</ele>
        <time>2021-02-09T10:34:01Z</time>
      </trkpt>
      <trkpt lat="44.36898" lon="1.19486">
        <ele>281</ele>
        <time>2021-02-09T10:34:05Z</time>
      </trkpt>
      <trkpt lat="44.369" lon="1.19487">
        <ele>282</ele>
        <time>2021-02-09T10:34:08Z</time>
      </trkpt>
      <trkpt lat="44.36908" lon="1.19493">
        <ele>283</ele>
        <time>2021-02-09T10:34:16Z</time>
      </trkpt>
      <trkpt lat="44.36936" lon="1.195">
        <ele>285</ele>
        <time>2021-02-09T10:34:40Z</time>
      </trkpt>
      <trkpt lat="44.36939" lon="1.19499">
        <ele>285</ele>
        <time>2021-02-09T10:34:43Z</time>
      </trkpt>
      <trkpt lat="44.36959" lon="1.19505">
        <ele>284</ele>
        <time>2021-02-09T10:35:02Z</time>
      </trkpt>
      <trkpt lat="44.36967" lon="1.19509">
        <ele>284</ele>
        <time>2021-02-09T10:35:09Z</time>
      </trkpt>
      <trkpt lat="44.37009" lon="1.19519">
        <ele>284</ele>
        <time>2021-02-09T10:35:41Z</time>
      </trkpt>
      <trkpt lat="44.37026" lon="1.19522">
        <ele>286</ele>
        <time>2021-02-09T10:35:52Z</time>
      </trkpt>
      <trkpt lat="44.37029" lon="1.19523">
        <ele>285</ele>
        <time>2021-02-09T10:35:54Z</time>
      </trkpt>
      <trkpt lat="44.37055" lon="1.19526">
        <ele>283</ele>
        <time>2021-02-09T10:36:11Z</time>
      </trkpt>
      <trkpt lat="44.37062" lon="1.1953">
        <ele>284</ele>
        <time>2021-02-09T10:36:17Z</time>
      </trkpt>
      <trkpt lat="44.37065" lon="1.19531">
        <ele>283</ele>
        <time>2021-02-09T10:36:19Z</time>
      </trkpt>
      <trkpt lat="44.37087" lon="1.19539">
        <ele>285</ele>
        <time>2021-02-09T10:36:37Z</time>
      </trkpt>
      <trkpt lat="44.37095" lon="1.1954">
        <ele>285</ele>
        <time>2021-02-09T10:36:43Z</time>
      </trkpt>
      <trkpt lat="44.37097" lon="1.19542">
        <ele>285</ele>
        <time>2021-02-09T10:36:45Z</time>
      </trkpt>
      <trkpt lat="44.37122" lon="1.1956">
        <ele>283</ele>
        <time>2021-02-09T10:37:07Z</time>
      </trkpt>
      <trkpt lat="44.37127" lon="1.19564">
        <ele>282</ele>
        <time>2021-02-09T10:37:11Z</time>
      </trkpt>
      <trkpt lat="44.37132" lon="1.19572">
        <ele>282</ele>
        <time>2021-02-09T10:37:16Z</time>
      </trkpt>
      <trkpt lat="44.37155" lon="1.19599">
        <ele>279</ele>
        <time>2021-02-09T10:37:39Z</time>
      </trkpt>
      <trkpt lat="44.37165" lon="1.19613">
        <ele>278</ele>
        <time>2021-02-09T10:37:52Z</time>
      </trkpt>
      <trkpt lat="44.37172" lon="1.1963">
        <ele>276</ele>
        <time>2021-02-09T10:38:01Z</time>
      </trkpt>
      <trkpt lat="44.37174" lon="1.19641">
        <ele>274</ele>
        <time>2021-02-09T10:38:07Z</time>
      </trkpt>
      <trkpt lat="44.37175" lon="1.19647">
        <ele>274</ele>
        <time>2021-02-09T10:38:10Z</time>
      </trkpt>
      <trkpt lat="44.3718" lon="1.1968">
        <ele>273</ele>
        <time>2021-02-09T10:38:28Z</time>
      </trkpt>
      <trkpt lat="44.37183" lon="1.19707">
        <ele>274</ele>
        <time>2021-02-09T10:38:41Z</time>
      </trkpt>
      <trkpt lat="44.37186" lon="1.19717">
        <ele>276</ele>
        <time>2021-02-09T10:38:47Z</time>
      </trkpt>
      <trkpt lat="44.37193" lon="1.19726">
        <ele>277</ele>
        <time>2021-02-09T10:38:56Z</time>
      </trkpt>
      <trkpt lat="44.37199" lon="1.19742">
        <ele>276</ele>
        <time>2021-02-09T10:39:06Z</time>
      </trkpt>
      <trkpt lat="44.37201" lon="1.19747">
        <ele>276</ele>
        <time>2021-02-09T10:39:09Z</time>
      </trkpt>
      <trkpt lat="44.37203" lon="1.19753">
        <ele>274</ele>
        <time>2021-02-09T10:39:12Z</time>
      </trkpt>
      <trkpt lat="44.37207" lon="1.19761">
        <ele>273</ele>
        <time>2021-02-09T10:39:17Z</time>
      </trkpt>
      <trkpt lat="44.37221" lon="1.19799">
        <ele>269</ele>
        <time>2021-02-09T10:39:41Z</time>
      </trkpt>
      <trkpt lat="44.37224" lon="1.19805">
        <ele>269</ele>
        <time>2021-02-09T10:39:46Z</time>
      </trkpt>
      <trkpt lat="44.37231" lon="1.19816">
        <ele>269</ele>
        <time>2021-02-09T10:39:54Z</time>
      </trkpt>
      <trkpt lat="44.37233" lon="1.19835">
        <ele>268</ele>
        <time>2021-02-09T10:40:05Z</time>
      </trkpt>
      <trkpt lat="44.37234" lon="1.19838">
        <ele>269</ele>
        <time>2021-02-09T10:40:07Z</time>
      </trkpt>
      <trkpt lat="44.3724" lon="1.19846">
        <ele>268</ele>
        <time>2021-02-09T10:40:13Z</time>
      </trkpt>
      <trkpt lat="44.37244" lon="1.19856">
        <ele>267</ele>
        <time>2021-02-09T10:40:20Z</time>
      </trkpt>
      <trkpt lat="44.37248" lon="1.19866">
        <ele>268</ele>
        <time>2021-02-09T10:40:27Z</time>
      </trkpt>
      <trkpt lat="44.37254" lon="1.19872">
        <ele>269</ele>
        <time>2021-02-09T10:40:33Z</time>
      </trkpt>
      <trkpt lat="44.37264" lon="1.19897">
        <ele>267</ele>
        <time>2021-02-09T10:40:49Z</time>
      </trkpt>
      <trkpt lat="44.37269" lon="1.19903">
        <ele>266</ele>
        <time>2021-02-09T10:40:54Z</time>
      </trkpt>
      <trkpt lat="44.37277" lon="1.19915">
        <ele>265</ele>
        <time>2021-02-09T10:41:02Z</time>
      </trkpt>
      <trkpt lat="44.37292" lon="1.1993">
        <ele>264</ele>
        <time>2021-02-09T10:41:17Z</time>
      </trkpt>
      <trkpt lat="44.37299" lon="1.19939">
        <ele>263</ele>
        <time>2021-02-09T10:41:24Z</time>
      </trkpt>
      <trkpt lat="44.373" lon="1.19945">
        <ele>263</ele>
        <time>2021-02-09T10:41:27Z</time>
      </trkpt>
      <trkpt lat="44.37327" lon="1.19967">
        <ele>263</ele>
        <time>2021-02-09T10:41:39Z</time>
      </trkpt>
      <trkpt lat="44.37341" lon="1.19974">
        <ele>264</ele>
        <time>2021-02-09T10:41:44Z</time>
      </trkpt>
      <trkpt lat="44.37352" lon="1.19987">
        <ele>263</ele>
        <time>2021-02-09T10:41:49Z</time>
      </trkpt>
      <trkpt lat="44.37356" lon="1.19993">
        <ele>263</ele>
        <time>2021-02-09T10:41:51Z</time>
      </trkpt>
      <trkpt lat="44.37403" lon="1.20097">
        <ele>259</ele>
        <time>2021-02-09T10:42:22Z</time>
      </trkpt>
      <trkpt lat="44.37448" lon="1.20194">
        <ele>259</ele>
        <time>2021-02-09T10:42:52Z</time>
      </trkpt>
      <trkpt lat="44.37455" lon="1.20207">
        <ele>258</ele>
        <time>2021-02-09T10:43:09Z</time>
      </trkpt>
      <trkpt lat="44.37456" lon="1.20211">
        <ele>258</ele>
        <time>2021-02-09T10:43:12Z</time>
      </trkpt>
      <trkpt lat="44.37458" lon="1.20213">
        <ele>258</ele>
        <time>2021-02-09T10:43:16Z</time>
      </trkpt>
      <trkpt lat="44.3746" lon="1.20217">
        <ele>258</ele>
        <time>2021-02-09T10:43:19Z</time>
      </trkpt>
      <trkpt lat="44.37463" lon="1.20219">
        <ele>258</ele>
        <time>2021-02-09T10:43:22Z</time>
      </trkpt>
      <trkpt lat="44.37479" lon="1.2025">
        <ele>259</ele>
        <time>2021-02-09T10:43:43Z</time>
      </trkpt>
      <trkpt lat="44.3749" lon="1.20263">
        <ele>258</ele>
        <time>2021-02-09T10:43:55Z</time>
      </trkpt>
      <trkpt lat="44.37504" lon="1.20283">
        <ele>258</ele>
        <time>2021-02-09T10:44:09Z</time>
      </trkpt>
      <trkpt lat="44.37506" lon="1.20286">
        <ele>258</ele>
        <time>2021-02-09T10:44:11Z</time>
      </trkpt>
      <trkpt lat="44.37532" lon="1.20318">
        <ele>258</ele>
        <time>2021-02-09T10:44:33Z</time>
      </trkpt>
      <trkpt lat="44.37541" lon="1.20326">
        <ele>257</ele>
        <time>2021-02-09T10:44:41Z</time>
      </trkpt>
      <trkpt lat="44.37545" lon="1.20332">
        <ele>257</ele>
        <time>2021-02-09T10:44:45Z</time>
      </trkpt>
      <trkpt lat="44.37583" lon="1.20356">
        <ele>257</ele>
        <time>2021-02-09T10:45:16Z</time>
      </trkpt>
      <trkpt lat="44.37588" lon="1.20359">
        <ele>258</ele>
        <time>2021-02-09T10:45:20Z</time>
      </trkpt>
      <trkpt lat="44.37598" lon="1.20363">
        <ele>258</ele>
        <time>2021-02-09T10:45:27Z</time>
      </trkpt>
      <trkpt lat="44.37613" lon="1.20368">
        <ele>258</ele>
        <time>2021-02-09T10:45:38Z</time>
      </trkpt>
      <trkpt lat="44.3763" lon="1.20384">
        <ele>257</ele>
        <time>2021-02-09T10:45:54Z</time>
      </trkpt>
      <trkpt lat="44.3766" lon="1.20429">
        <ele>259</ele>
        <time>2021-02-09T10:46:25Z</time>
      </trkpt>
      <trkpt lat="44.37662" lon="1.20432">
        <ele>259</ele>
        <time>2021-02-09T10:46:27Z</time>
      </trkpt>
      <trkpt lat="44.37677" lon="1.20459">
        <ele>258</ele>
        <time>2021-02-09T10:46:45Z</time>
      </trkpt>
      <trkpt lat="44.37691" lon="1.20479">
        <ele>257</ele>
        <time>2021-02-09T10:47:00Z</time>
      </trkpt>
      <trkpt lat="44.37701" lon="1.20494">
        <ele>257</ele>
        <time>2021-02-09T10:47:10Z</time>
      </trkpt>
      <trkpt lat="44.37703" lon="1.20495">
        <ele>257</ele>
        <time>2021-02-09T10:47:13Z</time>
      </trkpt>
      <trkpt lat="44.37706" lon="1.20494">
        <ele>256</ele>
        <time>2021-02-09T10:47:15Z</time>
      </trkpt>
      <trkpt lat="44.37711" lon="1.20494">
        <ele>255</ele>
        <time>2021-02-09T10:47:19Z</time>
      </trkpt>
      <trkpt lat="44.37714" lon="1.20491">
        <ele>255</ele>
        <time>2021-02-09T10:47:22Z</time>
      </trkpt>
      <trkpt lat="44.37724" lon="1.2047">
        <ele>252</ele>
        <time>2021-02-09T10:47:31Z</time>
      </trkpt>
      <trkpt lat="44.37746" lon="1.2043">
        <ele>249</ele>
        <time>2021-02-09T10:47:43Z</time>
      </trkpt>
      <trkpt lat="44.37772" lon="1.20383">
        <ele>245</ele>
        <time>2021-02-09T10:47:59Z</time>
      </trkpt>
      <trkpt lat="44.37815" lon="1.20329">
        <ele>239</ele>
        <time>2021-02-09T10:48:17Z</time>
      </trkpt>
      <trkpt lat="44.37826" lon="1.20308">
        <ele>239</ele>
        <time>2021-02-09T10:48:23Z</time>
      </trkpt>
      <trkpt lat="44.37832" lon="1.20299">
        <ele>238</ele>
        <time>2021-02-09T10:48:26Z</time>
      </trkpt>
      <trkpt lat="44.37847" lon="1.20267">
        <ele>237</ele>
        <time>2021-02-09T10:48:35Z</time>
      </trkpt>
      <trkpt lat="44.37916" lon="1.20163">
        <ele>235</ele>
        <time>2021-02-09T10:48:57Z</time>
      </trkpt>
      <trkpt lat="44.37965" lon="1.20101">
        <ele>236</ele>
        <time>2021-02-09T10:49:21Z</time>
      </trkpt>
      <trkpt lat="44.37972" lon="1.20089">
        <ele>237</ele>
        <time>2021-02-09T10:49:29Z</time>
      </trkpt>
      <trkpt lat="44.3798" lon="1.20027">
        <ele>237</ele>
        <time>2021-02-09T10:49:45Z</time>
      </trkpt>
      <trkpt lat="44.37982" lon="1.20019">
        <ele>237</ele>
        <time>2021-02-09T10:49:47Z</time>
      </trkpt>
      <trkpt lat="44.37985" lon="1.20014">
        <ele>238</ele>
        <time>2021-02-09T10:49:49Z</time>
      </trkpt>
      <trkpt lat="44.38002" lon="1.19995">
        <ele>239</ele>
        <time>2021-02-09T10:49:57Z</time>
      </trkpt>
      <trkpt lat="44.38011" lon="1.19982">
        <ele>240</ele>
        <time>2021-02-09T10:50:01Z</time>
      </trkpt>
      <trkpt lat="44.38015" lon="1.19978">
        <ele>240</ele>
        <time>2021-02-09T10:50:03Z</time>
      </trkpt>
      <trkpt lat="44.38019" lon="1.19975">
        <ele>242</ele>
        <time>2021-02-09T10:50:05Z</time>
      </trkpt>
      <trkpt lat="44.38023" lon="1.19967">
        <ele>247</ele>
        <time>2021-02-09T10:50:16Z</time>
      </trkpt>
      <trkpt lat="44.38025" lon="1.1996">
        <ele>249</ele>
        <time>2021-02-09T10:50:20Z</time>
      </trkpt>
      <trkpt lat="44.38027" lon="1.19947">
        <ele>252</ele>
        <time>2021-02-09T10:50:29Z</time>
      </trkpt>
      <trkpt lat="44.38027" lon="1.19944">
        <ele>252</ele>
        <time>2021-02-09T10:50:31Z</time>
      </trkpt>
      <trkpt lat="44.38028" lon="1.19941">
        <ele>252</ele>
        <time>2021-02-09T10:50:33Z</time>
      </trkpt>
      <trkpt lat="44.3803" lon="1.19917">
        <ele>252</ele>
        <time>2021-02-09T10:50:45Z</time>
      </trkpt>
      <trkpt lat="44.38044" lon="1.19865">
        <ele>255</ele>
        <time>2021-02-09T10:51:15Z</time>
      </trkpt>
      <trkpt lat="44.38056" lon="1.19815">
        <ele>256</ele>
        <time>2021-02-09T10:51:45Z</time>
      </trkpt>
      <trkpt lat="44.38057" lon="1.19812">
        <ele>256</ele>
        <time>2021-02-09T10:51:48Z</time>
      </trkpt>
      <trkpt lat="44.38061" lon="1.19794">
        <ele>257</ele>
        <time>2021-02-09T10:52:00Z</time>
      </trkpt>
      <trkpt lat="44.38065" lon="1.19781">
        <ele>257</ele>
        <time>2021-02-09T10:52:08Z</time>
      </trkpt>
      <trkpt lat="44.38067" lon="1.19779">
        <ele>258</ele>
        <time>2021-02-09T10:52:10Z</time>
      </trkpt>
      <trkpt lat="44.38068" lon="1.19776">
        <ele>258</ele>
        <time>2021-02-09T10:52:12Z</time>
      </trkpt>
      <trkpt lat="44.38069" lon="1.19772">
        <ele>259</ele>
        <time>2021-02-09T10:52:14Z</time>
      </trkpt>
      <trkpt lat="44.3807" lon="1.19768">
        <ele>259</ele>
        <time>2021-02-09T10:52:16Z</time>
      </trkpt>
      <trkpt lat="44.38072" lon="1.19766">
        <ele>259</ele>
        <time>2021-02-09T10:52:18Z</time>
      </trkpt>
      <trkpt lat="44.38074" lon="1.19758">
        <ele>260</ele>
        <time>2021-02-09T10:52:22Z</time>
      </trkpt>
      <trkpt lat="44.38074" lon="1.19752">
        <ele>260</ele>
        <time>2021-02-09T10:52:25Z</time>
      </trkpt>
      <trkpt lat="44.38074" lon="1.19748">
        <ele>260</ele>
        <time>2021-02-09T10:52:29Z</time>
      </trkpt>
      <trkpt lat="44.38072" lon="1.19745">
        <ele>260</ele>
        <time>2021-02-09T10:52:32Z</time>
      </trkpt>
      <trkpt lat="44.38074" lon="1.19741">
        <ele>260</ele>
        <time>2021-02-09T10:52:43Z</time>
      </trkpt>
      <trkpt lat="44.38072" lon="1.19739">
        <ele>260</ele>
        <time>2021-02-09T10:52:46Z</time>
      </trkpt>
      <trkpt lat="44.38069" lon="1.19739">
        <ele>260</ele>
        <time>2021-02-09T10:52:48Z</time>
      </trkpt>
      <trkpt lat="44.38067" lon="1.19737">
        <ele>260</ele>
        <time>2021-02-09T10:52:50Z</time>
      </trkpt>
      <trkpt lat="44.38063" lon="1.19731">
        <ele>259</ele>
        <time>2021-02-09T10:52:54Z</time>
      </trkpt>
      <trkpt lat="44.38056" lon="1.19707">
        <ele>258</ele>
        <time>2021-02-09T10:53:09Z</time>
      </trkpt>
      <trkpt lat="44.38055" lon="1.19678">
        <ele>260</ele>
        <time>2021-02-09T10:53:23Z</time>
      </trkpt>
      <trkpt lat="44.38055" lon="1.19674">
        <ele>260</ele>
        <time>2021-02-09T10:53:25Z</time>
      </trkpt>
      <trkpt lat="44.38054" lon="1.1967">
        <ele>260</ele>
        <time>2021-02-09T10:53:27Z</time>
      </trkpt>
      <trkpt lat="44.38055" lon="1.19667">
        <ele>260</ele>
        <time>2021-02-09T10:53:34Z</time>
      </trkpt>
      <trkpt lat="44.38054" lon="1.19664">
        <ele>259</ele>
        <time>2021-02-09T10:53:36Z</time>
      </trkpt>
      <trkpt lat="44.38053" lon="1.19661">
        <ele>259</ele>
        <time>2021-02-09T10:53:39Z</time>
      </trkpt>
      <trkpt lat="44.38052" lon="1.19647">
        <ele>260</ele>
        <time>2021-02-09T10:53:49Z</time>
      </trkpt>
      <trkpt lat="44.38052" lon="1.19643">
        <ele>260</ele>
        <time>2021-02-09T10:53:51Z</time>
      </trkpt>
      <trkpt lat="44.38056" lon="1.19639">
        <ele>260</ele>
        <time>2021-02-09T10:53:55Z</time>
      </trkpt>
      <trkpt lat="44.38062" lon="1.19637">
        <ele>259</ele>
        <time>2021-02-09T10:54:00Z</time>
      </trkpt>
      <trkpt lat="44.38075" lon="1.19629">
        <ele>261</ele>
        <time>2021-02-09T10:54:12Z</time>
      </trkpt>
      <trkpt lat="44.38079" lon="1.19628">
        <ele>261</ele>
        <time>2021-02-09T10:54:15Z</time>
      </trkpt>
      <trkpt lat="44.38083" lon="1.19629">
        <ele>260</ele>
        <time>2021-02-09T10:54:18Z</time>
      </trkpt>
      <trkpt lat="44.38086" lon="1.1963">
        <ele>260</ele>
        <time>2021-02-09T10:54:20Z</time>
      </trkpt>
      <trkpt lat="44.38098" lon="1.19626">
        <ele>259</ele>
        <time>2021-02-09T10:54:32Z</time>
      </trkpt>
      <trkpt lat="44.38119" lon="1.1963">
        <ele>259</ele>
        <time>2021-02-09T10:54:50Z</time>
      </trkpt>
      <trkpt lat="44.38132" lon="1.19636">
        <ele>258</ele>
        <time>2021-02-09T10:55:03Z</time>
      </trkpt>
      <trkpt lat="44.38135" lon="1.19636">
        <ele>256</ele>
        <time>2021-02-09T10:55:11Z</time>
      </trkpt>
      <trkpt lat="44.38147" lon="1.1964">
        <ele>256</ele>
        <time>2021-02-09T10:55:21Z</time>
      </trkpt>
      <trkpt lat="44.38159" lon="1.19646">
        <ele>257</ele>
        <time>2021-02-09T10:55:31Z</time>
      </trkpt>
      <trkpt lat="44.38163" lon="1.19653">
        <ele>256</ele>
        <time>2021-02-09T10:55:36Z</time>
      </trkpt>
      <trkpt lat="44.38178" lon="1.19689">
        <ele>252</ele>
        <time>2021-02-09T10:55:59Z</time>
      </trkpt>
      <trkpt lat="44.38186" lon="1.1972">
        <ele>250</ele>
        <time>2021-02-09T10:56:17Z</time>
      </trkpt>
      <trkpt lat="44.38186" lon="1.19731">
        <ele>250</ele>
        <time>2021-02-09T10:56:23Z</time>
      </trkpt>
      <trkpt lat="44.38187" lon="1.19736">
        <ele>250</ele>
        <time>2021-02-09T10:56:26Z</time>
      </trkpt>
      <trkpt lat="44.38188" lon="1.19747">
        <ele>252</ele>
        <time>2021-02-09T10:56:39Z</time>
      </trkpt>
      <trkpt lat="44.38189" lon="1.19753">
        <ele>252</ele>
        <time>2021-02-09T10:56:43Z</time>
      </trkpt>
      <trkpt lat="44.3819" lon="1.19769">
        <ele>250</ele>
        <time>2021-02-09T10:56:53Z</time>
      </trkpt>
      <trkpt lat="44.38194" lon="1.1978">
        <ele>250</ele>
        <time>2021-02-09T10:57:01Z</time>
      </trkpt>
      <trkpt lat="44.382" lon="1.19785">
        <ele>248</ele>
        <time>2021-02-09T10:57:07Z</time>
      </trkpt>
      <trkpt lat="44.38203" lon="1.19786">
        <ele>248</ele>
        <time>2021-02-09T10:57:09Z</time>
      </trkpt>
      <trkpt lat="44.38209" lon="1.19786">
        <ele>248</ele>
        <time>2021-02-09T10:57:13Z</time>
      </trkpt>
      <trkpt lat="44.38215" lon="1.19783">
        <ele>247</ele>
        <time>2021-02-09T10:57:17Z</time>
      </trkpt>
      <trkpt lat="44.38222" lon="1.19776">
        <ele>246</ele>
        <time>2021-02-09T10:57:23Z</time>
      </trkpt>
      <trkpt lat="44.38243" lon="1.1975">
        <ele>247</ele>
        <time>2021-02-09T10:57:42Z</time>
      </trkpt>
      <trkpt lat="44.38255" lon="1.19723">
        <ele>244</ele>
        <time>2021-02-09T10:57:59Z</time>
      </trkpt>
      <trkpt lat="44.38257" lon="1.19717">
        <ele>244</ele>
        <time>2021-02-09T10:58:02Z</time>
      </trkpt>
      <trkpt lat="44.38262" lon="1.19711">
        <ele>243</ele>
        <time>2021-02-09T10:58:07Z</time>
      </trkpt>
      <trkpt lat="44.38272" lon="1.19707">
        <ele>242</ele>
        <time>2021-02-09T10:58:14Z</time>
      </trkpt>
      <trkpt lat="44.38293" lon="1.1972">
        <ele>239</ele>
        <time>2021-02-09T10:58:33Z</time>
      </trkpt>
      <trkpt lat="44.38297" lon="1.19721">
        <ele>238</ele>
        <time>2021-02-09T10:58:36Z</time>
      </trkpt>
      <trkpt lat="44.38319" lon="1.19719">
        <ele>238</ele>
        <time>2021-02-09T10:58:53Z</time>
      </trkpt>
      <trkpt lat="44.38321" lon="1.19717">
        <ele>238</ele>
        <time>2021-02-09T10:58:55Z</time>
      </trkpt>
      <trkpt lat="44.38339" lon="1.19711">
        <ele>237</ele>
        <time>2021-02-09T10:59:09Z</time>
      </trkpt>
      <trkpt lat="44.38344" lon="1.1971">
        <ele>237</ele>
        <time>2021-02-09T10:59:13Z</time>
      </trkpt>
      <trkpt lat="44.38351" lon="1.19708">
        <ele>237</ele>
        <time>2021-02-09T10:59:18Z</time>
      </trkpt>
      <trkpt lat="44.38353" lon="1.19707">
        <ele>237</ele>
        <time>2021-02-09T10:59:21Z</time>
      </trkpt>
      <trkpt lat="44.38355" lon="1.19705">
        <ele>237</ele>
        <time>2021-02-09T11:00:03Z</time>
      </trkpt>
      <trkpt lat="44.38357" lon="1.19705">
        <ele>236</ele>
        <time>2021-02-09T11:00:06Z</time>
      </trkpt>
      <trkpt lat="44.38372" lon="1.19703">
        <ele>235</ele>
        <time>2021-02-09T11:00:17Z</time>
      </trkpt>
      <trkpt lat="44.38381" lon="1.19704">
        <ele>234</ele>
        <time>2021-02-09T11:00:23Z</time>
      </trkpt>
      <trkpt lat="44.38389" lon="1.19704">
        <ele>233</ele>
        <time>2021-02-09T11:00:27Z</time>
      </trkpt>
      <trkpt lat="44.38436" lon="1.19703">
        <ele>227</ele>
        <time>2021-02-09T11:00:43Z</time>
      </trkpt>
      <trkpt lat="44.3847" lon="1.19702">
        <ele>226</ele>
        <time>2021-02-09T11:00:52Z</time>
      </trkpt>
      <trkpt lat="44.38516" lon="1.19686">
        <ele>223</ele>
        <time>2021-02-09T11:01:06Z</time>
      </trkpt>
      <trkpt lat="44.38536" lon="1.19675">
        <ele>220</ele>
        <time>2021-02-09T11:01:13Z</time>
      </trkpt>
      <trkpt lat="44.38543" lon="1.19669">
        <ele>220</ele>
        <time>2021-02-09T11:01:16Z</time>
      </trkpt>
      <trkpt lat="44.38546" lon="1.19666">
        <ele>220</ele>
        <time>2021-02-09T11:01:18Z</time>
      </trkpt>
      <trkpt lat="44.38555" lon="1.19667">
        <ele>220</ele>
        <time>2021-02-09T11:01:25Z</time>
      </trkpt>
      <trkpt lat="44.38558" lon="1.19668">
        <ele>220</ele>
        <time>2021-02-09T11:01:27Z</time>
      </trkpt>
      <trkpt lat="44.38588" lon="1.19668">
        <ele>217</ele>
        <time>2021-02-09T11:01:41Z</time>
      </trkpt>
      <trkpt lat="44.38614" lon="1.19653">
        <ele>219</ele>
        <time>2021-02-09T11:01:49Z</time>
      </trkpt>
      <trkpt lat="44.38633" lon="1.19636">
        <ele>218</ele>
        <time>2021-02-09T11:02:00Z</time>
      </trkpt>
      <trkpt lat="44.38636" lon="1.19634">
        <ele>218</ele>
        <time>2021-02-09T11:02:03Z</time>
      </trkpt>
      <trkpt lat="44.38639" lon="1.19631">
        <ele>218</ele>
        <time>2021-02-09T11:02:07Z</time>
      </trkpt>
      <trkpt lat="44.3865" lon="1.19608">
        <ele>217</ele>
        <time>2021-02-09T11:02:18Z</time>
      </trkpt>
      <trkpt lat="44.38672" lon="1.19572">
        <ele>215</ele>
        <time>2021-02-09T11:02:30Z</time>
      </trkpt>
      <trkpt lat="44.38682" lon="1.1956">
        <ele>214</ele>
        <time>2021-02-09T11:02:36Z</time>
      </trkpt>
      <trkpt lat="44.38689" lon="1.19551">
        <ele>213</ele>
        <time>2021-02-09T11:02:41Z</time>
      </trkpt>
      <trkpt lat="44.38695" lon="1.19544">
        <ele>212</ele>
        <time>2021-02-09T11:02:45Z</time>
      </trkpt>
      <trkpt lat="44.38704" lon="1.19532">
        <ele>210</ele>
        <time>2021-02-09T11:02:50Z</time>
      </trkpt>
      <trkpt lat="44.38718" lon="1.19513">
        <ele>206</ele>
        <time>2021-02-09T11:02:56Z</time>
      </trkpt>
      <trkpt lat="44.38732" lon="1.1949">
        <ele>204</ele>
        <time>2021-02-09T11:03:02Z</time>
      </trkpt>
      <trkpt lat="44.38795" lon="1.19424">
        <ele>198</ele>
        <time>2021-02-09T11:03:23Z</time>
      </trkpt>
      <trkpt lat="44.38836" lon="1.19405">
        <ele>195</ele>
        <time>2021-02-09T11:03:32Z</time>
      </trkpt>
      <trkpt lat="44.3889" lon="1.19376">
        <ele>194</ele>
        <time>2021-02-09T11:03:43Z</time>
      </trkpt>
      <trkpt lat="44.38903" lon="1.19368">
        <ele>196</ele>
        <time>2021-02-09T11:03:46Z</time>
      </trkpt>
      <trkpt lat="44.38936" lon="1.19333">
        <ele>201</ele>
        <time>2021-02-09T11:03:55Z</time>
      </trkpt>
      <trkpt lat="44.38941" lon="1.1933">
        <ele>201</ele>
        <time>2021-02-09T11:03:56Z</time>
      </trkpt>
      <trkpt lat="44.39097" lon="1.19255">
        <ele>217</ele>
        <time>2021-02-09T11:04:21Z</time>
      </trkpt>
      <trkpt lat="44.39128" lon="1.19251">
        <ele>221</ele>
        <time>2021-02-09T11:04:27Z</time>
      </trkpt>
      <trkpt lat="44.39165" lon="1.19246">
        <ele>229</ele>
        <time>2021-02-09T11:04:48Z</time>
      </trkpt>
      <trkpt lat="44.39172" lon="1.19245">
        <ele>229</ele>
        <time>2021-02-09T11:04:53Z</time>
      </trkpt>
      <trkpt lat="44.39176" lon="1.19245">
        <ele>229</ele>
        <time>2021-02-09T11:04:56Z</time>
      </trkpt>
      <trkpt lat="44.39206" lon="1.19238">
        <ele>231</ele>
        <time>2021-02-09T11:05:16Z</time>
      </trkpt>
      <trkpt lat="44.39208" lon="1.19239">
        <ele>232</ele>
        <time>2021-02-09T11:05:18Z</time>
      </trkpt>
      <trkpt lat="44.39211" lon="1.1924">
        <ele>232</ele>
        <time>2021-02-09T11:05:20Z</time>
      </trkpt>
      <trkpt lat="44.39231" lon="1.19235">
        <ele>235</ele>
        <time>2021-02-09T11:05:34Z</time>
      </trkpt>
      <trkpt lat="44.39237" lon="1.1923">
        <ele>233</ele>
        <time>2021-02-09T11:05:40Z</time>
      </trkpt>
      <trkpt lat="44.3924" lon="1.19227">
        <ele>233</ele>
        <time>2021-02-09T11:05:44Z</time>
      </trkpt>
      <trkpt lat="44.39245" lon="1.19217">
        <ele>234</ele>
        <time>2021-02-09T11:05:50Z</time>
      </trkpt>
      <trkpt lat="44.39264" lon="1.1919">
        <ele>243</ele>
        <time>2021-02-09T11:06:10Z</time>
      </trkpt>
      <trkpt lat="44.39266" lon="1.19186">
        <ele>244</ele>
        <time>2021-02-09T11:06:13Z</time>
      </trkpt>
      <trkpt lat="44.39273" lon="1.19177">
        <ele>246</ele>
        <time>2021-02-09T11:06:22Z</time>
      </trkpt>
      <trkpt lat="44.39278" lon="1.19168">
        <ele>246</ele>
        <time>2021-02-09T11:06:28Z</time>
      </trkpt>
      <trkpt lat="44.3928" lon="1.19164">
        <ele>245</ele>
        <time>2021-02-09T11:06:31Z</time>
      </trkpt>
      <trkpt lat="44.39288" lon="1.19156">
        <ele>245</ele>
        <time>2021-02-09T11:06:40Z</time>
      </trkpt>
      <trkpt lat="44.39291" lon="1.19157">
        <ele>247</ele>
        <time>2021-02-09T11:06:44Z</time>
      </trkpt>
      <trkpt lat="44.39296" lon="1.19162">
        <ele>248</ele>
        <time>2021-02-09T11:06:49Z</time>
      </trkpt>
      <trkpt lat="44.39296" lon="1.19165">
        <ele>248</ele>
        <time>2021-02-09T11:06:51Z</time>
      </trkpt>
      <trkpt lat="44.39299" lon="1.19166">
        <ele>248</ele>
        <time>2021-02-09T11:06:54Z</time>
      </trkpt>
      <trkpt lat="44.39301" lon="1.19164">
        <ele>249</ele>
        <time>2021-02-09T11:06:56Z</time>
      </trkpt>
      <trkpt lat="44.39303" lon="1.19161">
        <ele>250</ele>
        <time>2021-02-09T11:06:59Z</time>
      </trkpt>
      <trkpt lat="44.39315" lon="1.19119">
        <ele>255</ele>
        <time>2021-02-09T11:07:23Z</time>
      </trkpt>
      <trkpt lat="44.39324" lon="1.19103">
        <ele>257</ele>
        <time>2021-02-09T11:07:34Z</time>
      </trkpt>
      <trkpt lat="44.39331" lon="1.19092">
        <ele>257</ele>
        <time>2021-02-09T11:07:42Z</time>
      </trkpt>
      <trkpt lat="44.39341" lon="1.19069">
        <ele>259</ele>
        <time>2021-02-09T11:07:56Z</time>
      </trkpt>
      <trkpt lat="44.3935" lon="1.19059">
        <ele>259</ele>
        <time>2021-02-09T11:08:05Z</time>
      </trkpt>
      <trkpt lat="44.39366" lon="1.19046">
        <ele>259</ele>
        <time>2021-02-09T11:08:18Z</time>
      </trkpt>
      <trkpt lat="44.39385" lon="1.19028">
        <ele>260</ele>
        <time>2021-02-09T11:08:36Z</time>
      </trkpt>
      <trkpt lat="44.39403" lon="1.19016">
        <ele>260</ele>
        <time>2021-02-09T11:08:52Z</time>
      </trkpt>
      <trkpt lat="44.39406" lon="1.19014">
        <ele>261</ele>
        <time>2021-02-09T11:08:54Z</time>
      </trkpt>
      <trkpt lat="44.39408" lon="1.19011">
        <ele>261</ele>
        <time>2021-02-09T11:08:56Z</time>
      </trkpt>
      <trkpt lat="44.39414" lon="1.19006">
        <ele>260</ele>
        <time>2021-02-09T11:09:02Z</time>
      </trkpt>
      <trkpt lat="44.39416" lon="1.19005">
        <ele>260</ele>
        <time>2021-02-09T11:09:06Z</time>
      </trkpt>
      <trkpt lat="44.39431" lon="1.18985">
        <ele>261</ele>
        <time>2021-02-09T11:09:23Z</time>
      </trkpt>
      <trkpt lat="44.39434" lon="1.1898">
        <ele>262</ele>
        <time>2021-02-09T11:09:27Z</time>
      </trkpt>
      <trkpt lat="44.3944" lon="1.18971">
        <ele>262</ele>
        <time>2021-02-09T11:09:33Z</time>
      </trkpt>
      <trkpt lat="44.39444" lon="1.18964">
        <ele>262</ele>
        <time>2021-02-09T11:09:36Z</time>
      </trkpt>
      <trkpt lat="44.39466" lon="1.18928">
        <ele>261</ele>
        <time>2021-02-09T11:09:47Z</time>
      </trkpt>
      <trkpt lat="44.39522" lon="1.1883">
        <ele>261</ele>
        <time>2021-02-09T11:10:17Z</time>
      </trkpt>
      <trkpt lat="44.39586" lon="1.18738">
        <ele>265</ele>
        <time>2021-02-09T11:10:47Z</time>
      </trkpt>
      <trkpt lat="44.39645" lon="1.18646">
        <ele>265</ele>
        <time>2021-02-09T11:11:18Z</time>
      </trkpt>
      <trkpt lat="44.397" lon="1.18571">
        <ele>265</ele>
        <time>2021-02-09T11:11:44Z</time>
      </trkpt>
      <trkpt lat="44.39748" lon="1.18479">
        <ele>271</ele>
        <time>2021-02-09T11:12:14Z</time>
      </trkpt>
      <trkpt lat="44.39754" lon="1.18459">
        <ele>274</ele>
        <time>2021-02-09T11:12:24Z</time>
      </trkpt>
      <trkpt lat="44.39754" lon="1.18456">
        <ele>275</ele>
        <time>2021-02-09T11:12:26Z</time>
      </trkpt>
      <trkpt lat="44.3976" lon="1.18432">
        <ele>277</ele>
        <time>2021-02-09T11:12:38Z</time>
      </trkpt>
      <trkpt lat="44.39765" lon="1.18422">
        <ele>278</ele>
        <time>2021-02-09T11:12:44Z</time>
      </trkpt>
      <trkpt lat="44.3977" lon="1.18417">
        <ele>279</ele>
        <time>2021-02-09T11:12:48Z</time>
      </trkpt>
      <trkpt lat="44.39776" lon="1.18407">
        <ele>280</ele>
        <time>2021-02-09T11:12:54Z</time>
      </trkpt>
      <trkpt lat="44.39804" lon="1.1837">
        <ele>281</ele>
        <time>2021-02-09T11:13:20Z</time>
      </trkpt>
      <trkpt lat="44.39827" lon="1.18319">
        <ele>284</ele>
        <time>2021-02-09T11:13:48Z</time>
      </trkpt>
      <trkpt lat="44.39845" lon="1.18265">
        <ele>283</ele>
        <time>2021-02-09T11:14:18Z</time>
      </trkpt>
      <trkpt lat="44.39848" lon="1.18258">
        <ele>284</ele>
        <time>2021-02-09T11:14:22Z</time>
      </trkpt>
      <trkpt lat="44.39857" lon="1.18233">
        <ele>282</ele>
        <time>2021-02-09T11:14:37Z</time>
      </trkpt>
      <trkpt lat="44.39858" lon="1.1823">
        <ele>283</ele>
        <time>2021-02-09T11:14:40Z</time>
      </trkpt>
      <trkpt lat="44.39859" lon="1.18225">
        <ele>283</ele>
        <time>2021-02-09T11:14:43Z</time>
      </trkpt>
      <trkpt lat="44.3986" lon="1.18218">
        <ele>284</ele>
        <time>2021-02-09T11:14:48Z</time>
      </trkpt>
      <trkpt lat="44.39858" lon="1.18219">
        <ele>284</ele>
        <time>2021-02-09T11:14:52Z</time>
      </trkpt>
      <trkpt lat="44.39856" lon="1.18222">
        <ele>284</ele>
        <time>2021-02-09T11:14:55Z</time>
      </trkpt>
      <trkpt lat="44.39855" lon="1.18225">
        <ele>287</ele>
        <time>2021-02-09T11:15:30Z</time>
      </trkpt>
      <trkpt lat="44.39857" lon="1.18225">
        <ele>287</ele>
        <time>2021-02-09T11:15:33Z</time>
      </trkpt>
      <trkpt lat="44.39858" lon="1.18222">
        <ele>287</ele>
        <time>2021-02-09T11:15:35Z</time>
      </trkpt>
      <trkpt lat="44.39859" lon="1.1821">
        <ele>283</ele>
        <time>2021-02-09T11:15:42Z</time>
      </trkpt>
      <trkpt lat="44.39859" lon="1.18205">
        <ele>283</ele>
        <time>2021-02-09T11:15:45Z</time>
      </trkpt>
      <trkpt lat="44.39858" lon="1.18198">
        <ele>283</ele>
        <time>2021-02-09T11:15:50Z</time>
      </trkpt>
      <trkpt lat="44.39859" lon="1.18192">
        <ele>283</ele>
        <time>2021-02-09T11:15:54Z</time>
      </trkpt>
      <trkpt lat="44.39856" lon="1.18183">
        <ele>283</ele>
        <time>2021-02-09T11:15:59Z</time>
      </trkpt>
      <trkpt lat="44.39857" lon="1.18167">
        <ele>281</ele>
        <time>2021-02-09T11:16:08Z</time>
      </trkpt>
      <trkpt lat="44.39859" lon="1.18163">
        <ele>281</ele>
        <time>2021-02-09T11:16:10Z</time>
      </trkpt>
      <trkpt lat="44.39864" lon="1.18137">
        <ele>285</ele>
        <time>2021-02-09T11:16:24Z</time>
      </trkpt>
      <trkpt lat="44.39866" lon="1.18134">
        <ele>285</ele>
        <time>2021-02-09T11:16:26Z</time>
      </trkpt>
      <trkpt lat="44.39868" lon="1.18131">
        <ele>285</ele>
        <time>2021-02-09T11:16:28Z</time>
      </trkpt>
      <trkpt lat="44.39869" lon="1.18129">
        <ele>285</ele>
        <time>2021-02-09T11:16:30Z</time>
      </trkpt>
      <trkpt lat="44.39871" lon="1.18123">
        <ele>285</ele>
        <time>2021-02-09T11:16:34Z</time>
      </trkpt>
      <trkpt lat="44.39872" lon="1.18119">
        <ele>285</ele>
        <time>2021-02-09T11:16:36Z</time>
      </trkpt>
      <trkpt lat="44.39876" lon="1.18114">
        <ele>284</ele>
        <time>2021-02-09T11:16:41Z</time>
      </trkpt>
      <trkpt lat="44.39882" lon="1.18104">
        <ele>283</ele>
        <time>2021-02-09T11:16:49Z</time>
      </trkpt>
      <trkpt lat="44.3989" lon="1.18096">
        <ele>282</ele>
        <time>2021-02-09T11:16:57Z</time>
      </trkpt>
      <trkpt lat="44.39899" lon="1.18089">
        <ele>280</ele>
        <time>2021-02-09T11:17:05Z</time>
      </trkpt>
      <trkpt lat="44.39902" lon="1.18085">
        <ele>279</ele>
        <time>2021-02-09T11:17:09Z</time>
      </trkpt>
      <trkpt lat="44.39908" lon="1.18084">
        <ele>278</ele>
        <time>2021-02-09T11:17:14Z</time>
      </trkpt>
      <trkpt lat="44.39912" lon="1.1808">
        <ele>277</ele>
        <time>2021-02-09T11:17:18Z</time>
      </trkpt>
      <trkpt lat="44.39915" lon="1.18079">
        <ele>277</ele>
        <time>2021-02-09T11:17:21Z</time>
      </trkpt>
      <trkpt lat="44.39917" lon="1.18078">
        <ele>277</ele>
        <time>2021-02-09T11:17:23Z</time>
      </trkpt>
      <trkpt lat="44.39919" lon="1.18075">
        <ele>276</ele>
        <time>2021-02-09T11:17:25Z</time>
      </trkpt>
      <trkpt lat="44.39921" lon="1.1807">
        <ele>276</ele>
        <time>2021-02-09T11:17:28Z</time>
      </trkpt>
      <trkpt lat="44.39922" lon="1.18066">
        <ele>275</ele>
        <time>2021-02-09T11:17:30Z</time>
      </trkpt>
      <trkpt lat="44.39921" lon="1.18056">
        <ele>276</ele>
        <time>2021-02-09T11:17:36Z</time>
      </trkpt>
      <trkpt lat="44.39921" lon="1.18052">
        <ele>276</ele>
        <time>2021-02-09T11:17:38Z</time>
      </trkpt>
      <trkpt lat="44.39913" lon="1.18036">
        <ele>276</ele>
        <time>2021-02-09T11:17:48Z</time>
      </trkpt>
      <trkpt lat="44.39911" lon="1.18021">
        <ele>274</ele>
        <time>2021-02-09T11:17:56Z</time>
      </trkpt>
      <trkpt lat="44.39912" lon="1.18018">
        <ele>274</ele>
        <time>2021-02-09T11:17:58Z</time>
      </trkpt>
      <trkpt lat="44.39913" lon="1.18014">
        <ele>274</ele>
        <time>2021-02-09T11:18:00Z</time>
      </trkpt>
      <trkpt lat="44.39916" lon="1.18012">
        <ele>274</ele>
        <time>2021-02-09T11:18:02Z</time>
      </trkpt>
      <trkpt lat="44.39935" lon="1.17998">
        <ele>273</ele>
        <time>2021-02-09T11:18:18Z</time>
      </trkpt>
      <trkpt lat="44.39948" lon="1.17992">
        <ele>273</ele>
        <time>2021-02-09T11:18:28Z</time>
      </trkpt>
      <trkpt lat="44.39983" lon="1.17965">
        <ele>270</ele>
        <time>2021-02-09T11:18:59Z</time>
      </trkpt>
      <trkpt lat="44.39998" lon="1.17958">
        <ele>271</ele>
        <time>2021-02-09T11:19:10Z</time>
      </trkpt>
      <trkpt lat="44.40004" lon="1.17957">
        <ele>271</ele>
        <time>2021-02-09T11:19:15Z</time>
      </trkpt>
      <trkpt lat="44.40009" lon="1.17954">
        <ele>271</ele>
        <time>2021-02-09T11:19:19Z</time>
      </trkpt>
      <trkpt lat="44.40016" lon="1.17946">
        <ele>272</ele>
        <time>2021-02-09T11:19:26Z</time>
      </trkpt>
      <trkpt lat="44.40045" lon="1.17928">
        <ele>270</ele>
        <time>2021-02-09T11:19:51Z</time>
      </trkpt>
      <trkpt lat="44.40061" lon="1.17924">
        <ele>267</ele>
        <time>2021-02-09T11:20:04Z</time>
      </trkpt>
      <trkpt lat="44.40064" lon="1.17924">
        <ele>268</ele>
        <time>2021-02-09T11:20:06Z</time>
      </trkpt>
      <trkpt lat="44.40068" lon="1.17925">
        <ele>268</ele>
        <time>2021-02-09T11:20:08Z</time>
      </trkpt>
      <trkpt lat="44.40072" lon="1.17924">
        <ele>269</ele>
        <time>2021-02-09T11:20:10Z</time>
      </trkpt>
      <trkpt lat="44.40074" lon="1.17923">
        <ele>269</ele>
        <time>2021-02-09T11:20:12Z</time>
      </trkpt>
      <trkpt lat="44.40077" lon="1.17923">
        <ele>270</ele>
        <time>2021-02-09T11:20:14Z</time>
      </trkpt>
      <trkpt lat="44.40082" lon="1.17922">
        <ele>271</ele>
        <time>2021-02-09T11:20:18Z</time>
      </trkpt>
      <trkpt lat="44.40085" lon="1.17922">
        <ele>272</ele>
        <time>2021-02-09T11:20:20Z</time>
      </trkpt>
      <trkpt lat="44.40088" lon="1.17922">
        <ele>272</ele>
        <time>2021-02-09T11:20:22Z</time>
      </trkpt>
      <trkpt lat="44.40088" lon="1.17918">
        <ele>272</ele>
        <time>2021-02-09T11:20:27Z</time>
      </trkpt>
      <trkpt lat="44.40086" lon="1.17918">
        <ele>273</ele>
        <time>2021-02-09T11:20:30Z</time>
      </trkpt>
      <trkpt lat="44.40085" lon="1.17921">
        <ele>273</ele>
        <time>2021-02-09T11:20:32Z</time>
      </trkpt>
      <trkpt lat="44.40087" lon="1.17923">
        <ele>273</ele>
        <time>2021-02-09T11:20:34Z</time>
      </trkpt>
      <trkpt lat="44.40092" lon="1.17925">
        <ele>273</ele>
        <time>2021-02-09T11:20:38Z</time>
      </trkpt>
      <trkpt lat="44.40111" lon="1.17928">
        <ele>272</ele>
        <time>2021-02-09T11:20:54Z</time>
      </trkpt>
      <trkpt lat="44.40113" lon="1.17928">
        <ele>272</ele>
        <time>2021-02-09T11:20:56Z</time>
      </trkpt>
      <trkpt lat="44.40115" lon="1.17928">
        <ele>271</ele>
        <time>2021-02-09T11:21:11Z</time>
      </trkpt>
      <trkpt lat="44.40117" lon="1.17929">
        <ele>270</ele>
        <time>2021-02-09T11:21:13Z</time>
      </trkpt>
      <trkpt lat="44.40125" lon="1.1793">
        <ele>269</ele>
        <time>2021-02-09T11:21:19Z</time>
      </trkpt>
      <trkpt lat="44.40155" lon="1.17933">
        <ele>270</ele>
        <time>2021-02-09T11:31:52Z</time>
      </trkpt>
      <trkpt lat="44.4017" lon="1.17932">
        <ele>270</ele>
        <time>2021-02-09T11:32:04Z</time>
      </trkpt>
      <trkpt lat="44.40178" lon="1.17933">
        <ele>271</ele>
        <time>2021-02-09T11:32:10Z</time>
      </trkpt>
      <trkpt lat="44.40191" lon="1.17933">
        <ele>271</ele>
        <time>2021-02-09T11:32:18Z</time>
      </trkpt>
      <trkpt lat="44.40212" lon="1.17939">
        <ele>270</ele>
        <time>2021-02-09T11:32:34Z</time>
      </trkpt>
      <trkpt lat="44.40242" lon="1.1794">
        <ele>268</ele>
        <time>2021-02-09T11:32:56Z</time>
      </trkpt>
      <trkpt lat="44.40285" lon="1.1795">
        <ele>268</ele>
        <time>2021-02-09T11:33:26Z</time>
      </trkpt>
      <trkpt lat="44.40328" lon="1.17966">
        <ele>268</ele>
        <time>2021-02-09T11:33:58Z</time>
      </trkpt>
      <trkpt lat="44.4037" lon="1.17986">
        <ele>267</ele>
        <time>2021-02-09T11:34:31Z</time>
      </trkpt>
      <trkpt lat="44.40384" lon="1.17989">
        <ele>267</ele>
        <time>2021-02-09T11:34:41Z</time>
      </trkpt>
      <trkpt lat="44.40389" lon="1.1799">
        <ele>267</ele>
        <time>2021-02-09T11:34:45Z</time>
      </trkpt>
      <trkpt lat="44.40398" lon="1.17988">
        <ele>267</ele>
        <time>2021-02-09T11:34:51Z</time>
      </trkpt>
      <trkpt lat="44.40444" lon="1.1798">
        <ele>266</ele>
        <time>2021-02-09T11:35:21Z</time>
      </trkpt>
      <trkpt lat="44.40499" lon="1.17965">
        <ele>261</ele>
        <time>2021-02-09T11:35:41Z</time>
      </trkpt>
      <trkpt lat="44.40503" lon="1.17964">
        <ele>261</ele>
        <time>2021-02-09T11:35:43Z</time>
      </trkpt>
      <trkpt lat="44.40516" lon="1.17944">
        <ele>266</ele>
        <time>2021-02-09T11:35:56Z</time>
      </trkpt>
      <trkpt lat="44.40521" lon="1.17938">
        <ele>266</ele>
        <time>2021-02-09T11:36:02Z</time>
      </trkpt>
      <trkpt lat="44.40523" lon="1.17936">
        <ele>265</ele>
        <time>2021-02-09T11:36:04Z</time>
      </trkpt>
      <trkpt lat="44.40537" lon="1.17931">
        <ele>265</ele>
        <time>2021-02-09T11:36:16Z</time>
      </trkpt>
      <trkpt lat="44.4054" lon="1.1793">
        <ele>265</ele>
        <time>2021-02-09T11:36:18Z</time>
      </trkpt>
      <trkpt lat="44.40543" lon="1.1793">
        <ele>265</ele>
        <time>2021-02-09T11:36:21Z</time>
      </trkpt>
      <trkpt lat="44.40546" lon="1.17928">
        <ele>265</ele>
        <time>2021-02-09T11:36:23Z</time>
      </trkpt>
      <trkpt lat="44.40548" lon="1.17929">
        <ele>265</ele>
        <time>2021-02-09T11:36:25Z</time>
      </trkpt>
      <trkpt lat="44.40551" lon="1.17928">
        <ele>265</ele>
        <time>2021-02-09T11:36:29Z</time>
      </trkpt>
      <trkpt lat="44.40556" lon="1.17925">
        <ele>265</ele>
        <time>2021-02-09T11:36:31Z</time>
      </trkpt>
      <trkpt lat="44.4056" lon="1.17924">
        <ele>266</ele>
        <time>2021-02-09T11:36:33Z</time>
      </trkpt>
      <trkpt lat="44.40564" lon="1.17923">
        <ele>265</ele>
        <time>2021-02-09T11:36:35Z</time>
      </trkpt>
      <trkpt lat="44.4057" lon="1.17922">
        <ele>265</ele>
        <time>2021-02-09T11:36:37Z</time>
      </trkpt>
      <trkpt lat="44.40577" lon="1.1792">
        <ele>265</ele>
        <time>2021-02-09T11:36:49Z</time>
      </trkpt>
      <trkpt lat="44.40593" lon="1.17913">
        <ele>264</ele>
        <time>2021-02-09T11:36:53Z</time>
      </trkpt>
      <trkpt lat="44.40616" lon="1.17894">
        <ele>263</ele>
        <time>2021-02-09T11:37:03Z</time>
      </trkpt>
      <trkpt lat="44.40628" lon="1.17884">
        <ele>265</ele>
        <time>2021-02-09T11:37:10Z</time>
      </trkpt>
      <trkpt lat="44.40632" lon="1.17881">
        <ele>265</ele>
        <time>2021-02-09T11:37:12Z</time>
      </trkpt>
      <trkpt lat="44.40635" lon="1.1788">
        <ele>267</ele>
        <time>2021-02-09T11:37:15Z</time>
      </trkpt>
      <trkpt lat="44.40638" lon="1.17878">
        <ele>268</ele>
        <time>2021-02-09T11:37:18Z</time>
      </trkpt>
      <trkpt lat="44.40641" lon="1.17877">
        <ele>268</ele>
        <time>2021-02-09T11:37:20Z</time>
      </trkpt>
      <trkpt lat="44.40643" lon="1.17877">
        <ele>268</ele>
        <time>2021-02-09T11:37:22Z</time>
      </trkpt>
      <trkpt lat="44.40645" lon="1.17876">
        <ele>269</ele>
        <time>2021-02-09T11:37:24Z</time>
      </trkpt>
      <trkpt lat="44.40646" lon="1.17873">
        <ele>269</ele>
        <time>2021-02-09T11:37:26Z</time>
      </trkpt>
      <trkpt lat="44.40664" lon="1.17859">
        <ele>266</ele>
        <time>2021-02-09T11:37:37Z</time>
      </trkpt>
      <trkpt lat="44.40671" lon="1.17851">
        <ele>267</ele>
        <time>2021-02-09T11:37:40Z</time>
      </trkpt>
      <trkpt lat="44.4069" lon="1.17837">
        <ele>267</ele>
        <time>2021-02-09T11:37:47Z</time>
      </trkpt>
      <trkpt lat="44.40698" lon="1.17827">
        <ele>267</ele>
        <time>2021-02-09T11:37:50Z</time>
      </trkpt>
      <trkpt lat="44.40719" lon="1.17773">
        <ele>269</ele>
        <time>2021-02-09T11:38:04Z</time>
      </trkpt>
      <trkpt lat="44.40727" lon="1.17752">
        <ele>270</ele>
        <time>2021-02-09T11:38:09Z</time>
      </trkpt>
      <trkpt lat="44.40747" lon="1.17713">
        <ele>272</ele>
        <time>2021-02-09T11:38:20Z</time>
      </trkpt>
      <trkpt lat="44.40755" lon="1.17702">
        <ele>272</ele>
        <time>2021-02-09T11:38:24Z</time>
      </trkpt>
      <trkpt lat="44.40787" lon="1.17682">
        <ele>275</ele>
        <time>2021-02-09T11:38:36Z</time>
      </trkpt>
      <trkpt lat="44.40827" lon="1.17645">
        <ele>275</ele>
        <time>2021-02-09T11:38:53Z</time>
      </trkpt>
      <trkpt lat="44.4083" lon="1.17642">
        <ele>276</ele>
        <time>2021-02-09T11:38:55Z</time>
      </trkpt>
      <trkpt lat="44.40831" lon="1.17638">
        <ele>277</ele>
        <time>2021-02-09T11:38:57Z</time>
      </trkpt>
      <trkpt lat="44.40847" lon="1.17604">
        <ele>279</ele>
        <time>2021-02-09T11:39:27Z</time>
      </trkpt>
      <trkpt lat="44.40851" lon="1.17598">
        <ele>277</ele>
        <time>2021-02-09T11:39:31Z</time>
      </trkpt>
      <trkpt lat="44.40852" lon="1.17595">
        <ele>276</ele>
        <time>2021-02-09T11:39:33Z</time>
      </trkpt>
      <trkpt lat="44.40854" lon="1.17592">
        <ele>276</ele>
        <time>2021-02-09T11:39:35Z</time>
      </trkpt>
      <trkpt lat="44.4086" lon="1.17576">
        <ele>276</ele>
        <time>2021-02-09T11:39:46Z</time>
      </trkpt>
      <trkpt lat="44.40864" lon="1.1757">
        <ele>275</ele>
        <time>2021-02-09T11:39:50Z</time>
      </trkpt>
      <trkpt lat="44.40868" lon="1.17566">
        <ele>275</ele>
        <time>2021-02-09T11:39:54Z</time>
      </trkpt>
      <trkpt lat="44.40873" lon="1.17561">
        <ele>277</ele>
        <time>2021-02-09T11:39:59Z</time>
      </trkpt>
      <trkpt lat="44.40879" lon="1.17555">
        <ele>277</ele>
        <time>2021-02-09T11:40:04Z</time>
      </trkpt>
      <trkpt lat="44.40884" lon="1.17554">
        <ele>277</ele>
        <time>2021-02-09T11:40:08Z</time>
      </trkpt>
      <trkpt lat="44.40886" lon="1.17553">
        <ele>277</ele>
        <time>2021-02-09T11:40:10Z</time>
      </trkpt>
      <trkpt lat="44.4089" lon="1.17544">
        <ele>277</ele>
        <time>2021-02-09T11:40:16Z</time>
      </trkpt>
      <trkpt lat="44.40907" lon="1.17466">
        <ele>273</ele>
        <time>2021-02-09T11:40:40Z</time>
      </trkpt>
      <trkpt lat="44.40912" lon="1.17458">
        <ele>272</ele>
        <time>2021-02-09T11:40:43Z</time>
      </trkpt>
      <trkpt lat="44.40912" lon="1.17454">
        <ele>272</ele>
        <time>2021-02-09T11:40:44Z</time>
      </trkpt>
      <trkpt lat="44.40914" lon="1.17451">
        <ele>271</ele>
        <time>2021-02-09T11:40:45Z</time>
      </trkpt>
      <trkpt lat="44.40915" lon="1.1745">
        <ele>271</ele>
        <time>2021-02-09T11:40:46Z</time>
      </trkpt>
      <trkpt lat="44.40921" lon="1.17451">
        <ele>272</ele>
        <time>2021-02-09T11:40:50Z</time>
      </trkpt>
      <trkpt lat="44.40926" lon="1.17466">
        <ele>274</ele>
        <time>2021-02-09T11:41:00Z</time>
      </trkpt>
      <trkpt lat="44.40931" lon="1.17472">
        <ele>273</ele>
        <time>2021-02-09T11:41:05Z</time>
      </trkpt>
      <trkpt lat="44.40936" lon="1.17477">
        <ele>272</ele>
        <time>2021-02-09T11:41:10Z</time>
      </trkpt>
      <trkpt lat="44.40948" lon="1.17492">
        <ele>271</ele>
        <time>2021-02-09T11:41:25Z</time>
      </trkpt>
      <trkpt lat="44.40954" lon="1.17502">
        <ele>271</ele>
        <time>2021-02-09T11:41:32Z</time>
      </trkpt>
      <trkpt lat="44.40956" lon="1.17509">
        <ele>270</ele>
        <time>2021-02-09T11:41:36Z</time>
      </trkpt>
      <trkpt lat="44.40957" lon="1.17513">
        <ele>269</ele>
        <time>2021-02-09T11:41:40Z</time>
      </trkpt>
      <trkpt lat="44.40957" lon="1.17546">
        <ele>265</ele>
        <time>2021-02-09T11:42:11Z</time>
      </trkpt>
      <trkpt lat="44.40957" lon="1.17552">
        <ele>264</ele>
        <time>2021-02-09T11:42:14Z</time>
      </trkpt>
      <trkpt lat="44.40963" lon="1.17571">
        <ele>261</ele>
        <time>2021-02-09T11:42:24Z</time>
      </trkpt>
      <trkpt lat="44.40963" lon="1.1758">
        <ele>260</ele>
        <time>2021-02-09T11:42:26Z</time>
      </trkpt>
      <trkpt lat="44.40964" lon="1.17587">
        <ele>260</ele>
        <time>2021-02-09T11:42:28Z</time>
      </trkpt>
      <trkpt lat="44.40966" lon="1.17594">
        <ele>259</ele>
        <time>2021-02-09T11:42:30Z</time>
      </trkpt>
      <trkpt lat="44.40979" lon="1.1761">
        <ele>258</ele>
        <time>2021-02-09T11:42:38Z</time>
      </trkpt>
      <trkpt lat="44.40983" lon="1.17617">
        <ele>256</ele>
        <time>2021-02-09T11:42:40Z</time>
      </trkpt>
      <trkpt lat="44.40994" lon="1.17633">
        <ele>257</ele>
        <time>2021-02-09T11:42:48Z</time>
      </trkpt>
      <trkpt lat="44.41022" lon="1.17658">
        <ele>260</ele>
        <time>2021-02-09T11:43:20Z</time>
      </trkpt>
      <trkpt lat="44.41032" lon="1.17664">
        <ele>259</ele>
        <time>2021-02-09T11:43:29Z</time>
      </trkpt>
      <trkpt lat="44.41033" lon="1.17665">
        <ele>259</ele>
        <time>2021-02-09T11:43:31Z</time>
      </trkpt>
      <trkpt lat="44.41036" lon="1.17666">
        <ele>258</ele>
        <time>2021-02-09T11:43:33Z</time>
      </trkpt>
      <trkpt lat="44.41044" lon="1.1767">
        <ele>258</ele>
        <time>2021-02-09T11:43:39Z</time>
      </trkpt>
      <trkpt lat="44.41046" lon="1.1767">
        <ele>258</ele>
        <time>2021-02-09T11:43:41Z</time>
      </trkpt>
      <trkpt lat="44.41058" lon="1.17665">
        <ele>257</ele>
        <time>2021-02-09T11:43:49Z</time>
      </trkpt>
      <trkpt lat="44.41066" lon="1.17669">
        <ele>257</ele>
        <time>2021-02-09T11:43:55Z</time>
      </trkpt>
      <trkpt lat="44.41072" lon="1.17676">
        <ele>257</ele>
        <time>2021-02-09T11:44:01Z</time>
      </trkpt>
      <trkpt lat="44.41076" lon="1.17686">
        <ele>258</ele>
        <time>2021-02-09T11:44:07Z</time>
      </trkpt>
      <trkpt lat="44.41084" lon="1.17695">
        <ele>258</ele>
        <time>2021-02-09T11:44:15Z</time>
      </trkpt>
      <trkpt lat="44.41089" lon="1.177">
        <ele>258</ele>
        <time>2021-02-09T11:44:19Z</time>
      </trkpt>
      <trkpt lat="44.41091" lon="1.17701">
        <ele>259</ele>
        <time>2021-02-09T11:44:21Z</time>
      </trkpt>
      <trkpt lat="44.4109" lon="1.17704">
        <ele>259</ele>
        <time>2021-02-09T11:44:31Z</time>
      </trkpt>
      <trkpt lat="44.41093" lon="1.17704">
        <ele>259</ele>
        <time>2021-02-09T11:44:42Z</time>
      </trkpt>
      <trkpt lat="44.41115" lon="1.1771">
        <ele>260</ele>
        <time>2021-02-09T11:45:00Z</time>
      </trkpt>
      <trkpt lat="44.41122" lon="1.17714">
        <ele>259</ele>
        <time>2021-02-09T11:45:06Z</time>
      </trkpt>
      <trkpt lat="44.41125" lon="1.17715">
        <ele>259</ele>
        <time>2021-02-09T11:45:08Z</time>
      </trkpt>
      <trkpt lat="44.4113" lon="1.17715">
        <ele>260</ele>
        <time>2021-02-09T11:45:12Z</time>
      </trkpt>
      <trkpt lat="44.41135" lon="1.17711">
        <ele>260</ele>
        <time>2021-02-09T11:45:17Z</time>
      </trkpt>
      <trkpt lat="44.41143" lon="1.1771">
        <ele>261</ele>
        <time>2021-02-09T11:45:23Z</time>
      </trkpt>
      <trkpt lat="44.41146" lon="1.17708">
        <ele>261</ele>
        <time>2021-02-09T11:45:25Z</time>
      </trkpt>
      <trkpt lat="44.41151" lon="1.17706">
        <ele>262</ele>
        <time>2021-02-09T11:45:30Z</time>
      </trkpt>
      <trkpt lat="44.41154" lon="1.17703">
        <ele>263</ele>
        <time>2021-02-09T11:45:34Z</time>
      </trkpt>
      <trkpt lat="44.41162" lon="1.177">
        <ele>263</ele>
        <time>2021-02-09T11:45:41Z</time>
      </trkpt>
      <trkpt lat="44.41164" lon="1.17699">
        <ele>263</ele>
        <time>2021-02-09T11:45:43Z</time>
      </trkpt>
      <trkpt lat="44.41171" lon="1.1769">
        <ele>264</ele>
        <time>2021-02-09T11:45:51Z</time>
      </trkpt>
      <trkpt lat="44.41203" lon="1.17671">
        <ele>267</ele>
        <time>2021-02-09T11:46:21Z</time>
      </trkpt>
      <trkpt lat="44.41211" lon="1.17667">
        <ele>267</ele>
        <time>2021-02-09T11:46:28Z</time>
      </trkpt>
      <trkpt lat="44.41222" lon="1.1767">
        <ele>266</ele>
        <time>2021-02-09T11:46:36Z</time>
      </trkpt>
      <trkpt lat="44.41226" lon="1.17672">
        <ele>266</ele>
        <time>2021-02-09T11:46:40Z</time>
      </trkpt>
      <trkpt lat="44.41229" lon="1.17673">
        <ele>266</ele>
        <time>2021-02-09T11:46:42Z</time>
      </trkpt>
      <trkpt lat="44.41231" lon="1.17674">
        <ele>266</ele>
        <time>2021-02-09T11:46:44Z</time>
      </trkpt>
      <trkpt lat="44.4124" lon="1.17668">
        <ele>266</ele>
        <time>2021-02-09T11:46:52Z</time>
      </trkpt>
      <trkpt lat="44.41248" lon="1.17661">
        <ele>267</ele>
        <time>2021-02-09T11:47:00Z</time>
      </trkpt>
      <trkpt lat="44.4125" lon="1.17657">
        <ele>266</ele>
        <time>2021-02-09T11:47:04Z</time>
      </trkpt>
      <trkpt lat="44.41255" lon="1.17645">
        <ele>268</ele>
        <time>2021-02-09T11:47:12Z</time>
      </trkpt>
      <trkpt lat="44.41258" lon="1.17641">
        <ele>268</ele>
        <time>2021-02-09T11:47:16Z</time>
      </trkpt>
      <trkpt lat="44.41264" lon="1.1764">
        <ele>268</ele>
        <time>2021-02-09T11:47:20Z</time>
      </trkpt>
      <trkpt lat="44.41266" lon="1.1764">
        <ele>267</ele>
        <time>2021-02-09T11:47:22Z</time>
      </trkpt>
      <trkpt lat="44.41268" lon="1.17637">
        <ele>266</ele>
        <time>2021-02-09T11:47:25Z</time>
      </trkpt>
      <trkpt lat="44.4127" lon="1.17634">
        <ele>266</ele>
        <time>2021-02-09T11:47:28Z</time>
      </trkpt>
      <trkpt lat="44.41272" lon="1.17632">
        <ele>266</ele>
        <time>2021-02-09T11:47:30Z</time>
      </trkpt>
      <trkpt lat="44.41275" lon="1.17634">
        <ele>266</ele>
        <time>2021-02-09T11:47:33Z</time>
      </trkpt>
      <trkpt lat="44.41278" lon="1.17637">
        <ele>266</ele>
        <time>2021-02-09T11:47:36Z</time>
      </trkpt>
      <trkpt lat="44.41279" lon="1.17641">
        <ele>266</ele>
        <time>2021-02-09T11:47:38Z</time>
      </trkpt>
      <trkpt lat="44.41279" lon="1.17644">
        <ele>266</ele>
        <time>2021-02-09T11:47:40Z</time>
      </trkpt>
      <trkpt lat="44.41289" lon="1.17649">
        <ele>264</ele>
        <time>2021-02-09T11:47:50Z</time>
      </trkpt>
      <trkpt lat="44.41292" lon="1.17653">
        <ele>263</ele>
        <time>2021-02-09T11:47:53Z</time>
      </trkpt>
      <trkpt lat="44.41296" lon="1.17662">
        <ele>263</ele>
        <time>2021-02-09T11:47:59Z</time>
      </trkpt>
      <trkpt lat="44.41298" lon="1.17668">
        <ele>263</ele>
        <time>2021-02-09T11:48:02Z</time>
      </trkpt>
      <trkpt lat="44.41298" lon="1.17674">
        <ele>262</ele>
        <time>2021-02-09T11:48:05Z</time>
      </trkpt>
      <trkpt lat="44.41295" lon="1.17689">
        <ele>263</ele>
        <time>2021-02-09T11:48:15Z</time>
      </trkpt>
      <trkpt lat="44.41295" lon="1.17694">
        <ele>263</ele>
        <time>2021-02-09T11:48:18Z</time>
      </trkpt>
      <trkpt lat="44.41311" lon="1.17708">
        <ele>260</ele>
        <time>2021-02-09T11:48:27Z</time>
      </trkpt>
      <trkpt lat="44.41315" lon="1.17709">
        <ele>260</ele>
        <time>2021-02-09T11:48:29Z</time>
      </trkpt>
      <trkpt lat="44.41327" lon="1.17704">
        <ele>257</ele>
        <time>2021-02-09T11:48:35Z</time>
      </trkpt>
      <trkpt lat="44.41349" lon="1.17703">
        <ele>254</ele>
        <time>2021-02-09T11:48:42Z</time>
      </trkpt>
      <trkpt lat="44.41355" lon="1.17701">
        <ele>254</ele>
        <time>2021-02-09T11:48:44Z</time>
      </trkpt>
      <trkpt lat="44.4137" lon="1.17686">
        <ele>254</ele>
        <time>2021-02-09T11:48:50Z</time>
      </trkpt>
      <trkpt lat="44.41381" lon="1.17669">
        <ele>254</ele>
        <time>2021-02-09T11:48:56Z</time>
      </trkpt>
      <trkpt lat="44.41384" lon="1.17666">
        <ele>256</ele>
        <time>2021-02-09T11:49:09Z</time>
      </trkpt>
      <trkpt lat="44.41389" lon="1.17661">
        <ele>259</ele>
        <time>2021-02-09T11:49:41Z</time>
      </trkpt>
      <trkpt lat="44.41392" lon="1.17651">
        <ele>260</ele>
        <time>2021-02-09T11:49:48Z</time>
      </trkpt>
      <trkpt lat="44.41396" lon="1.17642">
        <ele>260</ele>
        <time>2021-02-09T11:49:54Z</time>
      </trkpt>
      <trkpt lat="44.414" lon="1.17626">
        <ele>259</ele>
        <time>2021-02-09T11:50:04Z</time>
      </trkpt>
      <trkpt lat="44.41409" lon="1.17581">
        <ele>260</ele>
        <time>2021-02-09T11:50:29Z</time>
      </trkpt>
      <trkpt lat="44.41418" lon="1.17557">
        <ele>261</ele>
        <time>2021-02-09T11:50:45Z</time>
      </trkpt>
      <trkpt lat="44.4142" lon="1.17551">
        <ele>260</ele>
        <time>2021-02-09T11:50:49Z</time>
      </trkpt>
      <trkpt lat="44.41424" lon="1.17541">
        <ele>259</ele>
        <time>2021-02-09T11:51:03Z</time>
      </trkpt>
      <trkpt lat="44.41426" lon="1.17539">
        <ele>259</ele>
        <time>2021-02-09T11:51:05Z</time>
      </trkpt>
      <trkpt lat="44.4143" lon="1.1753">
        <ele>258</ele>
        <time>2021-02-09T11:51:12Z</time>
      </trkpt>
      <trkpt lat="44.41434" lon="1.17523">
        <ele>257</ele>
        <time>2021-02-09T11:51:17Z</time>
      </trkpt>
      <trkpt lat="44.41437" lon="1.17518">
        <ele>256</ele>
        <time>2021-02-09T11:51:30Z</time>
      </trkpt>
      <trkpt lat="44.41439" lon="1.17517">
        <ele>256</ele>
        <time>2021-02-09T11:51:35Z</time>
      </trkpt>
      <trkpt lat="44.41445" lon="1.17514">
        <ele>258</ele>
        <time>2021-02-09T11:51:43Z</time>
      </trkpt>
      <trkpt lat="44.41447" lon="1.17514">
        <ele>257</ele>
        <time>2021-02-09T11:51:45Z</time>
      </trkpt>
      <trkpt lat="44.41449" lon="1.17516">
        <ele>258</ele>
        <time>2021-02-09T11:51:47Z</time>
      </trkpt>
      <trkpt lat="44.41457" lon="1.17535">
        <ele>255</ele>
        <time>2021-02-09T11:51:59Z</time>
      </trkpt>
      <trkpt lat="44.4146" lon="1.17545">
        <ele>253</ele>
        <time>2021-02-09T11:52:02Z</time>
      </trkpt>
      <trkpt lat="44.41465" lon="1.17558">
        <ele>253</ele>
        <time>2021-02-09T11:52:08Z</time>
      </trkpt>
      <trkpt lat="44.41485" lon="1.17578">
        <ele>252</ele>
        <time>2021-02-09T11:52:26Z</time>
      </trkpt>
      <trkpt lat="44.41489" lon="1.17579">
        <ele>251</ele>
        <time>2021-02-09T11:52:29Z</time>
      </trkpt>
      <trkpt lat="44.41491" lon="1.1758">
        <ele>250</ele>
        <time>2021-02-09T11:52:31Z</time>
      </trkpt>
      <trkpt lat="44.41519" lon="1.17592">
        <ele>248</ele>
        <time>2021-02-09T11:52:53Z</time>
      </trkpt>
      <trkpt lat="44.41532" lon="1.17596">
        <ele>247</ele>
        <time>2021-02-09T11:53:03Z</time>
      </trkpt>
      <trkpt lat="44.41537" lon="1.17596">
        <ele>248</ele>
        <time>2021-02-09T11:53:10Z</time>
      </trkpt>
      <trkpt lat="44.41541" lon="1.17595">
        <ele>248</ele>
        <time>2021-02-09T11:53:14Z</time>
      </trkpt>
      <trkpt lat="44.41543" lon="1.17595">
        <ele>249</ele>
        <time>2021-02-09T11:53:16Z</time>
      </trkpt>
      <trkpt lat="44.41548" lon="1.17596">
        <ele>249</ele>
        <time>2021-02-09T11:53:20Z</time>
      </trkpt>
      <trkpt lat="44.41552" lon="1.17594">
        <ele>250</ele>
        <time>2021-02-09T11:53:24Z</time>
      </trkpt>
      <trkpt lat="44.41569" lon="1.17581">
        <ele>253</ele>
        <time>2021-02-09T11:53:38Z</time>
      </trkpt>
      <trkpt lat="44.41581" lon="1.17578">
        <ele>253</ele>
        <time>2021-02-09T11:53:48Z</time>
      </trkpt>
      <trkpt lat="44.41589" lon="1.1758">
        <ele>253</ele>
        <time>2021-02-09T11:53:54Z</time>
      </trkpt>
      <trkpt lat="44.41612" lon="1.17589">
        <ele>251</ele>
        <time>2021-02-09T11:54:11Z</time>
      </trkpt>
      <trkpt lat="44.41615" lon="1.1759">
        <ele>251</ele>
        <time>2021-02-09T11:54:12Z</time>
      </trkpt>
      <trkpt lat="44.41621" lon="1.17588">
        <ele>250</ele>
        <time>2021-02-09T11:54:14Z</time>
      </trkpt>
      <trkpt lat="44.41645" lon="1.17573">
        <ele>249</ele>
        <time>2021-02-09T11:54:22Z</time>
      </trkpt>
      <trkpt lat="44.41704" lon="1.17512">
        <ele>248</ele>
        <time>2021-02-09T11:54:45Z</time>
      </trkpt>
      <trkpt lat="44.41711" lon="1.17495">
        <ele>249</ele>
        <time>2021-02-09T11:54:50Z</time>
      </trkpt>
      <trkpt lat="44.41717" lon="1.17486">
        <ele>250</ele>
        <time>2021-02-09T11:54:52Z</time>
      </trkpt>
      <trkpt lat="44.41732" lon="1.17471">
        <ele>251</ele>
        <time>2021-02-09T11:54:59Z</time>
      </trkpt>
      <trkpt lat="44.41749" lon="1.17444">
        <ele>254</ele>
        <time>2021-02-09T11:55:09Z</time>
      </trkpt>
      <trkpt lat="44.41778" lon="1.17412">
        <ele>255</ele>
        <time>2021-02-09T11:55:19Z</time>
      </trkpt>
      <trkpt lat="44.41844" lon="1.17349">
        <ele>254</ele>
        <time>2021-02-09T11:55:47Z</time>
      </trkpt>
      <trkpt lat="44.41911" lon="1.17269">
        <ele>248</ele>
        <time>2021-02-09T11:56:14Z</time>
      </trkpt>
      <trkpt lat="44.4193" lon="1.17246">
        <ele>249</ele>
        <time>2021-02-09T11:56:22Z</time>
      </trkpt>
      <trkpt lat="44.41931" lon="1.17242">
        <ele>249</ele>
        <time>2021-02-09T11:56:24Z</time>
      </trkpt>
      <trkpt lat="44.41933" lon="1.17241">
        <ele>248</ele>
        <time>2021-02-09T11:56:32Z</time>
      </trkpt>
      <trkpt lat="44.41933" lon="1.17244">
        <ele>249</ele>
        <time>2021-02-09T11:56:36Z</time>
      </trkpt>
      <trkpt lat="44.41924" lon="1.17249">
        <ele>250</ele>
        <time>2021-02-09T11:56:45Z</time>
      </trkpt>
      <trkpt lat="44.4192" lon="1.1725">
        <ele>251</ele>
        <time>2021-02-09T11:56:52Z</time>
      </trkpt>
      <trkpt lat="44.41918" lon="1.17251">
        <ele>251</ele>
        <time>2021-02-09T11:56:54Z</time>
      </trkpt>
      <trkpt lat="44.41917" lon="1.17252">
        <ele>252</ele>
        <time>2021-02-09T11:56:56Z</time>
      </trkpt>
      <trkpt lat="44.41915" lon="1.17252">
        <ele>251</ele>
        <time>2021-02-09T11:56:58Z</time>
      </trkpt>
      <trkpt lat="44.41912" lon="1.17252">
        <ele>250</ele>
        <time>2021-02-09T11:57:01Z</time>
      </trkpt>
      <trkpt lat="44.41888" lon="1.17263">
        <ele>247</ele>
        <time>2021-02-09T11:57:25Z</time>
      </trkpt>
      <trkpt lat="44.4187" lon="1.17275">
        <ele>244</ele>
        <time>2021-02-09T11:57:39Z</time>
      </trkpt>
      <trkpt lat="44.41869" lon="1.17277">
        <ele>243</ele>
        <time>2021-02-09T11:57:41Z</time>
      </trkpt>
      <trkpt lat="44.41848" lon="1.17291">
        <ele>239</ele>
        <time>2021-02-09T11:58:01Z</time>
      </trkpt>
      <trkpt lat="44.41841" lon="1.17296">
        <ele>238</ele>
        <time>2021-02-09T11:58:07Z</time>
      </trkpt>
      <trkpt lat="44.41823" lon="1.17308">
        <ele>237</ele>
        <time>2021-02-09T11:58:39Z</time>
      </trkpt>
      <trkpt lat="44.41778" lon="1.17344">
        <ele>231</ele>
        <time>2021-02-09T11:59:09Z</time>
      </trkpt>
      <trkpt lat="44.41759" lon="1.17362">
        <ele>227</ele>
        <time>2021-02-09T11:59:17Z</time>
      </trkpt>
      <trkpt lat="44.41749" lon="1.17371">
        <ele>227</ele>
        <time>2021-02-09T11:59:25Z</time>
      </trkpt>
      <trkpt lat="44.41719" lon="1.17394">
        <ele>220</ele>
        <time>2021-02-09T11:59:50Z</time>
      </trkpt>
      <trkpt lat="44.41709" lon="1.17398">
        <ele>217</ele>
        <time>2021-02-09T11:59:59Z</time>
      </trkpt>
      <trkpt lat="44.41706" lon="1.17398">
        <ele>217</ele>
        <time>2021-02-09T12:00:02Z</time>
      </trkpt>
      <trkpt lat="44.417" lon="1.17392">
        <ele>215</ele>
        <time>2021-02-09T12:00:10Z</time>
      </trkpt>
      <trkpt lat="44.41697" lon="1.17386">
        <ele>214</ele>
        <time>2021-02-09T12:00:13Z</time>
      </trkpt>
      <trkpt lat="44.41695" lon="1.17381">
        <ele>212</ele>
        <time>2021-02-09T12:00:16Z</time>
      </trkpt>
      <trkpt lat="44.41694" lon="1.17375">
        <ele>211</ele>
        <time>2021-02-09T12:00:21Z</time>
      </trkpt>
      <trkpt lat="44.41683" lon="1.17346">
        <ele>206</ele>
        <time>2021-02-09T12:00:35Z</time>
      </trkpt>
      <trkpt lat="44.4168" lon="1.17342">
        <ele>205</ele>
        <time>2021-02-09T12:00:46Z</time>
      </trkpt>
      <trkpt lat="44.41676" lon="1.17339">
        <ele>204</ele>
        <time>2021-02-09T12:00:49Z</time>
      </trkpt>
      <trkpt lat="44.41674" lon="1.17335">
        <ele>203</ele>
        <time>2021-02-09T12:00:53Z</time>
      </trkpt>
      <trkpt lat="44.41671" lon="1.17329">
        <ele>202</ele>
        <time>2021-02-09T12:00:56Z</time>
      </trkpt>
      <trkpt lat="44.41646" lon="1.17297">
        <ele>194</ele>
        <time>2021-02-09T12:01:26Z</time>
      </trkpt>
      <trkpt lat="44.41638" lon="1.17283">
        <ele>192</ele>
        <time>2021-02-09T12:01:37Z</time>
      </trkpt>
      <trkpt lat="44.41634" lon="1.17277">
        <ele>192</ele>
        <time>2021-02-09T12:01:42Z</time>
      </trkpt>
      <trkpt lat="44.4163" lon="1.17273">
        <ele>190</ele>
        <time>2021-02-09T12:01:46Z</time>
      </trkpt>
      <trkpt lat="44.41618" lon="1.17239">
        <ele>187</ele>
        <time>2021-02-09T12:02:02Z</time>
      </trkpt>
      <trkpt lat="44.41612" lon="1.17233">
        <ele>187</ele>
        <time>2021-02-09T12:02:06Z</time>
      </trkpt>
      <trkpt lat="44.41602" lon="1.17229">
        <ele>189</ele>
        <time>2021-02-09T12:02:14Z</time>
      </trkpt>
      <trkpt lat="44.41596" lon="1.17228">
        <ele>189</ele>
        <time>2021-02-09T12:02:18Z</time>
      </trkpt>
      <trkpt lat="44.41592" lon="1.17222">
        <ele>188</ele>
        <time>2021-02-09T12:02:22Z</time>
      </trkpt>
      <trkpt lat="44.41572" lon="1.17195">
        <ele>186</ele>
        <time>2021-02-09T12:02:37Z</time>
      </trkpt>
      <trkpt lat="44.41566" lon="1.17183">
        <ele>184</ele>
        <time>2021-02-09T12:02:41Z</time>
      </trkpt>
      <trkpt lat="44.41547" lon="1.17153">
        <ele>182</ele>
        <time>2021-02-09T12:02:51Z</time>
      </trkpt>
      <trkpt lat="44.41544" lon="1.17147">
        <ele>182</ele>
        <time>2021-02-09T12:02:53Z</time>
      </trkpt>
      <trkpt lat="44.41543" lon="1.1714">
        <ele>182</ele>
        <time>2021-02-09T12:02:56Z</time>
      </trkpt>
      <trkpt lat="44.41563" lon="1.17118">
        <ele>183</ele>
        <time>2021-02-09T12:03:06Z</time>
      </trkpt>
      <trkpt lat="44.4159" lon="1.17098">
        <ele>185</ele>
        <time>2021-02-09T12:03:16Z</time>
      </trkpt>
      <trkpt lat="44.41649" lon="1.1705">
        <ele>183</ele>
        <time>2021-02-09T12:03:39Z</time>
      </trkpt>
      <trkpt lat="44.41703" lon="1.17025">
        <ele>179</ele>
        <time>2021-02-09T12:04:10Z</time>
      </trkpt>
      <trkpt lat="44.41709" lon="1.17012">
        <ele>178</ele>
        <time>2021-02-09T12:04:13Z</time>
      </trkpt>
      <trkpt lat="44.41712" lon="1.17001">
        <ele>177</ele>
        <time>2021-02-09T12:04:15Z</time>
      </trkpt>
      <trkpt lat="44.41706" lon="1.16934">
        <ele>180</ele>
        <time>2021-02-09T12:04:29Z</time>
      </trkpt>
      <trkpt lat="44.41695" lon="1.16852">
        <ele>178</ele>
        <time>2021-02-09T12:04:48Z</time>
      </trkpt>
      <trkpt lat="44.41685" lon="1.16791">
        <ele>178</ele>
        <time>2021-02-09T12:05:02Z</time>
      </trkpt>
      <trkpt lat="44.41678" lon="1.16763">
        <ele>174</ele>
        <time>2021-02-09T12:07:04Z</time>
      </trkpt>
      <trkpt lat="44.41684" lon="1.16761">
        <ele>173</ele>
        <time>2021-02-09T12:07:07Z</time>
      </trkpt>
      <trkpt lat="44.4173" lon="1.1675">
        <ele>174</ele>
        <time>2021-02-09T12:07:39Z</time>
      </trkpt>
      <trkpt lat="44.41774" lon="1.16736">
        <ele>171</ele>
        <time>2021-02-09T12:08:11Z</time>
      </trkpt>
      <trkpt lat="44.41792" lon="1.16732">
        <ele>170</ele>
        <time>2021-02-09T12:08:25Z</time>
      </trkpt>
      <trkpt lat="44.41801" lon="1.16726">
        <ele>170</ele>
        <time>2021-02-09T12:08:33Z</time>
      </trkpt>
      <trkpt lat="44.41802" lon="1.16723">
        <ele>169</ele>
        <time>2021-02-09T12:08:35Z</time>
      </trkpt>
      <trkpt lat="44.41803" lon="1.1672">
        <ele>169</ele>
        <time>2021-02-09T12:08:38Z</time>
      </trkpt>
      <trkpt lat="44.41805" lon="1.16714">
        <ele>170</ele>
        <time>2021-02-09T12:08:50Z</time>
      </trkpt>
      <trkpt lat="44.41806" lon="1.16709">
        <ele>170</ele>
        <time>2021-02-09T12:08:54Z</time>
      </trkpt>
      <trkpt lat="44.41798" lon="1.16696">
        <ele>168</ele>
        <time>2021-02-09T12:09:03Z</time>
      </trkpt>
      <trkpt lat="44.41792" lon="1.16684">
        <ele>165</ele>
        <time>2021-02-09T12:09:12Z</time>
      </trkpt>
      <trkpt lat="44.4179" lon="1.16678">
        <ele>164</ele>
        <time>2021-02-09T12:09:15Z</time>
      </trkpt>
      <trkpt lat="44.41783" lon="1.16652">
        <ele>161</ele>
        <time>2021-02-09T12:09:31Z</time>
      </trkpt>
      <trkpt lat="44.41783" lon="1.16647">
        <ele>161</ele>
        <time>2021-02-09T12:09:34Z</time>
      </trkpt>
      <trkpt lat="44.41783" lon="1.16643">
        <ele>161</ele>
        <time>2021-02-09T12:09:37Z</time>
      </trkpt>
      <trkpt lat="44.41789" lon="1.16637">
        <ele>162</ele>
        <time>2021-02-09T12:09:44Z</time>
      </trkpt>
      <trkpt lat="44.41794" lon="1.16627">
        <ele>164</ele>
        <time>2021-02-09T12:09:50Z</time>
      </trkpt>
      <trkpt lat="44.41796" lon="1.16622">
        <ele>164</ele>
        <time>2021-02-09T12:09:52Z</time>
      </trkpt>
      <trkpt lat="44.41796" lon="1.16587">
        <ele>171</ele>
        <time>2021-02-09T12:10:09Z</time>
      </trkpt>
      <trkpt lat="44.41789" lon="1.16523">
        <ele>167</ele>
        <time>2021-02-09T12:10:23Z</time>
      </trkpt>
      <trkpt lat="44.41791" lon="1.16486">
        <ele>165</ele>
        <time>2021-02-09T12:10:32Z</time>
      </trkpt>
      <trkpt lat="44.41792" lon="1.16482">
        <ele>165</ele>
        <time>2021-02-09T12:10:39Z</time>
      </trkpt>
      <trkpt lat="44.41794" lon="1.16476">
        <ele>165</ele>
        <time>2021-02-09T12:10:49Z</time>
      </trkpt>
      <trkpt lat="44.41804" lon="1.16413">
        <ele>164</ele>
        <time>2021-02-09T12:11:20Z</time>
      </trkpt>
      <trkpt lat="44.41812" lon="1.16375">
        <ele>166</ele>
        <time>2021-02-09T12:11:30Z</time>
      </trkpt>
      <trkpt lat="44.41852" lon="1.1629">
        <ele>162</ele>
        <time>2021-02-09T12:11:50Z</time>
      </trkpt>
      <trkpt lat="44.41856" lon="1.16279">
        <ele>161</ele>
        <time>2021-02-09T12:11:56Z</time>
      </trkpt>
      <trkpt lat="44.41861" lon="1.1627">
        <ele>161</ele>
        <time>2021-02-09T12:12:01Z</time>
      </trkpt>
      <trkpt lat="44.41872" lon="1.16245">
        <ele>164</ele>
        <time>2021-02-09T12:12:21Z</time>
      </trkpt>
      <trkpt lat="44.41891" lon="1.16215">
        <ele>165</ele>
        <time>2021-02-09T12:12:48Z</time>
      </trkpt>
      <trkpt lat="44.41899" lon="1.16205">
        <ele>164</ele>
        <time>2021-02-09T12:13:33Z</time>
      </trkpt>
      <trkpt lat="44.41907" lon="1.16199">
        <ele>165</ele>
        <time>2021-02-09T12:13:42Z</time>
      </trkpt>
      <trkpt lat="44.41908" lon="1.16195">
        <ele>164</ele>
        <time>2021-02-09T12:13:45Z</time>
      </trkpt>
      <trkpt lat="44.41916" lon="1.16186">
        <ele>163</ele>
        <time>2021-02-09T12:13:51Z</time>
      </trkpt>
      <trkpt lat="44.41918" lon="1.16182">
        <ele>163</ele>
        <time>2021-02-09T12:13:53Z</time>
      </trkpt>
      <trkpt lat="44.41918" lon="1.16179">
        <ele>162</ele>
        <time>2021-02-09T12:13:55Z</time>
      </trkpt>
      <trkpt lat="44.41922" lon="1.16169">
        <ele>164</ele>
        <time>2021-02-09T12:14:02Z</time>
      </trkpt>
      <trkpt lat="44.41933" lon="1.16142">
        <ele>163</ele>
        <time>2021-02-09T12:14:10Z</time>
      </trkpt>
      <trkpt lat="44.41937" lon="1.1613">
        <ele>163</ele>
        <time>2021-02-09T12:14:13Z</time>
      </trkpt>
      <trkpt lat="44.41939" lon="1.16126">
        <ele>163</ele>
        <time>2021-02-09T12:14:15Z</time>
      </trkpt>
      <trkpt lat="44.41951" lon="1.16098">
        <ele>163</ele>
        <time>2021-02-09T12:14:24Z</time>
      </trkpt>
      <trkpt lat="44.41955" lon="1.16086">
        <ele>161</ele>
        <time>2021-02-09T12:14:28Z</time>
      </trkpt>
      <trkpt lat="44.41971" lon="1.16055">
        <ele>155</ele>
        <time>2021-02-09T12:14:38Z</time>
      </trkpt>
      <trkpt lat="44.41974" lon="1.16048">
        <ele>154</ele>
        <time>2021-02-09T12:14:40Z</time>
      </trkpt>
      <trkpt lat="44.4198" lon="1.16025">
        <ele>153</ele>
        <time>2021-02-09T12:14:52Z</time>
      </trkpt>
      <trkpt lat="44.4198" lon="1.16011">
        <ele>154</ele>
        <time>2021-02-09T12:14:59Z</time>
      </trkpt>
      <trkpt lat="44.41976" lon="1.15991">
        <ele>156</ele>
        <time>2021-02-09T12:16:06Z</time>
      </trkpt>
      <trkpt lat="44.41973" lon="1.15986">
        <ele>157</ele>
        <time>2021-02-09T12:16:10Z</time>
      </trkpt>
      <trkpt lat="44.41972" lon="1.15983">
        <ele>158</ele>
        <time>2021-02-09T12:16:33Z</time>
      </trkpt>
      <trkpt lat="44.4197" lon="1.15979">
        <ele>159</ele>
        <time>2021-02-09T12:17:55Z</time>
      </trkpt>
      <trkpt lat="44.41968" lon="1.15977">
        <ele>160</ele>
        <time>2021-02-09T12:17:57Z</time>
      </trkpt>
      <trkpt lat="44.41965" lon="1.15976">
        <ele>161</ele>
        <time>2021-02-09T12:17:59Z</time>
      </trkpt>
      <trkpt lat="44.41959" lon="1.15975">
        <ele>161</ele>
        <time>2021-02-09T12:18:02Z</time>
      </trkpt>
      <trkpt lat="44.41933" lon="1.1596">
        <ele>161</ele>
        <time>2021-02-09T12:18:09Z</time>
      </trkpt>
      <trkpt lat="44.41927" lon="1.15953">
        <ele>161</ele>
        <time>2021-02-09T12:18:11Z</time>
      </trkpt>
      <trkpt lat="44.41926" lon="1.15949">
        <ele>161</ele>
        <time>2021-02-09T12:18:12Z</time>
      </trkpt>
      <trkpt lat="44.41925" lon="1.15946">
        <ele>161</ele>
        <time>2021-02-09T12:18:13Z</time>
      </trkpt>
      <trkpt lat="44.41926" lon="1.15941">
        <ele>161</ele>
        <time>2021-02-09T12:18:15Z</time>
      </trkpt>
      <trkpt lat="44.41927" lon="1.15934">
        <ele>160</ele>
        <time>2021-02-09T12:18:45Z</time>
      </trkpt>
      <trkpt lat="44.41928" lon="1.15919">
        <ele>160</ele>
        <time>2021-02-09T12:18:52Z</time>
      </trkpt>
      <trkpt lat="44.41929" lon="1.15916">
        <ele>160</ele>
        <time>2021-02-09T12:19:35Z</time>
      </trkpt>
      <trkpt lat="44.41929" lon="1.15904">
        <ele>160</ele>
        <time>2021-02-09T12:19:41Z</time>
      </trkpt>
      <trkpt lat="44.4193" lon="1.15901">
        <ele>159</ele>
        <time>2021-02-09T12:19:44Z</time>
      </trkpt>
      <trkpt lat="44.41931" lon="1.15892">
        <ele>158</ele>
        <time>2021-02-09T12:19:56Z</time>
      </trkpt>
      <trkpt lat="44.4193" lon="1.1589">
        <ele>158</ele>
        <time>2021-02-09T12:19:58Z</time>
      </trkpt>
      <trkpt lat="44.41933" lon="1.15884">
        <ele>154</ele>
        <time>2021-02-09T12:20:07Z</time>
      </trkpt>
      <trkpt lat="44.41933" lon="1.15811">
        <ele>154</ele>
        <time>2021-02-09T12:20:10Z</time>
      </trkpt>
      <trkpt lat="44.41941" lon="1.15756">
        <ele>157</ele>
        <time>2021-02-09T12:20:23Z</time>
      </trkpt>
      <trkpt lat="44.41954" lon="1.15682">
        <ele>157</ele>
        <time>2021-02-09T12:20:25Z</time>
      </trkpt>
      <trkpt lat="44.41952" lon="1.15629">
        <ele>160</ele>
        <time>2021-02-09T12:20:34Z</time>
      </trkpt>
      <trkpt lat="44.41961" lon="1.15567">
        <ele>160</ele>
        <time>2021-02-09T12:20:36Z</time>
      </trkpt>
      <trkpt lat="44.41955" lon="1.15559">
        <ele>155</ele>
        <time>2021-02-09T08:26:07Z</time>
      </trkpt>
      <trkpt lat="44.41948" lon="1.15553">
        <ele>154.9</ele>
        <time>2021-02-09T08:26:07Z</time>
      </trkpt>
      <trkpt lat="44.41944" lon="1.15544">
        <ele>154.7</ele>
        <time>2021-02-09T08:26:07Z</time>
      </trkpt>
      <trkpt lat="44.41948" lon="1.15506">
        <ele>154.1</ele>
        <time>2021-02-09T08:26:07Z</time>
      </trkpt>
      <trkpt lat="44.41958" lon="1.15482">
        <ele>160</ele>
        <time>2021-02-09T12:20:36Z</time>
      </trkpt>
      <trkpt lat="44.41963" lon="1.15473">
        <ele>154.1</ele>
        <time>2021-02-09T08:26:07Z</time>
      </trkpt>
      <trkpt lat="44.41994" lon="1.15399">
        <ele>153.7</ele>
        <time>2021-02-09T08:26:07Z</time>
      </trkpt>
      <trkpt lat="44.42006" lon="1.15351">
        <ele>160</ele>
        <time>2021-02-09T12:20:36Z</time>
      </trkpt>
      <trkpt lat="44.42008" lon="1.15342">
        <ele>152.6</ele>
        <time>2021-02-09T08:26:07Z</time>
      </trkpt>
      <trkpt lat="44.42008" lon="1.15323">
        <ele>152.3</ele>
        <time>2021-02-09T08:26:07Z</time>
      </trkpt>
      <trkpt lat="44.41993" lon="1.15276">
        <ele>151.6</ele>
        <time>2021-02-09T08:26:07Z</time>
      </trkpt>
      <trkpt lat="44.41994" lon="1.15257">
        <ele>151.3</ele>
        <time>2021-02-09T08:26:07Z</time>
      </trkpt>
      <trkpt lat="44.41993" lon="1.15237">
        <ele>151.3</ele>
        <time>2021-02-09T08:26:07Z</time>
      </trkpt>
      <trkpt lat="44.41988" lon="1.15217">
        <ele>160</ele>
        <time>2021-02-09T12:20:36Z</time>
      </trkpt>
      <trkpt lat="44.41987" lon="1.15207">
        <ele>151.6</ele>
        <time>2021-02-09T08:26:07Z</time>
      </trkpt>
      <trkpt lat="44.41985" lon="1.15189">
        <ele>151.7</ele>
        <time>2021-02-09T08:26:07Z</time>
      </trkpt>
      <trkpt lat="44.41978" lon="1.1514">
        <ele>151.8</ele>
        <time>2021-02-09T08:26:07Z</time>
      </trkpt>
      <trkpt lat="44.41934" lon="1.15069">
        <ele>160</ele>
        <time>2021-02-09T12:20:36Z</time>
      </trkpt>
      <trkpt lat="44.41932" lon="1.15059">
        <ele>154.2</ele>
        <time>2021-02-09T08:26:07Z</time>
      </trkpt>
      <trkpt lat="44.41931" lon="1.15041">
        <ele>154.2</ele>
        <time>2021-02-09T08:26:07Z</time>
      </trkpt>
      <trkpt lat="44.41936" lon="1.15011">
        <ele>154.1</ele>
        <time>2021-02-09T08:26:07Z</time>
      </trkpt>
      <trkpt lat="44.41873" lon="1.15073">
        <ele>160</ele>
        <time>2021-02-09T12:20:36Z</time>
      </trkpt>
      <trkpt lat="44.41866" lon="1.15077">
        <ele>157.9</ele>
        <time>2021-02-09T08:26:07Z</time>
      </trkpt>
      <trkpt lat="44.41853" lon="1.15094">
        <ele>159</ele>
        <time>2021-02-09T08:26:07Z</time>
      </trkpt>
      <trkpt lat="44.41817" lon="1.15172">
        <ele>160</ele>
        <time>2021-02-09T12:20:36Z</time>
      </trkpt>
      <trkpt lat="44.4181" lon="1.15179">
        <ele>162.6</ele>
        <time>2021-02-09T08:26:07Z</time>
      </trkpt>
      <trkpt lat="44.4179" lon="1.15228">
        <ele>164.2</ele>
        <time>2021-02-09T08:26:07Z</time>
      </trkpt>
      <trkpt lat="44.41761" lon="1.15279">
        <ele>160</ele>
        <time>2021-02-09T12:20:36Z</time>
      </trkpt>
      <trkpt lat="44.41755" lon="1.15282">
        <ele>168</ele>
        <time>2021-02-09T08:26:07Z</time>
      </trkpt>
      <trkpt lat="44.4174" lon="1.15295">
        <ele>169.5</ele>
        <time>2021-02-09T08:26:07Z</time>
      </trkpt>
      <trkpt lat="44.41727" lon="1.15299">
        <ele>170.9</ele>
        <time>2021-02-09T08:26:07Z</time>
      </trkpt>
      <trkpt lat="44.41635" lon="1.15358">
        <ele>160</ele>
        <time>2021-02-09T12:20:36Z</time>
      </trkpt>
      <trkpt lat="44.41628" lon="1.15365">
        <ele>181.2</ele>
        <time>2021-02-09T08:26:07Z</time>
      </trkpt>
      <trkpt lat="44.41587" lon="1.15421">
        <ele>160</ele>
        <time>2021-02-09T12:20:36Z</time>
      </trkpt>
      <trkpt lat="44.41589" lon="1.1543">
        <ele>189</ele>
        <time>2021-02-09T08:26:07Z</time>
      </trkpt>
      <trkpt lat="44.41605" lon="1.15483">
        <ele>185.9</ele>
        <time>2021-02-09T08:26:07Z</time>
      </trkpt>
      <trkpt lat="44.41612" lon="1.15524">
        <ele>160</ele>
        <time>2021-02-09T12:20:36Z</time>
      </trkpt>
      <trkpt lat="44.41616" lon="1.15533">
        <ele>184.2</ele>
        <time>2021-02-09T08:26:07Z</time>
      </trkpt>
      <trkpt lat="44.41624" lon="1.15571">
        <ele>183.1</ele>
        <time>2021-02-09T08:26:07Z</time>
      </trkpt>
      <trkpt lat="44.41627" lon="1.1558">
        <ele>182.5</ele>
        <time>2021-02-09T08:26:07Z</time>
      </trkpt>
      <trkpt lat="44.41636" lon="1.15629">
        <ele>180.3</ele>
        <time>2021-02-09T08:26:07Z</time>
      </trkpt>
      <trkpt lat="44.41636" lon="1.15639">
        <ele>180.1</ele>
        <time>2021-02-09T08:26:07Z</time>
      </trkpt>
      <trkpt lat="44.41643" lon="1.15645">
        <ele>160</ele>
        <time>2021-02-09T12:20:36Z</time>
      </trkpt>
      <trkpt lat="44.41648" lon="1.15654">
        <ele>178</ele>
        <time>2021-02-09T08:26:07Z</time>
      </trkpt>
      <trkpt lat="44.41665" lon="1.15727">
        <ele>160</ele>
        <time>2021-02-09T12:20:36Z</time>
      </trkpt>
      <trkpt lat="44.41668" lon="1.15736">
        <ele>174.9</ele>
        <time>2021-02-09T08:26:07Z</time>
      </trkpt>
      <trkpt lat="44.41666" lon="1.15746">
        <ele>175.1</ele>
        <time>2021-02-09T08:26:07Z</time>
      </trkpt>
      <trkpt lat="44.41652" lon="1.1576">
        <ele>175.6</ele>
        <time>2021-02-09T08:26:07Z</time>
      </trkpt>
      <trkpt lat="44.41645" lon="1.15778">
        <ele>175.5</ele>
        <time>2021-02-09T08:26:07Z</time>
      </trkpt>
      <trkpt lat="44.41632" lon="1.15782">
        <ele>176</ele>
        <time>2021-02-09T08:26:07Z</time>
      </trkpt>
    </trkseg>
  </trk>
</gpx>